PWSweather.com
Personal Weather Stations
Station Observations
KOKEDMON15
Cinnamon Ridge, Edmond, OK 73025

Cinnamon RidgeEdmond, OK 73025

Lat: 35.7672561, Lon: -97.5099923

Elevation: 1082.677167

Station Type: Oregon Scientific WMR968

High Low Average
Temperature 58.1°F14.5°C 33.3°F0.7°C 44.3°F6.8°C
Dew Point 18.8°F-7.3°C 12.1°F-11.1°C 15.6°F-9.1°C
Winds 5.4 mph 8.7 kmh Calm Calm Calm SECalm SE
Wind Gusts 5.4 mph8.7 kmh -- --
Humidity 49% 19% 33%
Pressure 28.94 in980.0 mb 28.67 in970.9 mb -
Precipitation 0.00 in0.0 mm - -
Hour Temp Dew Point Humidity Winds Wind Gusts Pressure Precip Precip Rate Daily Precip Total
12:00 AM 41.0°F5.0°C 14.1°F-9.9°C 33% Calm Calm -- 28.94 in980.0 mb 0.00 in0.0 mm 0.00 in/hr0.0 mm/hr 0.00 in0.0 mm
12:02 AM 41.2°F5.1°C 14.3°F-9.8°C 33% Calm Calm -- 28.94 in980.0 mb 0.00 in0.0 mm 0.00 in/hr0.0 mm/hr 0.00 in0.0 mm
12:03 AM 41.2°F5.1°C 14.3°F-9.8°C 33% Calm Calm -- 28.94 in980.0 mb 0.00 in0.0 mm 0.00 in/hr0.0 mm/hr 0.00 in0.0 mm
12:04 AM 41.2°F5.1°C 14.3°F-9.8°C 33% Calm Calm -- 28.94 in980.0 mb 0.00 in0.0 mm 0.00 in/hr0.0 mm/hr 0.00 in0.0 mm
12:06 AM 41.2°F5.1°C 14.3°F-9.8°C 33% Calm Calm -- 28.94 in980.0 mb 0.00 in0.0 mm 0.00 in/hr0.0 mm/hr 0.00 in0.0 mm
12:07 AM 41.2°F5.1°C 14.3°F-9.8°C 33% Calm Calm -- 28.94 in980.0 mb 0.00 in0.0 mm 0.00 in/hr0.0 mm/hr 0.00 in0.0 mm
12:08 AM 41.2°F5.1°C 14.3°F-9.8°C 33% Calm Calm -- 28.94 in980.0 mb 0.00 in0.0 mm 0.00 in/hr0.0 mm/hr 0.00 in0.0 mm
12:09 AM 41.2°F5.1°C 14.3°F-9.8°C 33% Calm Calm -- 28.94 in980.0 mb 0.00 in0.0 mm 0.00 in/hr0.0 mm/hr 0.00 in0.0 mm
12:10 AM 41.4°F5.2°C 13.7°F-10.2°C 32% Calm Calm -- 28.94 in980.0 mb 0.00 in0.0 mm 0.00 in/hr0.0 mm/hr 0.00 in0.0 mm
12:11 AM 41.4°F5.2°C 13.7°F-10.2°C 32% Calm Calm -- 28.94 in980.0 mb 0.00 in0.0 mm 0.00 in/hr0.0 mm/hr 0.00 in0.0 mm
12:13 AM 41.4°F5.2°C 13.7°F-10.2°C 32% Calm Calm -- 28.94 in980.0 mb 0.00 in0.0 mm 0.00 in/hr0.0 mm/hr 0.00 in0.0 mm
12:14 AM 41.4°F5.2°C 13.7°F-10.2°C 32% Calm Calm -- 28.94 in980.0 mb 0.00 in0.0 mm 0.00 in/hr0.0 mm/hr 0.00 in0.0 mm
12:15 AM 41.5°F5.3°C 13.9°F-10.1°C 32% Calm Calm -- 28.94 in980.0 mb 0.00 in0.0 mm 0.00 in/hr0.0 mm/hr 0.00 in0.0 mm
12:16 AM 41.5°F5.3°C 13.9°F-10.1°C 32% Calm Calm -- 28.94 in980.0 mb 0.00 in0.0 mm 0.00 in/hr0.0 mm/hr 0.00 in0.0 mm
12:17 AM 41.5°F5.3°C 13.9°F-10.1°C 32% Calm Calm -- 28.94 in980.0 mb 0.00 in0.0 mm 0.00 in/hr0.0 mm/hr 0.00 in0.0 mm
12:18 AM 41.5°F5.3°C 13.9°F-10.1°C 32% Calm Calm -- 28.94 in980.0 mb 0.00 in0.0 mm 0.00 in/hr0.0 mm/hr 0.00 in0.0 mm
12:20 AM 41.5°F5.3°C 13.9°F-10.1°C 32% Calm Calm -- 28.94 in980.0 mb 0.00 in0.0 mm 0.00 in/hr0.0 mm/hr 0.00 in0.0 mm
12:21 AM 41.5°F5.3°C 13.9°F-10.1°C 32% Calm Calm -- 28.94 in980.0 mb 0.00 in0.0 mm 0.00 in/hr0.0 mm/hr 0.00 in0.0 mm
12:23 AM 41.5°F5.3°C 13.9°F-10.1°C 32% Calm Calm -- 28.94 in980.0 mb 0.00 in0.0 mm 0.00 in/hr0.0 mm/hr 0.00 in0.0 mm
12:24 AM 41.5°F5.3°C 13.9°F-10.1°C 32% Calm Calm -- 28.94 in980.0 mb 0.00 in0.0 mm 0.00 in/hr0.0 mm/hr 0.00 in0.0 mm
12:25 AM 41.5°F5.3°C 13.9°F-10.1°C 32% Calm Calm -- 28.94 in980.0 mb 0.00 in0.0 mm 0.00 in/hr0.0 mm/hr 0.00 in0.0 mm
12:26 AM 41.5°F5.3°C 13.9°F-10.1°C 32% Calm Calm -- 28.94 in980.0 mb 0.00 in0.0 mm 0.00 in/hr0.0 mm/hr 0.00 in0.0 mm
12:27 AM 41.5°F5.3°C 13.9°F-10.1°C 32% Calm Calm -- 28.94 in980.0 mb 0.00 in0.0 mm 0.00 in/hr0.0 mm/hr 0.00 in0.0 mm
12:28 AM 41.5°F5.3°C 13.9°F-10.1°C 32% Calm Calm -- 28.94 in980.0 mb 0.00 in0.0 mm 0.00 in/hr0.0 mm/hr 0.00 in0.0 mm
12:29 AM 41.5°F5.3°C 13.9°F-10.1°C 32% Calm Calm -- 28.94 in980.0 mb 0.00 in0.0 mm 0.00 in/hr0.0 mm/hr 0.00 in0.0 mm
12:32 AM 41.5°F5.3°C 13.9°F-10.1°C 32% Calm Calm -- 28.94 in980.0 mb 0.00 in0.0 mm 0.00 in/hr0.0 mm/hr 0.00 in0.0 mm
12:34 AM 41.5°F5.3°C 13.9°F-10.1°C 32% Calm Calm -- 28.94 in980.0 mb 0.00 in0.0 mm 0.00 in/hr0.0 mm/hr 0.00 in0.0 mm
12:35 AM 41.5°F5.3°C 13.9°F-10.1°C 32% Calm Calm -- 28.94 in980.0 mb 0.00 in0.0 mm 0.00 in/hr0.0 mm/hr 0.00 in0.0 mm
12:36 AM 41.5°F5.3°C 13.9°F-10.1°C 32% Calm Calm -- 28.94 in980.0 mb 0.00 in0.0 mm 0.00 in/hr0.0 mm/hr 0.00 in0.0 mm
12:38 AM 41.5°F5.3°C 14.6°F-9.7°C 33% Calm Calm -- 28.94 in980.0 mb 0.00 in0.0 mm 0.00 in/hr0.0 mm/hr 0.00 in0.0 mm
12:39 AM 41.5°F5.3°C 14.6°F-9.7°C 33% Calm Calm -- 28.94 in980.0 mb 0.00 in0.0 mm 0.00 in/hr0.0 mm/hr 0.00 in0.0 mm
12:40 AM 41.5°F5.3°C 14.6°F-9.7°C 33% Calm Calm -- 28.94 in980.0 mb 0.00 in0.0 mm 0.00 in/hr0.0 mm/hr 0.00 in0.0 mm
12:41 AM 41.5°F5.3°C 14.6°F-9.7°C 33% Calm Calm -- 28.94 in980.0 mb 0.00 in0.0 mm 0.00 in/hr0.0 mm/hr 0.00 in0.0 mm
12:42 AM 41.5°F5.3°C 14.6°F-9.7°C 33% Calm Calm -- 28.94 in980.0 mb 0.00 in0.0 mm 0.00 in/hr0.0 mm/hr 0.00 in0.0 mm
12:43 AM 41.5°F5.3°C 14.6°F-9.7°C 33% Calm Calm -- 28.94 in980.0 mb 0.00 in0.0 mm 0.00 in/hr0.0 mm/hr 0.00 in0.0 mm
12:44 AM 41.4°F5.2°C 14.4°F-9.8°C 33% Calm Calm -- 28.94 in980.0 mb 0.00 in0.0 mm 0.00 in/hr0.0 mm/hr 0.00 in0.0 mm
12:46 AM 41.4°F5.2°C 14.4°F-9.8°C 33% Calm Calm -- 28.94 in980.0 mb 0.00 in0.0 mm 0.00 in/hr0.0 mm/hr 0.00 in0.0 mm
12:47 AM 41.4°F5.2°C 14.4°F-9.8°C 33% Calm Calm -- 28.94 in980.0 mb 0.00 in0.0 mm 0.00 in/hr0.0 mm/hr 0.00 in0.0 mm
12:49 AM 41.5°F5.3°C 14.6°F-9.7°C 33% Calm Calm -- 28.94 in980.0 mb 0.00 in0.0 mm 0.00 in/hr0.0 mm/hr 0.00 in0.0 mm
12:50 AM 41.5°F5.3°C 14.6°F-9.7°C 33% Calm Calm -- 28.94 in980.0 mb 0.00 in0.0 mm 0.00 in/hr0.0 mm/hr 0.00 in0.0 mm
12:52 AM 41.5°F5.3°C 14.6°F-9.7°C 33% Calm Calm -- 28.94 in980.0 mb 0.00 in0.0 mm 0.00 in/hr0.0 mm/hr 0.00 in0.0 mm
12:53 AM 41.5°F5.3°C 14.6°F-9.7°C 33% Calm Calm -- 28.94 in980.0 mb 0.00 in0.0 mm 0.00 in/hr0.0 mm/hr 0.00 in0.0 mm
12:54 AM 41.5°F5.3°C 14.6°F-9.7°C 33% Calm Calm -- 28.94 in980.0 mb 0.00 in0.0 mm 0.00 in/hr0.0 mm/hr 0.00 in0.0 mm
12:55 AM 41.5°F5.3°C 13.9°F-10.1°C 32% Calm Calm -- 28.94 in980.0 mb 0.00 in0.0 mm 0.00 in/hr0.0 mm/hr 0.00 in0.0 mm
12:57 AM 41.5°F5.3°C 14.6°F-9.7°C 33% Calm Calm -- 28.94 in980.0 mb 0.00 in0.0 mm 0.00 in/hr0.0 mm/hr 0.00 in0.0 mm
12:58 AM 41.5°F5.3°C 13.9°F-10.1°C 32% Calm Calm -- 28.94 in980.0 mb 0.00 in0.0 mm 0.00 in/hr0.0 mm/hr 0.00 in0.0 mm
01:00 AM 41.4°F5.2°C 14.4°F-9.8°C 33% Calm Calm -- 28.94 in980.0 mb 0.00 in0.0 mm 0.00 in/hr0.0 mm/hr 0.00 in0.0 mm
01:01 AM 41.4°F5.2°C 14.4°F-9.8°C 33% Calm Calm -- 28.94 in980.0 mb 0.00 in0.0 mm 0.00 in/hr0.0 mm/hr 0.00 in0.0 mm
01:02 AM 41.4°F5.2°C 14.4°F-9.8°C 33% Calm Calm -- 28.94 in980.0 mb 0.00 in0.0 mm 0.00 in/hr0.0 mm/hr 0.00 in0.0 mm
01:04 AM 41.4°F5.2°C 14.4°F-9.8°C 33% Calm Calm -- 28.94 in980.0 mb 0.00 in0.0 mm 0.00 in/hr0.0 mm/hr 0.00 in0.0 mm
01:05 AM 41.4°F5.2°C 14.4°F-9.8°C 33% Calm Calm -- 28.94 in980.0 mb 0.00 in0.0 mm 0.00 in/hr0.0 mm/hr 0.00 in0.0 mm
01:06 AM 41.4°F5.2°C 14.4°F-9.8°C 33% Calm Calm -- 28.94 in980.0 mb 0.00 in0.0 mm 0.00 in/hr0.0 mm/hr 0.00 in0.0 mm
01:07 AM 41.4°F5.2°C 14.4°F-9.8°C 33% Calm Calm -- 28.94 in980.0 mb 0.00 in0.0 mm 0.00 in/hr0.0 mm/hr 0.00 in0.0 mm
01:09 AM 41.4°F5.2°C 14.4°F-9.8°C 33% Calm Calm -- 28.94 in980.0 mb 0.00 in0.0 mm 0.00 in/hr0.0 mm/hr 0.00 in0.0 mm
01:10 AM 41.4°F5.2°C 14.4°F-9.8°C 33% Calm Calm -- 28.94 in980.0 mb 0.00 in0.0 mm 0.00 in/hr0.0 mm/hr 0.00 in0.0 mm
01:12 AM 41.2°F5.1°C 14.3°F-9.8°C 33% Calm Calm -- 28.94 in980.0 mb 0.00 in0.0 mm 0.00 in/hr0.0 mm/hr 0.00 in0.0 mm
01:13 AM 41.2°F5.1°C 14.3°F-9.8°C 33% Calm Calm -- 28.94 in980.0 mb 0.00 in0.0 mm 0.00 in/hr0.0 mm/hr 0.00 in0.0 mm
01:14 AM 41.2°F5.1°C 14.3°F-9.8°C 33% Calm Calm -- 28.94 in980.0 mb 0.00 in0.0 mm 0.00 in/hr0.0 mm/hr 0.00 in0.0 mm
01:15 AM 41.2°F5.1°C 14.3°F-9.8°C 33% Calm Calm -- 28.94 in980.0 mb 0.00 in0.0 mm 0.00 in/hr0.0 mm/hr 0.00 in0.0 mm
01:16 AM 41.2°F5.1°C 14.3°F-9.8°C 33% Calm Calm -- 28.94 in980.0 mb 0.00 in0.0 mm 0.00 in/hr0.0 mm/hr 0.00 in0.0 mm
01:17 AM 41.2°F5.1°C 14.3°F-9.8°C 33% Calm Calm -- 28.91 in979.0 mb 0.00 in0.0 mm 0.00 in/hr0.0 mm/hr 0.00 in0.0 mm
01:19 AM 41.2°F5.1°C 14.3°F-9.8°C 33% Calm Calm -- 28.91 in979.0 mb 0.00 in0.0 mm 0.00 in/hr0.0 mm/hr 0.00 in0.0 mm
01:20 AM 41.2°F5.1°C 15.0°F-9.4°C 34% Calm Calm -- 28.91 in979.0 mb 0.00 in0.0 mm 0.00 in/hr0.0 mm/hr 0.00 in0.0 mm
01:21 AM 41.2°F5.1°C 15.0°F-9.4°C 34% Calm Calm -- 28.91 in979.0 mb 0.00 in0.0 mm 0.00 in/hr0.0 mm/hr 0.00 in0.0 mm
01:23 AM 41.2°F5.1°C 15.0°F-9.4°C 34% Calm Calm -- 28.91 in979.0 mb 0.00 in0.0 mm 0.00 in/hr0.0 mm/hr 0.00 in0.0 mm
01:24 AM 41.2°F5.1°C 15.0°F-9.4°C 34% Calm Calm -- 28.91 in979.0 mb 0.00 in0.0 mm 0.00 in/hr0.0 mm/hr 0.00 in0.0 mm
01:26 AM 41.2°F5.1°C 15.0°F-9.4°C 34% Calm Calm -- 28.91 in979.0 mb 0.00 in0.0 mm 0.00 in/hr0.0 mm/hr 0.00 in0.0 mm
01:27 AM 41.2°F5.1°C 15.0°F-9.4°C 34% Calm Calm -- 28.91 in979.0 mb 0.00 in0.0 mm 0.00 in/hr0.0 mm/hr 0.00 in0.0 mm
01:28 AM 41.2°F5.1°C 15.0°F-9.4°C 34% Calm Calm -- 28.91 in979.0 mb 0.00 in0.0 mm 0.00 in/hr0.0 mm/hr 0.00 in0.0 mm
01:30 AM 41.2°F5.1°C 15.0°F-9.4°C 34% Calm Calm -- 28.91 in979.0 mb 0.00 in0.0 mm 0.00 in/hr0.0 mm/hr 0.00 in0.0 mm
01:31 AM 41.2°F5.1°C 15.0°F-9.4°C 34% Calm Calm -- 28.91 in979.0 mb 0.00 in0.0 mm 0.00 in/hr0.0 mm/hr 0.00 in0.0 mm
01:32 AM 41.2°F5.1°C 15.0°F-9.4°C 34% Calm Calm -- 28.94 in980.0 mb 0.00 in0.0 mm 0.00 in/hr0.0 mm/hr 0.00 in0.0 mm
01:33 AM 41.4°F5.2°C 15.1°F-9.4°C 34% Calm Calm -- 28.94 in980.0 mb 0.00 in0.0 mm 0.00 in/hr0.0 mm/hr 0.00 in0.0 mm
01:35 AM 41.4°F5.2°C 15.1°F-9.4°C 34% Calm Calm -- 28.94 in980.0 mb 0.00 in0.0 mm 0.00 in/hr0.0 mm/hr 0.00 in0.0 mm
01:36 AM 41.4°F5.2°C 14.4°F-9.8°C 33% Calm Calm -- 28.94 in980.0 mb 0.00 in0.0 mm 0.00 in/hr0.0 mm/hr 0.00 in0.0 mm
01:37 AM 41.4°F5.2°C 14.4°F-9.8°C 33% Calm Calm -- 28.94 in980.0 mb 0.00 in0.0 mm 0.00 in/hr0.0 mm/hr 0.00 in0.0 mm
01:38 AM 41.4°F5.2°C 14.4°F-9.8°C 33% Calm Calm -- 28.94 in980.0 mb 0.00 in0.0 mm 0.00 in/hr0.0 mm/hr 0.00 in0.0 mm
01:39 AM 41.4°F5.2°C 14.4°F-9.8°C 33% Calm Calm -- 28.94 in980.0 mb 0.00 in0.0 mm 0.00 in/hr0.0 mm/hr 0.00 in0.0 mm
01:41 AM 41.5°F5.3°C 14.6°F-9.7°C 33% Calm Calm -- 28.94 in980.0 mb 0.00 in0.0 mm 0.00 in/hr0.0 mm/hr 0.00 in0.0 mm
01:42 AM 41.5°F5.3°C 14.6°F-9.7°C 33% Calm Calm -- 28.94 in980.0 mb 0.00 in0.0 mm 0.00 in/hr0.0 mm/hr 0.00 in0.0 mm
01:43 AM 41.5°F5.3°C 14.6°F-9.7°C 33% Calm Calm -- 28.94 in980.0 mb 0.00 in0.0 mm 0.00 in/hr0.0 mm/hr 0.00 in0.0 mm
01:44 AM 41.5°F5.3°C 14.6°F-9.7°C 33% Calm Calm -- 28.94 in980.0 mb 0.00 in0.0 mm 0.00 in/hr0.0 mm/hr 0.00 in0.0 mm
01:46 AM 41.7°F5.4°C 14.8°F-9.6°C 33% Calm Calm -- 28.94 in980.0 mb 0.00 in0.0 mm 0.00 in/hr0.0 mm/hr 0.00 in0.0 mm
01:47 AM 41.7°F5.4°C 14.8°F-9.6°C 33% Calm Calm -- 28.94 in980.0 mb 0.00 in0.0 mm 0.00 in/hr0.0 mm/hr 0.00 in0.0 mm
01:48 AM 41.7°F5.4°C 14.1°F-9.9°C 32% Calm Calm -- 28.91 in979.0 mb 0.00 in0.0 mm 0.00 in/hr0.0 mm/hr 0.00 in0.0 mm
01:49 AM 41.7°F5.4°C 14.1°F-9.9°C 32% Calm Calm -- 28.91 in979.0 mb 0.00 in0.0 mm 0.00 in/hr0.0 mm/hr 0.00 in0.0 mm
01:50 AM 41.7°F5.4°C 14.1°F-9.9°C 32% Calm Calm -- 28.91 in979.0 mb 0.00 in0.0 mm 0.00 in/hr0.0 mm/hr 0.00 in0.0 mm
01:52 AM 41.7°F5.4°C 14.1°F-9.9°C 32% Calm Calm -- 28.91 in979.0 mb 0.00 in0.0 mm 0.00 in/hr0.0 mm/hr 0.00 in0.0 mm
01:53 AM 41.7°F5.4°C 14.1°F-9.9°C 32% Calm Calm -- 28.91 in979.0 mb 0.00 in0.0 mm 0.00 in/hr0.0 mm/hr 0.00 in0.0 mm
01:54 AM 41.7°F5.4°C 14.1°F-9.9°C 32% Calm Calm -- 28.91 in979.0 mb 0.00 in0.0 mm 0.00 in/hr0.0 mm/hr 0.00 in0.0 mm
01:56 AM 41.7°F5.4°C 14.1°F-9.9°C 32% Calm Calm -- 28.91 in979.0 mb 0.00 in0.0 mm 0.00 in/hr0.0 mm/hr 0.00 in0.0 mm
01:57 AM 41.7°F5.4°C 14.1°F-9.9°C 32% Calm Calm -- 28.91 in979.0 mb 0.00 in0.0 mm 0.00 in/hr0.0 mm/hr 0.00 in0.0 mm
01:58 AM 41.7°F5.4°C 14.1°F-9.9°C 32% Calm Calm -- 28.91 in979.0 mb 0.00 in0.0 mm 0.00 in/hr0.0 mm/hr 0.00 in0.0 mm
01:59 AM 41.7°F5.4°C 14.1°F-9.9°C 32% Calm Calm -- 28.91 in979.0 mb 0.00 in0.0 mm 0.00 in/hr0.0 mm/hr 0.00 in0.0 mm
02:01 AM 41.5°F5.3°C 13.9°F-10.1°C 32% Calm Calm -- 28.91 in979.0 mb 0.00 in0.0 mm 0.00 in/hr0.0 mm/hr 0.00 in0.0 mm
02:02 AM 41.5°F5.3°C 13.9°F-10.1°C 32% Calm Calm -- 28.91 in979.0 mb 0.00 in0.0 mm 0.00 in/hr0.0 mm/hr 0.00 in0.0 mm
02:03 AM 41.5°F5.3°C 13.9°F-10.1°C 32% Calm Calm -- 28.91 in979.0 mb 0.00 in0.0 mm 0.00 in/hr0.0 mm/hr 0.00 in0.0 mm
02:04 AM 41.5°F5.3°C 13.9°F-10.1°C 32% Calm Calm -- 28.91 in979.0 mb 0.00 in0.0 mm 0.00 in/hr0.0 mm/hr 0.00 in0.0 mm
02:05 AM 41.5°F5.3°C 13.9°F-10.1°C 32% Calm Calm -- 28.91 in979.0 mb 0.00 in0.0 mm 0.00 in/hr0.0 mm/hr 0.00 in0.0 mm
02:07 AM 41.5°F5.3°C 13.9°F-10.1°C 32% Calm Calm -- 28.91 in979.0 mb 0.00 in0.0 mm 0.00 in/hr0.0 mm/hr 0.00 in0.0 mm
02:09 AM 41.5°F5.3°C 13.9°F-10.1°C 32% Calm Calm -- 28.91 in979.0 mb 0.00 in0.0 mm 0.00 in/hr0.0 mm/hr 0.00 in0.0 mm
02:10 AM 41.5°F5.3°C 13.9°F-10.1°C 32% Calm Calm -- 28.91 in979.0 mb 0.00 in0.0 mm 0.00 in/hr0.0 mm/hr 0.00 in0.0 mm
02:12 AM 41.5°F5.3°C 13.9°F-10.1°C 32% Calm Calm -- 28.91 in979.0 mb 0.00 in0.0 mm 0.00 in/hr0.0 mm/hr 0.00 in0.0 mm
02:13 AM 41.5°F5.3°C 13.9°F-10.1°C 32% Calm Calm -- 28.91 in979.0 mb 0.00 in0.0 mm 0.00 in/hr0.0 mm/hr 0.00 in0.0 mm
02:14 AM 41.5°F5.3°C 13.9°F-10.1°C 32% Calm Calm -- 28.91 in979.0 mb 0.00 in0.0 mm 0.00 in/hr0.0 mm/hr 0.00 in0.0 mm
02:15 AM 41.5°F5.3°C 13.9°F-10.1°C 32% Calm Calm -- 28.91 in979.0 mb 0.00 in0.0 mm 0.00 in/hr0.0 mm/hr 0.00 in0.0 mm
02:16 AM 41.5°F5.3°C 13.9°F-10.1°C 32% Calm Calm -- 28.91 in979.0 mb 0.00 in0.0 mm 0.00 in/hr0.0 mm/hr 0.00 in0.0 mm
02:17 AM 41.5°F5.3°C 13.9°F-10.1°C 32% Calm Calm -- 28.91 in979.0 mb 0.00 in0.0 mm 0.00 in/hr0.0 mm/hr 0.00 in0.0 mm
02:18 AM 41.5°F5.3°C 13.9°F-10.1°C 32% Calm Calm -- 28.91 in979.0 mb 0.00 in0.0 mm 0.00 in/hr0.0 mm/hr 0.00 in0.0 mm
02:20 AM 41.5°F5.3°C 13.9°F-10.1°C 32% Calm Calm -- 28.91 in979.0 mb 0.00 in0.0 mm 0.00 in/hr0.0 mm/hr 0.00 in0.0 mm
02:21 AM 41.5°F5.3°C 13.9°F-10.1°C 32% Calm Calm -- 28.91 in979.0 mb 0.00 in0.0 mm 0.00 in/hr0.0 mm/hr 0.00 in0.0 mm
02:23 AM 41.5°F5.3°C 13.9°F-10.1°C 32% Calm Calm -- 28.91 in979.0 mb 0.00 in0.0 mm 0.00 in/hr0.0 mm/hr 0.00 in0.0 mm
02:24 AM 41.5°F5.3°C 13.9°F-10.1°C 32% Calm Calm -- 28.91 in979.0 mb 0.00 in0.0 mm 0.00 in/hr0.0 mm/hr 0.00 in0.0 mm
02:25 AM 41.5°F5.3°C 13.9°F-10.1°C 32% Calm Calm -- 28.91 in979.0 mb 0.00 in0.0 mm 0.00 in/hr0.0 mm/hr 0.00 in0.0 mm
02:27 AM 41.5°F5.3°C 13.9°F-10.1°C 32% Calm Calm -- 28.91 in979.0 mb 0.00 in0.0 mm 0.00 in/hr0.0 mm/hr 0.00 in0.0 mm
02:28 AM 41.5°F5.3°C 13.9°F-10.1°C 32% Calm Calm -- 28.91 in979.0 mb 0.00 in0.0 mm 0.00 in/hr0.0 mm/hr 0.00 in0.0 mm
02:29 AM 41.4°F5.2°C 13.7°F-10.2°C 32% Calm Calm -- 28.91 in979.0 mb 0.00 in0.0 mm 0.00 in/hr0.0 mm/hr 0.00 in0.0 mm
02:30 AM 41.4°F5.2°C 13.7°F-10.2°C 32% Calm Calm -- 28.91 in979.0 mb 0.00 in0.0 mm 0.00 in/hr0.0 mm/hr 0.00 in0.0 mm
02:31 AM 41.4°F5.2°C 13.7°F-10.2°C 32% Calm Calm -- 28.91 in979.0 mb 0.00 in0.0 mm 0.00 in/hr0.0 mm/hr 0.00 in0.0 mm
02:33 AM 41.4°F5.2°C 13.7°F-10.2°C 32% Calm Calm -- 28.91 in979.0 mb 0.00 in0.0 mm 0.00 in/hr0.0 mm/hr 0.00 in0.0 mm
02:35 AM 41.5°F5.3°C 13.9°F-10.1°C 32% Calm Calm -- 28.91 in979.0 mb 0.00 in0.0 mm 0.00 in/hr0.0 mm/hr 0.00 in0.0 mm
02:36 AM 41.5°F5.3°C 13.9°F-10.1°C 32% Calm Calm -- 28.91 in979.0 mb 0.00 in0.0 mm 0.00 in/hr0.0 mm/hr 0.00 in0.0 mm
02:38 AM 41.5°F5.3°C 13.9°F-10.1°C 32% Calm Calm -- 28.91 in979.0 mb 0.00 in0.0 mm 0.00 in/hr0.0 mm/hr 0.00 in0.0 mm
02:39 AM 41.4°F5.2°C 13.7°F-10.2°C 32% Calm Calm -- 28.91 in979.0 mb 0.00 in0.0 mm 0.00 in/hr0.0 mm/hr 0.00 in0.0 mm
02:41 AM 41.4°F5.2°C 13.7°F-10.2°C 32% Calm Calm -- 28.91 in979.0 mb 0.00 in0.0 mm 0.00 in/hr0.0 mm/hr 0.00 in0.0 mm
02:42 AM 41.4°F5.2°C 13.7°F-10.2°C 32% Calm Calm -- 28.91 in979.0 mb 0.00 in0.0 mm 0.00 in/hr0.0 mm/hr 0.00 in0.0 mm
02:43 AM 41.4°F5.2°C 13.7°F-10.2°C 32% Calm Calm -- 28.91 in979.0 mb 0.00 in0.0 mm 0.00 in/hr0.0 mm/hr 0.00 in0.0 mm
02:45 AM 41.4°F5.2°C 13.7°F-10.2°C 32% Calm Calm -- 28.91 in979.0 mb 0.00 in0.0 mm 0.00 in/hr0.0 mm/hr 0.00 in0.0 mm
02:46 AM 41.4°F5.2°C 13.7°F-10.2°C 32% Calm Calm -- 28.91 in979.0 mb 0.00 in0.0 mm 0.00 in/hr0.0 mm/hr 0.00 in0.0 mm
02:47 AM 41.5°F5.3°C 13.9°F-10.1°C 32% Calm Calm -- 28.91 in979.0 mb 0.00 in0.0 mm 0.00 in/hr0.0 mm/hr 0.00 in0.0 mm
02:49 AM 41.5°F5.3°C 13.9°F-10.1°C 32% Calm Calm -- 28.94 in980.0 mb 0.00 in0.0 mm 0.00 in/hr0.0 mm/hr 0.00 in0.0 mm
02:50 AM 41.5°F5.3°C 13.9°F-10.1°C 32% Calm Calm -- 28.94 in980.0 mb 0.00 in0.0 mm 0.00 in/hr0.0 mm/hr 0.00 in0.0 mm
02:51 AM 41.5°F5.3°C 13.9°F-10.1°C 32% Calm Calm -- 28.94 in980.0 mb 0.00 in0.0 mm 0.00 in/hr0.0 mm/hr 0.00 in0.0 mm
02:53 AM 41.4°F5.2°C 13.7°F-10.2°C 32% Calm Calm -- 28.94 in980.0 mb 0.00 in0.0 mm 0.00 in/hr0.0 mm/hr 0.00 in0.0 mm
02:54 AM 41.4°F5.2°C 14.4°F-9.8°C 33% Calm Calm -- 28.94 in980.0 mb 0.00 in0.0 mm 0.00 in/hr0.0 mm/hr 0.00 in0.0 mm
02:56 AM 41.4°F5.2°C 14.4°F-9.8°C 33% Calm Calm -- 28.94 in980.0 mb 0.00 in0.0 mm 0.00 in/hr0.0 mm/hr 0.00 in0.0 mm
02:57 AM 41.4°F5.2°C 14.4°F-9.8°C 33% Calm Calm -- 28.94 in980.0 mb 0.00 in0.0 mm 0.00 in/hr0.0 mm/hr 0.00 in0.0 mm
02:58 AM 41.4°F5.2°C 14.4°F-9.8°C 33% Calm Calm -- 28.94 in980.0 mb 0.00 in0.0 mm 0.00 in/hr0.0 mm/hr 0.00 in0.0 mm
02:59 AM 41.4°F5.2°C 14.4°F-9.8°C 33% Calm Calm -- 28.94 in980.0 mb 0.00 in0.0 mm 0.00 in/hr0.0 mm/hr 0.00 in0.0 mm
03:01 AM 41.4°F5.2°C 14.4°F-9.8°C 33% Calm Calm -- 28.94 in980.0 mb 0.00 in0.0 mm 0.00 in/hr0.0 mm/hr 0.00 in0.0 mm
03:02 AM 41.5°F5.3°C 14.6°F-9.7°C 33% Calm Calm -- 28.94 in980.0 mb 0.00 in0.0 mm 0.00 in/hr0.0 mm/hr 0.00 in0.0 mm
03:04 AM 41.5°F5.3°C 14.6°F-9.7°C 33% Calm Calm -- 28.94 in980.0 mb 0.00 in0.0 mm 0.00 in/hr0.0 mm/hr 0.00 in0.0 mm
03:05 AM 41.5°F5.3°C 14.6°F-9.7°C 33% Calm Calm -- 28.94 in980.0 mb 0.00 in0.0 mm 0.00 in/hr0.0 mm/hr 0.00 in0.0 mm
03:07 AM 41.5°F5.3°C 14.6°F-9.7°C 33% Calm Calm -- 28.94 in980.0 mb 0.00 in0.0 mm 0.00 in/hr0.0 mm/hr 0.00 in0.0 mm
03:08 AM 41.5°F5.3°C 14.6°F-9.7°C 33% Calm Calm -- 28.94 in980.0 mb 0.00 in0.0 mm 0.00 in/hr0.0 mm/hr 0.00 in0.0 mm
03:09 AM 41.5°F5.3°C 14.6°F-9.7°C 33% Calm Calm -- 28.94 in980.0 mb 0.00 in0.0 mm 0.00 in/hr0.0 mm/hr 0.00 in0.0 mm
03:11 AM 41.5°F5.3°C 14.6°F-9.7°C 33% Calm Calm -- 28.94 in980.0 mb 0.00 in0.0 mm 0.00 in/hr0.0 mm/hr 0.00 in0.0 mm
03:12 AM 41.5°F5.3°C 14.6°F-9.7°C 33% Calm Calm -- 28.94 in980.0 mb 0.00 in0.0 mm 0.00 in/hr0.0 mm/hr 0.00 in0.0 mm
03:13 AM 41.5°F5.3°C 14.6°F-9.7°C 33% Calm Calm -- 28.94 in980.0 mb 0.00 in0.0 mm 0.00 in/hr0.0 mm/hr 0.00 in0.0 mm
03:15 AM 41.5°F5.3°C 14.6°F-9.7°C 33% Calm Calm -- 28.94 in980.0 mb 0.00 in0.0 mm 0.00 in/hr0.0 mm/hr 0.00 in0.0 mm
03:16 AM 41.5°F5.3°C 14.6°F-9.7°C 33% Calm Calm -- 28.94 in980.0 mb 0.00 in0.0 mm 0.00 in/hr0.0 mm/hr 0.00 in0.0 mm
03:18 AM 41.5°F5.3°C 14.6°F-9.7°C 33% Calm Calm -- 28.91 in979.0 mb 0.00 in0.0 mm 0.00 in/hr0.0 mm/hr 0.00 in0.0 mm
03:19 AM 41.5°F5.3°C 14.6°F-9.7°C 33% Calm Calm -- 28.91 in979.0 mb 0.00 in0.0 mm 0.00 in/hr0.0 mm/hr 0.00 in0.0 mm
03:20 AM 41.5°F5.3°C 14.6°F-9.7°C 33% Calm Calm -- 28.91 in979.0 mb 0.00 in0.0 mm 0.00 in/hr0.0 mm/hr 0.00 in0.0 mm
03:22 AM 41.5°F5.3°C 14.6°F-9.7°C 33% Calm Calm -- 28.91 in979.0 mb 0.00 in0.0 mm 0.00 in/hr0.0 mm/hr 0.00 in0.0 mm
03:23 AM 41.5°F5.3°C 14.6°F-9.7°C 33% Calm Calm -- 28.91 in979.0 mb 0.00 in0.0 mm 0.00 in/hr0.0 mm/hr 0.00 in0.0 mm
03:24 AM 41.4°F5.2°C 14.4°F-9.8°C 33% Calm Calm -- 28.91 in979.0 mb 0.00 in0.0 mm 0.00 in/hr0.0 mm/hr 0.00 in0.0 mm
03:25 AM 41.2°F5.1°C 14.3°F-9.8°C 33% Calm Calm -- 28.91 in979.0 mb 0.00 in0.0 mm 0.00 in/hr0.0 mm/hr 0.00 in0.0 mm
03:26 AM 41.2°F5.1°C 14.3°F-9.8°C 33% Calm Calm -- 28.91 in979.0 mb 0.00 in0.0 mm 0.00 in/hr0.0 mm/hr 0.00 in0.0 mm
03:27 AM 41.2°F5.1°C 14.3°F-9.8°C 33% Calm Calm -- 28.91 in979.0 mb 0.00 in0.0 mm 0.00 in/hr0.0 mm/hr 0.00 in0.0 mm
03:28 AM 41.2°F5.1°C 14.3°F-9.8°C 33% Calm Calm -- 28.91 in979.0 mb 0.00 in0.0 mm 0.00 in/hr0.0 mm/hr 0.00 in0.0 mm
03:29 AM 41.0°F5.0°C 14.1°F-9.9°C 33% Calm Calm -- 28.91 in979.0 mb 0.00 in0.0 mm 0.00 in/hr0.0 mm/hr 0.00 in0.0 mm
03:30 AM 40.8°F4.9°C 14.0°F-10.0°C 33% Calm Calm -- 28.91 in979.0 mb 0.00 in0.0 mm 0.00 in/hr0.0 mm/hr 0.00 in0.0 mm
03:31 AM 40.8°F4.9°C 14.0°F-10.0°C 33% Calm Calm -- 28.91 in979.0 mb 0.00 in0.0 mm 0.00 in/hr0.0 mm/hr 0.00 in0.0 mm
03:32 AM 40.6°F4.8°C 13.8°F-10.1°C 33% Calm Calm -- 28.91 in979.0 mb 0.00 in0.0 mm 0.00 in/hr0.0 mm/hr 0.00 in0.0 mm
03:33 AM 40.6°F4.8°C 13.8°F-10.1°C 33% Calm Calm -- 28.88 in978.0 mb 0.00 in0.0 mm 0.00 in/hr0.0 mm/hr 0.00 in0.0 mm
03:34 AM 40.5°F4.7°C 13.6°F-10.2°C 33% Calm Calm -- 28.88 in978.0 mb 0.00 in0.0 mm 0.00 in/hr0.0 mm/hr 0.00 in0.0 mm
03:35 AM 40.5°F4.7°C 13.6°F-10.2°C 33% Calm Calm -- 28.88 in978.0 mb 0.00 in0.0 mm 0.00 in/hr0.0 mm/hr 0.00 in0.0 mm
03:36 AM 40.5°F4.7°C 13.6°F-10.2°C 33% Calm Calm -- 28.88 in978.0 mb 0.00 in0.0 mm 0.00 in/hr0.0 mm/hr 0.00 in0.0 mm
03:37 AM 40.3°F4.6°C 13.5°F-10.3°C 33% Calm Calm -- 28.88 in978.0 mb 0.00 in0.0 mm 0.00 in/hr0.0 mm/hr 0.00 in0.0 mm
03:38 AM 40.1°F4.5°C 13.3°F-10.4°C 33% Calm Calm -- 28.88 in978.0 mb 0.00 in0.0 mm 0.00 in/hr0.0 mm/hr 0.00 in0.0 mm
03:39 AM 40.1°F4.5°C 14.0°F-10.0°C 34% Calm Calm -- 28.88 in978.0 mb 0.00 in0.0 mm 0.00 in/hr0.0 mm/hr 0.00 in0.0 mm
03:40 AM 39.9°F4.4°C 13.8°F-10.1°C 34% Calm Calm -- 28.88 in978.0 mb 0.00 in0.0 mm 0.00 in/hr0.0 mm/hr 0.00 in0.0 mm
03:41 AM 39.7°F4.3°C 13.7°F-10.2°C 34% Calm Calm -- 28.88 in978.0 mb 0.00 in0.0 mm 0.00 in/hr0.0 mm/hr 0.00 in0.0 mm
03:42 AM 39.7°F4.3°C 13.7°F-10.2°C 34% Calm Calm -- 28.88 in978.0 mb 0.00 in0.0 mm 0.00 in/hr0.0 mm/hr 0.00 in0.0 mm
03:43 AM 39.6°F4.2°C 13.5°F-10.3°C 34% Calm Calm -- 28.88 in978.0 mb 0.00 in0.0 mm 0.00 in/hr0.0 mm/hr 0.00 in0.0 mm
03:44 AM 39.4°F4.1°C 13.4°F-10.3°C 34% Calm Calm -- 28.88 in978.0 mb 0.00 in0.0 mm 0.00 in/hr0.0 mm/hr 0.00 in0.0 mm
03:45 AM 39.4°F4.1°C 13.4°F-10.3°C 34% Calm Calm -- 28.88 in978.0 mb 0.00 in0.0 mm 0.00 in/hr0.0 mm/hr 0.00 in0.0 mm
03:46 AM 39.4°F4.1°C 13.4°F-10.3°C 34% Calm Calm -- 28.88 in978.0 mb 0.00 in0.0 mm 0.00 in/hr0.0 mm/hr 0.00 in0.0 mm
03:47 AM 39.4°F4.1°C 13.4°F-10.3°C 34% Calm Calm -- 28.88 in978.0 mb 0.00 in0.0 mm 0.00 in/hr0.0 mm/hr 0.00 in0.0 mm
03:48 AM 39.2°F4.0°C 13.2°F-10.4°C 34% Calm Calm -- 28.88 in978.0 mb 0.00 in0.0 mm 0.00 in/hr0.0 mm/hr 0.00 in0.0 mm
03:49 AM 39.2°F4.0°C 13.2°F-10.4°C 34% Calm Calm -- 28.88 in978.0 mb 0.00 in0.0 mm 0.00 in/hr0.0 mm/hr 0.00 in0.0 mm
03:51 AM 39.2°F4.0°C 13.9°F-10.1°C 35% Calm Calm -- 28.88 in978.0 mb 0.00 in0.0 mm 0.00 in/hr0.0 mm/hr 0.00 in0.0 mm
03:53 AM 39.2°F4.0°C 13.9°F-10.1°C 35% Calm Calm -- 28.88 in978.0 mb 0.00 in0.0 mm 0.00 in/hr0.0 mm/hr 0.00 in0.0 mm
03:54 AM 39.0°F3.9°C 13.7°F-10.2°C 35% Calm Calm -- 28.88 in978.0 mb 0.00 in0.0 mm 0.00 in/hr0.0 mm/hr 0.00 in0.0 mm
03:56 AM 39.0°F3.9°C 13.7°F-10.2°C 35% Calm Calm -- 28.88 in978.0 mb 0.00 in0.0 mm 0.00 in/hr0.0 mm/hr 0.00 in0.0 mm
03:57 AM 39.0°F3.9°C 13.7°F-10.2°C 35% Calm Calm -- 28.88 in978.0 mb 0.00 in0.0 mm 0.00 in/hr0.0 mm/hr 0.00 in0.0 mm
03:59 AM 38.8°F3.8°C 13.5°F-10.3°C 35% Calm Calm -- 28.88 in978.0 mb 0.00 in0.0 mm 0.00 in/hr0.0 mm/hr 0.00 in0.0 mm
04:00 AM 38.8°F3.8°C 13.5°F-10.3°C 35% Calm Calm -- 28.88 in978.0 mb 0.00 in0.0 mm 0.00 in/hr0.0 mm/hr 0.00 in0.0 mm
04:01 AM 38.7°F3.7°C 13.4°F-10.3°C 35% Calm Calm -- 28.88 in978.0 mb 0.00 in0.0 mm 0.00 in/hr0.0 mm/hr 0.00 in0.0 mm
04:03 AM 38.5°F3.6°C 13.2°F-10.4°C 35% Calm Calm -- 28.85 in977.0 mb 0.00 in0.0 mm 0.00 in/hr0.0 mm/hr 0.00 in0.0 mm
04:04 AM 38.5°F3.6°C 13.9°F-10.1°C 36% Calm Calm -- 28.85 in977.0 mb 0.00 in0.0 mm 0.00 in/hr0.0 mm/hr 0.00 in0.0 mm
04:05 AM 38.1°F3.4°C 13.5°F-10.3°C 36% Calm Calm -- 28.85 in977.0 mb 0.00 in0.0 mm 0.00 in/hr0.0 mm/hr 0.00 in0.0 mm
04:07 AM 38.1°F3.4°C 13.5°F-10.3°C 36% Calm Calm -- 28.85 in977.0 mb 0.00 in0.0 mm 0.00 in/hr0.0 mm/hr 0.00 in0.0 mm
04:08 AM 38.1°F3.4°C 13.5°F-10.3°C 36% Calm Calm -- 28.85 in977.0 mb 0.00 in0.0 mm 0.00 in/hr0.0 mm/hr 0.00 in0.0 mm
04:09 AM 37.9°F3.3°C 13.4°F-10.3°C 36% Calm Calm -- 28.85 in977.0 mb 0.00 in0.0 mm 0.00 in/hr0.0 mm/hr 0.00 in0.0 mm
04:11 AM 37.8°F3.2°C 13.8°F-10.1°C 37% Calm Calm -- 28.85 in977.0 mb 0.00 in0.0 mm 0.00 in/hr0.0 mm/hr 0.00 in0.0 mm
04:12 AM 37.8°F3.2°C 13.8°F-10.1°C 37% Calm Calm -- 28.85 in977.0 mb 0.00 in0.0 mm 0.00 in/hr0.0 mm/hr 0.00 in0.0 mm
04:15 AM 37.6°F3.1°C 14.3°F-9.8°C 38% Calm Calm -- 28.85 in977.0 mb 0.00 in0.0 mm 0.00 in/hr0.0 mm/hr 0.00 in0.0 mm
04:16 AM 37.6°F3.1°C 14.3°F-9.8°C 38% Calm Calm -- 28.85 in977.0 mb 0.00 in0.0 mm 0.00 in/hr0.0 mm/hr 0.00 in0.0 mm
04:17 AM 37.4°F3.0°C 14.7°F-9.6°C 39% Calm Calm -- 28.85 in977.0 mb 0.00 in0.0 mm 0.00 in/hr0.0 mm/hr 0.00 in0.0 mm
04:19 AM 37.4°F3.0°C 14.7°F-9.6°C 39% Calm Calm -- 28.85 in977.0 mb 0.00 in0.0 mm 0.00 in/hr0.0 mm/hr 0.00 in0.0 mm
04:21 AM 37.6°F3.1°C 14.9°F-9.5°C 39% Calm Calm -- 28.85 in977.0 mb 0.00 in0.0 mm 0.00 in/hr0.0 mm/hr 0.00 in0.0 mm
04:22 AM 37.6°F3.1°C 14.9°F-9.5°C 39% Calm Calm -- 28.85 in977.0 mb 0.00 in0.0 mm 0.00 in/hr0.0 mm/hr 0.00 in0.0 mm
04:23 AM 37.6°F3.1°C 14.9°F-9.5°C 39% Calm Calm -- 28.85 in977.0 mb 0.00 in0.0 mm 0.00 in/hr0.0 mm/hr 0.00 in0.0 mm
04:25 AM 37.8°F3.2°C 15.0°F-9.4°C 39% Calm Calm -- 28.85 in977.0 mb 0.00 in0.0 mm 0.00 in/hr0.0 mm/hr 0.00 in0.0 mm
04:26 AM 37.8°F3.2°C 15.0°F-9.4°C 39% Calm Calm -- 28.85 in977.0 mb 0.00 in0.0 mm 0.00 in/hr0.0 mm/hr 0.00 in0.0 mm
04:28 AM 37.9°F3.3°C 15.2°F-9.3°C 39% Calm Calm -- 28.85 in977.0 mb 0.00 in0.0 mm 0.00 in/hr0.0 mm/hr 0.00 in0.0 mm
04:30 AM 37.9°F3.3°C 15.2°F-9.3°C 39% Calm Calm -- 28.85 in977.0 mb 0.00 in0.0 mm 0.00 in/hr0.0 mm/hr 0.00 in0.0 mm
04:31 AM 38.1°F3.4°C 15.4°F-9.2°C 39% Calm Calm -- 28.85 in977.0 mb 0.00 in0.0 mm 0.00 in/hr0.0 mm/hr 0.00 in0.0 mm
04:33 AM 38.1°F3.4°C 15.4°F-9.2°C 39% Calm Calm -- 28.85 in977.0 mb 0.00 in0.0 mm 0.00 in/hr0.0 mm/hr 0.00 in0.0 mm
04:34 AM 38.1°F3.4°C 15.4°F-9.2°C 39% Calm Calm -- 28.85 in977.0 mb 0.00 in0.0 mm 0.00 in/hr0.0 mm/hr 0.00 in0.0 mm
04:35 AM 38.1°F3.4°C 15.4°F-9.2°C 39% Calm Calm -- 28.85 in977.0 mb 0.00 in0.0 mm 0.00 in/hr0.0 mm/hr 0.00 in0.0 mm
04:37 AM 38.3°F3.5°C 15.5°F-9.2°C 39% Calm Calm -- 28.85 in977.0 mb 0.00 in0.0 mm 0.00 in/hr0.0 mm/hr 0.00 in0.0 mm
04:38 AM 38.3°F3.5°C 15.5°F-9.2°C 39% Calm Calm -- 28.85 in977.0 mb 0.00 in0.0 mm 0.00 in/hr0.0 mm/hr 0.00 in0.0 mm
04:40 AM 38.5°F3.6°C 16.3°F-8.7°C 40% Calm Calm -- 28.85 in977.0 mb 0.00 in0.0 mm 0.00 in/hr0.0 mm/hr 0.00 in0.0 mm
04:41 AM 38.5°F3.6°C 16.3°F-8.7°C 40% Calm Calm -- 28.85 in977.0 mb 0.00 in0.0 mm 0.00 in/hr0.0 mm/hr 0.00 in0.0 mm
04:42 AM 38.5°F3.6°C 16.3°F-8.7°C 40% Calm Calm -- 28.85 in977.0 mb 0.00 in0.0 mm 0.00 in/hr0.0 mm/hr 0.00 in0.0 mm
04:43 AM 38.5°F3.6°C 16.3°F-8.7°C 40% Calm Calm -- 28.85 in977.0 mb 0.00 in0.0 mm 0.00 in/hr0.0 mm/hr 0.00 in0.0 mm
04:44 AM 38.5°F3.6°C 16.3°F-8.7°C 40% Calm Calm -- 28.85 in977.0 mb 0.00 in0.0 mm 0.00 in/hr0.0 mm/hr 0.00 in0.0 mm
04:45 AM 38.7°F3.7°C 16.4°F-8.7°C 40% Calm Calm -- 28.85 in977.0 mb 0.00 in0.0 mm 0.00 in/hr0.0 mm/hr 0.00 in0.0 mm
04:47 AM 38.7°F3.7°C 16.4°F-8.7°C 40% Calm Calm -- 28.85 in977.0 mb 0.00 in0.0 mm 0.00 in/hr0.0 mm/hr 0.00 in0.0 mm
04:48 AM 38.7°F3.7°C 16.4°F-8.7°C 40% Calm Calm -- 28.88 in978.0 mb 0.00 in0.0 mm 0.00 in/hr0.0 mm/hr 0.00 in0.0 mm
04:49 AM 38.7°F3.7°C 16.4°F-8.7°C 40% Calm Calm -- 28.88 in978.0 mb 0.00 in0.0 mm 0.00 in/hr0.0 mm/hr 0.00 in0.0 mm
04:51 AM 38.7°F3.7°C 16.4°F-8.7°C 40% Calm Calm -- 28.88 in978.0 mb 0.00 in0.0 mm 0.00 in/hr0.0 mm/hr 0.00 in0.0 mm
04:52 AM 38.7°F3.7°C 16.4°F-8.7°C 40% Calm Calm -- 28.88 in978.0 mb 0.00 in0.0 mm 0.00 in/hr0.0 mm/hr 0.00 in0.0 mm
04:54 AM 38.7°F3.7°C 16.4°F-8.7°C 40% Calm Calm -- 28.88 in978.0 mb 0.00 in0.0 mm 0.00 in/hr0.0 mm/hr 0.00 in0.0 mm
04:56 AM 38.7°F3.7°C 17.0°F-8.3°C 41% Calm Calm -- 28.88 in978.0 mb 0.00 in0.0 mm 0.00 in/hr0.0 mm/hr 0.00 in0.0 mm
04:57 AM 38.7°F3.7°C 16.4°F-8.7°C 40% Calm Calm -- 28.88 in978.0 mb 0.00 in0.0 mm 0.00 in/hr0.0 mm/hr 0.00 in0.0 mm
04:59 AM 38.7°F3.7°C 16.4°F-8.7°C 40% Calm Calm -- 28.88 in978.0 mb 0.00 in0.0 mm 0.00 in/hr0.0 mm/hr 0.00 in0.0 mm
05:00 AM 38.5°F3.6°C 16.3°F-8.7°C 40% Calm Calm -- 28.88 in978.0 mb 0.00 in0.0 mm 0.00 in/hr0.0 mm/hr 0.00 in0.0 mm
05:01 AM 38.5°F3.6°C 16.3°F-8.7°C 40% Calm Calm -- 28.88 in978.0 mb 0.00 in0.0 mm 0.00 in/hr0.0 mm/hr 0.00 in0.0 mm
05:03 AM 38.5°F3.6°C 16.3°F-8.7°C 40% Calm Calm -- 28.88 in978.0 mb 0.00 in0.0 mm 0.00 in/hr0.0 mm/hr 0.00 in0.0 mm
05:04 AM 38.5°F3.6°C 16.3°F-8.7°C 40% Calm Calm -- 28.88 in978.0 mb 0.00 in0.0 mm 0.00 in/hr0.0 mm/hr 0.00 in0.0 mm
05:05 AM 38.5°F3.6°C 16.3°F-8.7°C 40% Calm Calm -- 28.88 in978.0 mb 0.00 in0.0 mm 0.00 in/hr0.0 mm/hr 0.00 in0.0 mm
05:06 AM 38.5°F3.6°C 16.3°F-8.7°C 40% Calm Calm -- 28.88 in978.0 mb 0.00 in0.0 mm 0.00 in/hr0.0 mm/hr 0.00 in0.0 mm
05:08 AM 38.5°F3.6°C 16.3°F-8.7°C 40% Calm Calm -- 28.88 in978.0 mb 0.00 in0.0 mm 0.00 in/hr0.0 mm/hr 0.00 in0.0 mm
05:09 AM 38.5°F3.6°C 16.3°F-8.7°C 40% Calm Calm -- 28.88 in978.0 mb 0.00 in0.0 mm 0.00 in/hr0.0 mm/hr 0.00 in0.0 mm
05:11 AM 38.5°F3.6°C 16.8°F-8.4°C 41% Calm Calm -- 28.88 in978.0 mb 0.00 in0.0 mm 0.00 in/hr0.0 mm/hr 0.00 in0.0 mm
05:12 AM 38.5°F3.6°C 16.8°F-8.4°C 41% Calm Calm -- 28.88 in978.0 mb 0.00 in0.0 mm 0.00 in/hr0.0 mm/hr 0.00 in0.0 mm
05:14 AM 38.5°F3.6°C 16.8°F-8.4°C 41% Calm Calm -- 28.88 in978.0 mb 0.00 in0.0 mm 0.00 in/hr0.0 mm/hr 0.00 in0.0 mm
05:15 AM 38.3°F3.5°C 16.7°F-8.5°C 41% Calm Calm -- 28.88 in978.0 mb 0.00 in0.0 mm 0.00 in/hr0.0 mm/hr 0.00 in0.0 mm
05:17 AM 38.3°F3.5°C 16.7°F-8.5°C 41% Calm Calm -- 28.85 in977.0 mb 0.00 in0.0 mm 0.00 in/hr0.0 mm/hr 0.00 in0.0 mm
05:18 AM 38.3°F3.5°C 16.7°F-8.5°C 41% Calm Calm -- 28.85 in977.0 mb 0.00 in0.0 mm 0.00 in/hr0.0 mm/hr 0.00 in0.0 mm
05:19 AM 38.3°F3.5°C 16.7°F-8.5°C 41% Calm Calm -- 28.85 in977.0 mb 0.00 in0.0 mm 0.00 in/hr0.0 mm/hr 0.00 in0.0 mm
05:20 AM 38.3°F3.5°C 17.2°F-8.2°C 42% Calm Calm -- 28.85 in977.0 mb 0.00 in0.0 mm 0.00 in/hr0.0 mm/hr 0.00 in0.0 mm
05:21 AM 38.1°F3.4°C 17.1°F-8.3°C 42% Calm Calm -- 28.85 in977.0 mb 0.00 in0.0 mm 0.00 in/hr0.0 mm/hr 0.00 in0.0 mm
05:22 AM 38.1°F3.4°C 17.1°F-8.3°C 42% Calm Calm -- 28.85 in977.0 mb 0.00 in0.0 mm 0.00 in/hr0.0 mm/hr 0.00 in0.0 mm
05:23 AM 38.1°F3.4°C 16.5°F-8.6°C 41% Calm Calm -- 28.85 in977.0 mb 0.00 in0.0 mm 0.00 in/hr0.0 mm/hr 0.00 in0.0 mm
05:24 AM 38.1°F3.4°C 16.5°F-8.6°C 41% Calm Calm -- 28.85 in977.0 mb 0.00 in0.0 mm 0.00 in/hr0.0 mm/hr 0.00 in0.0 mm
05:26 AM 38.1°F3.4°C 16.5°F-8.6°C 41% Calm Calm -- 28.85 in977.0 mb 0.00 in0.0 mm 0.00 in/hr0.0 mm/hr 0.00 in0.0 mm
05:27 AM 38.1°F3.4°C 16.5°F-8.6°C 41% Calm Calm -- 28.85 in977.0 mb 0.00 in0.0 mm 0.00 in/hr0.0 mm/hr 0.00 in0.0 mm
05:29 AM 37.9°F3.3°C 16.4°F-8.7°C 41% Calm Calm -- 28.85 in977.0 mb 0.00 in0.0 mm 0.00 in/hr0.0 mm/hr 0.00 in0.0 mm
05:30 AM 37.9°F3.3°C 16.4°F-8.7°C 41% Calm Calm -- 28.85 in977.0 mb 0.00 in0.0 mm 0.00 in/hr0.0 mm/hr 0.00 in0.0 mm
05:31 AM 37.9°F3.3°C 16.4°F-8.7°C 41% Calm Calm -- 28.85 in977.0 mb 0.00 in0.0 mm 0.00 in/hr0.0 mm/hr 0.00 in0.0 mm
05:32 AM 37.9°F3.3°C 16.4°F-8.7°C 41% Calm Calm -- 28.85 in977.0 mb 0.00 in0.0 mm 0.00 in/hr0.0 mm/hr 0.00 in0.0 mm
05:33 AM 37.9°F3.3°C 16.4°F-8.7°C 41% Calm Calm -- 28.85 in977.0 mb 0.00 in0.0 mm 0.00 in/hr0.0 mm/hr 0.00 in0.0 mm
05:35 AM 37.9°F3.3°C 16.4°F-8.7°C 41% Calm Calm -- 28.85 in977.0 mb 0.00 in0.0 mm 0.00 in/hr0.0 mm/hr 0.00 in0.0 mm
05:37 AM 37.9°F3.3°C 16.9°F-8.4°C 42% Calm Calm -- 28.85 in977.0 mb 0.00 in0.0 mm 0.00 in/hr0.0 mm/hr 0.00 in0.0 mm
05:38 AM 37.9°F3.3°C 16.9°F-8.4°C 42% Calm Calm -- 28.85 in977.0 mb 0.00 in0.0 mm 0.00 in/hr0.0 mm/hr 0.00 in0.0 mm
05:40 AM 37.9°F3.3°C 16.9°F-8.4°C 42% Calm Calm -- 28.85 in977.0 mb 0.00 in0.0 mm 0.00 in/hr0.0 mm/hr 0.00 in0.0 mm
05:41 AM 37.9°F3.3°C 16.9°F-8.4°C 42% Calm Calm -- 28.85 in977.0 mb 0.00 in0.0 mm 0.00 in/hr0.0 mm/hr 0.00 in0.0 mm
05:42 AM 37.9°F3.3°C 16.9°F-8.4°C 42% Calm Calm -- 28.85 in977.0 mb 0.00 in0.0 mm 0.00 in/hr0.0 mm/hr 0.00 in0.0 mm
05:44 AM 37.9°F3.3°C 16.9°F-8.4°C 42% Calm Calm -- 28.85 in977.0 mb 0.00 in0.0 mm 0.00 in/hr0.0 mm/hr 0.00 in0.0 mm
05:45 AM 37.9°F3.3°C 16.9°F-8.4°C 42% Calm Calm -- 28.85 in977.0 mb 0.00 in0.0 mm 0.00 in/hr0.0 mm/hr 0.00 in0.0 mm
05:47 AM 37.9°F3.3°C 16.9°F-8.4°C 42% Calm Calm -- 28.85 in977.0 mb 0.00 in0.0 mm 0.00 in/hr0.0 mm/hr 0.00 in0.0 mm
05:48 AM 37.9°F3.3°C 16.9°F-8.4°C 42% Calm Calm -- 28.85 in977.0 mb 0.00 in0.0 mm 0.00 in/hr0.0 mm/hr 0.00 in0.0 mm
05:49 AM 37.9°F3.3°C 16.9°F-8.4°C 42% Calm Calm -- 28.85 in977.0 mb 0.00 in0.0 mm 0.00 in/hr0.0 mm/hr 0.00 in0.0 mm
05:50 AM 38.1°F3.4°C 17.1°F-8.3°C 42% Calm Calm -- 28.85 in977.0 mb 0.00 in0.0 mm 0.00 in/hr0.0 mm/hr 0.00 in0.0 mm
05:52 AM 38.1°F3.4°C 17.1°F-8.3°C 42% Calm Calm -- 28.85 in977.0 mb 0.00 in0.0 mm 0.00 in/hr0.0 mm/hr 0.00 in0.0 mm
05:53 AM 38.1°F3.4°C 17.1°F-8.3°C 42% Calm Calm -- 28.85 in977.0 mb 0.00 in0.0 mm 0.00 in/hr0.0 mm/hr 0.00 in0.0 mm
05:55 AM 38.1°F3.4°C 17.1°F-8.3°C 42% Calm Calm -- 28.85 in977.0 mb 0.00 in0.0 mm 0.00 in/hr0.0 mm/hr 0.00 in0.0 mm
05:56 AM 38.1°F3.4°C 17.1°F-8.3°C 42% Calm Calm -- 28.85 in977.0 mb 0.00 in0.0 mm 0.00 in/hr0.0 mm/hr 0.00 in0.0 mm
05:58 AM 38.1°F3.4°C 17.1°F-8.3°C 42% Calm Calm -- 28.85 in977.0 mb 0.00 in0.0 mm 0.00 in/hr0.0 mm/hr 0.00 in0.0 mm
05:59 AM 38.1°F3.4°C 17.1°F-8.3°C 42% Calm Calm -- 28.85 in977.0 mb 0.00 in0.0 mm 0.00 in/hr0.0 mm/hr 0.00 in0.0 mm
06:00 AM 37.9°F3.3°C 16.4°F-8.7°C 41% Calm Calm -- 28.85 in977.0 mb 0.00 in0.0 mm 0.00 in/hr0.0 mm/hr 0.00 in0.0 mm
06:01 AM 37.9°F3.3°C 16.4°F-8.7°C 41% Calm Calm -- 28.82 in976.0 mb 0.00 in0.0 mm 0.00 in/hr0.0 mm/hr 0.00 in0.0 mm
06:03 AM 37.9°F3.3°C 16.4°F-8.7°C 41% Calm Calm -- 28.82 in976.0 mb 0.00 in0.0 mm 0.00 in/hr0.0 mm/hr 0.00 in0.0 mm
06:04 AM 37.9°F3.3°C 16.4°F-8.7°C 41% Calm Calm -- 28.82 in976.0 mb 0.00 in0.0 mm 0.00 in/hr0.0 mm/hr 0.00 in0.0 mm
06:06 AM 37.9°F3.3°C 16.4°F-8.7°C 41% Calm Calm -- 28.82 in976.0 mb 0.00 in0.0 mm 0.00 in/hr0.0 mm/hr 0.00 in0.0 mm
06:07 AM 37.9°F3.3°C 16.4°F-8.7°C 41% Calm Calm -- 28.82 in976.0 mb 0.00 in0.0 mm 0.00 in/hr0.0 mm/hr 0.00 in0.0 mm
06:08 AM 37.8°F3.2°C 16.2°F-8.8°C 41% Calm Calm -- 28.82 in976.0 mb 0.00 in0.0 mm 0.00 in/hr0.0 mm/hr 0.00 in0.0 mm
06:10 AM 37.8°F3.2°C 16.2°F-8.8°C 41% Calm Calm -- 28.82 in976.0 mb 0.00 in0.0 mm 0.00 in/hr0.0 mm/hr 0.00 in0.0 mm
06:11 AM 37.6°F3.1°C 16.0°F-8.9°C 41% Calm Calm -- 28.82 in976.0 mb 0.00 in0.0 mm 0.00 in/hr0.0 mm/hr 0.00 in0.0 mm
06:13 AM 37.6°F3.1°C 16.0°F-8.9°C 41% Calm Calm -- 28.82 in976.0 mb 0.00 in0.0 mm 0.00 in/hr0.0 mm/hr 0.00 in0.0 mm
06:14 AM 37.6°F3.1°C 16.0°F-8.9°C 41% Calm Calm -- 28.82 in976.0 mb 0.00 in0.0 mm 0.00 in/hr0.0 mm/hr 0.00 in0.0 mm
06:15 AM 37.4°F3.0°C 15.9°F-8.9°C 41% Calm Calm -- 28.82 in976.0 mb 0.00 in0.0 mm 0.00 in/hr0.0 mm/hr 0.00 in0.0 mm
06:16 AM 37.4°F3.0°C 15.9°F-8.9°C 41% Calm Calm -- 28.85 in977.0 mb 0.00 in0.0 mm 0.00 in/hr0.0 mm/hr 0.00 in0.0 mm
06:18 AM 37.2°F2.9°C 15.7°F-9.1°C 41% Calm Calm -- 28.85 in977.0 mb 0.00 in0.0 mm 0.00 in/hr0.0 mm/hr 0.00 in0.0 mm
06:19 AM 37.2°F2.9°C 15.7°F-9.1°C 41% Calm Calm -- 28.85 in977.0 mb 0.00 in0.0 mm 0.00 in/hr0.0 mm/hr 0.00 in0.0 mm
06:20 AM 37.0°F2.8°C 15.5°F-9.2°C 41% Calm Calm -- 28.85 in977.0 mb 0.00 in0.0 mm 0.00 in/hr0.0 mm/hr 0.00 in0.0 mm
06:21 AM 37.0°F2.8°C 15.5°F-9.2°C 41% Calm Calm -- 28.85 in977.0 mb 0.00 in0.0 mm 0.00 in/hr0.0 mm/hr 0.00 in0.0 mm
06:22 AM 37.0°F2.8°C 15.5°F-9.2°C 41% Calm Calm -- 28.85 in977.0 mb 0.00 in0.0 mm 0.00 in/hr0.0 mm/hr 0.00 in0.0 mm
06:24 AM 36.9°F2.7°C 15.4°F-9.2°C 41% Calm Calm -- 28.85 in977.0 mb 0.00 in0.0 mm 0.00 in/hr0.0 mm/hr 0.00 in0.0 mm
06:25 AM 36.9°F2.7°C 15.4°F-9.2°C 41% Calm Calm -- 28.85 in977.0 mb 0.00 in0.0 mm 0.00 in/hr0.0 mm/hr 0.00 in0.0 mm
06:26 AM 36.7°F2.6°C 15.2°F-9.3°C 41% Calm Calm -- 28.85 in977.0 mb 0.00 in0.0 mm 0.00 in/hr0.0 mm/hr 0.00 in0.0 mm
06:27 AM 36.7°F2.6°C 15.2°F-9.3°C 41% Calm Calm -- 28.85 in977.0 mb 0.00 in0.0 mm 0.00 in/hr0.0 mm/hr 0.00 in0.0 mm
06:29 AM 36.7°F2.6°C 15.2°F-9.3°C 41% Calm Calm -- 28.85 in977.0 mb 0.00 in0.0 mm 0.00 in/hr0.0 mm/hr 0.00 in0.0 mm
06:30 AM 36.5°F2.5°C 15.1°F-9.4°C 41% Calm Calm -- 28.85 in977.0 mb 0.00 in0.0 mm 0.00 in/hr0.0 mm/hr 0.00 in0.0 mm
06:32 AM 36.3°F2.4°C 14.9°F-9.5°C 41% Calm Calm -- 28.82 in976.0 mb 0.00 in0.0 mm 0.00 in/hr0.0 mm/hr 0.00 in0.0 mm
06:33 AM 36.3°F2.4°C 14.9°F-9.5°C 41% Calm Calm -- 28.82 in976.0 mb 0.00 in0.0 mm 0.00 in/hr0.0 mm/hr 0.00 in0.0 mm
06:34 AM 36.3°F2.4°C 14.9°F-9.5°C 41% Calm Calm -- 28.82 in976.0 mb 0.00 in0.0 mm 0.00 in/hr0.0 mm/hr 0.00 in0.0 mm
06:36 AM 36.3°F2.4°C 14.9°F-9.5°C 41% Calm Calm -- 28.82 in976.0 mb 0.00 in0.0 mm 0.00 in/hr0.0 mm/hr 0.00 in0.0 mm
06:37 AM 36.1°F2.3°C 14.7°F-9.6°C 41% Calm Calm -- 28.82 in976.0 mb 0.00 in0.0 mm 0.00 in/hr0.0 mm/hr 0.00 in0.0 mm
06:39 AM 36.1°F2.3°C 15.3°F-9.3°C 42% Calm Calm -- 28.82 in976.0 mb 0.00 in0.0 mm 0.00 in/hr0.0 mm/hr 0.00 in0.0 mm
06:40 AM 36.1°F2.3°C 15.3°F-9.3°C 42% Calm Calm -- 28.82 in976.0 mb 0.00 in0.0 mm 0.00 in/hr0.0 mm/hr 0.00 in0.0 mm
06:41 AM 36.1°F2.3°C 15.3°F-9.3°C 42% Calm Calm -- 28.82 in976.0 mb 0.00 in0.0 mm 0.00 in/hr0.0 mm/hr 0.00 in0.0 mm
06:42 AM 36.1°F2.3°C 15.3°F-9.3°C 42% Calm Calm -- 28.82 in976.0 mb 0.00 in0.0 mm 0.00 in/hr0.0 mm/hr 0.00 in0.0 mm
06:44 AM 36.0°F2.2°C 15.1°F-9.4°C 42% Calm Calm -- 28.82 in976.0 mb 0.00 in0.0 mm 0.00 in/hr0.0 mm/hr 0.00 in0.0 mm
06:45 AM 36.0°F2.2°C 15.1°F-9.4°C 42% Calm Calm -- 28.82 in976.0 mb 0.00 in0.0 mm 0.00 in/hr0.0 mm/hr 0.00 in0.0 mm
06:46 AM 36.0°F2.2°C 15.1°F-9.4°C 42% Calm Calm -- 28.82 in976.0 mb 0.00 in0.0 mm 0.00 in/hr0.0 mm/hr 0.00 in0.0 mm
06:47 AM 35.8°F2.1°C 15.0°F-9.4°C 42% Calm Calm -- 28.85 in977.0 mb 0.00 in0.0 mm 0.00 in/hr0.0 mm/hr 0.00 in0.0 mm
06:48 AM 35.8°F2.1°C 15.0°F-9.4°C 42% Calm Calm -- 28.85 in977.0 mb 0.00 in0.0 mm 0.00 in/hr0.0 mm/hr 0.00 in0.0 mm
06:50 AM 35.6°F2.0°C 14.8°F-9.6°C 42% Calm Calm -- 28.85 in977.0 mb 0.00 in0.0 mm 0.00 in/hr0.0 mm/hr 0.00 in0.0 mm
06:51 AM 35.6°F2.0°C 14.8°F-9.6°C 42% Calm Calm -- 28.85 in977.0 mb 0.00 in0.0 mm 0.00 in/hr0.0 mm/hr 0.00 in0.0 mm
06:52 AM 35.6°F2.0°C 14.8°F-9.6°C 42% Calm Calm -- 28.85 in977.0 mb 0.00 in0.0 mm 0.00 in/hr0.0 mm/hr 0.00 in0.0 mm
06:53 AM 35.4°F1.9°C 14.6°F-9.7°C 42% Calm Calm -- 28.85 in977.0 mb 0.00 in0.0 mm 0.00 in/hr0.0 mm/hr 0.00 in0.0 mm
06:55 AM 35.4°F1.9°C 14.6°F-9.7°C 42% Calm Calm -- 28.85 in977.0 mb 0.00 in0.0 mm 0.00 in/hr0.0 mm/hr 0.00 in0.0 mm
06:56 AM 35.2°F1.8°C 14.5°F-9.7°C 42% Calm Calm -- 28.85 in977.0 mb 0.00 in0.0 mm 0.00 in/hr0.0 mm/hr 0.00 in0.0 mm
06:58 AM 35.1°F1.7°C 14.3°F-9.8°C 42% Calm Calm -- 28.85 in977.0 mb 0.00 in0.0 mm 0.00 in/hr0.0 mm/hr 0.00 in0.0 mm
06:59 AM 35.1°F1.7°C 14.3°F-9.8°C 42% Calm Calm -- 28.85 in977.0 mb 0.00 in0.0 mm 0.00 in/hr0.0 mm/hr 0.00 in0.0 mm
07:00 AM 35.1°F1.7°C 14.8°F-9.6°C 43% Calm Calm -- 28.85 in977.0 mb 0.00 in0.0 mm 0.00 in/hr0.0 mm/hr 0.00 in0.0 mm
07:02 AM 35.1°F1.7°C 14.8°F-9.6°C 43% Calm Calm -- 28.82 in976.0 mb 0.00 in0.0 mm 0.00 in/hr0.0 mm/hr 0.00 in0.0 mm
07:03 AM 35.1°F1.7°C 14.8°F-9.6°C 43% Calm Calm -- 28.82 in976.0 mb 0.00 in0.0 mm 0.00 in/hr0.0 mm/hr 0.00 in0.0 mm
07:05 AM 35.1°F1.7°C 14.8°F-9.6°C 43% Calm Calm -- 28.82 in976.0 mb 0.00 in0.0 mm 0.00 in/hr0.0 mm/hr 0.00 in0.0 mm
07:06 AM 35.1°F1.7°C 14.8°F-9.6°C 43% Calm Calm -- 28.82 in976.0 mb 0.00 in0.0 mm 0.00 in/hr0.0 mm/hr 0.00 in0.0 mm
07:07 AM 35.1°F1.7°C 14.8°F-9.6°C 43% Calm Calm -- 28.82 in976.0 mb 0.00 in0.0 mm 0.00 in/hr0.0 mm/hr 0.00 in0.0 mm
07:08 AM 35.1°F1.7°C 14.8°F-9.6°C 43% Calm Calm -- 28.82 in976.0 mb 0.00 in0.0 mm 0.00 in/hr0.0 mm/hr 0.00 in0.0 mm
07:10 AM 35.1°F1.7°C 14.8°F-9.6°C 43% Calm Calm -- 28.82 in976.0 mb 0.00 in0.0 mm 0.00 in/hr0.0 mm/hr 0.00 in0.0 mm
07:11 AM 35.1°F1.7°C 14.8°F-9.6°C 43% Calm Calm -- 28.82 in976.0 mb 0.00 in0.0 mm 0.00 in/hr0.0 mm/hr 0.00 in0.0 mm
07:13 AM 35.1°F1.7°C 14.8°F-9.6°C 43% Calm Calm -- 28.82 in976.0 mb 0.00 in0.0 mm 0.00 in/hr0.0 mm/hr 0.00 in0.0 mm
07:14 AM 35.1°F1.7°C 14.8°F-9.6°C 43% Calm Calm -- 28.82 in976.0 mb 0.00 in0.0 mm 0.00 in/hr0.0 mm/hr 0.00 in0.0 mm
07:16 AM 34.9°F1.6°C 14.7°F-9.6°C 43% Calm Calm -- 28.82 in976.0 mb 0.00 in0.0 mm 0.00 in/hr0.0 mm/hr 0.00 in0.0 mm
07:17 AM 34.7°F1.5°C 14.5°F-9.7°C 43% Calm Calm -- 28.82 in976.0 mb 0.00 in0.0 mm 0.00 in/hr0.0 mm/hr 0.00 in0.0 mm
07:18 AM 34.7°F1.5°C 14.5°F-9.7°C 43% Calm Calm -- 28.82 in976.0 mb 0.00 in0.0 mm 0.00 in/hr0.0 mm/hr 0.00 in0.0 mm
07:19 AM 34.5°F1.4°C 14.3°F-9.8°C 43% Calm Calm -- 28.82 in976.0 mb 0.00 in0.0 mm 0.00 in/hr0.0 mm/hr 0.00 in0.0 mm
07:21 AM 34.5°F1.4°C 14.3°F-9.8°C 43% Calm Calm -- 28.82 in976.0 mb 0.00 in0.0 mm 0.00 in/hr0.0 mm/hr 0.00 in0.0 mm
07:22 AM 34.5°F1.4°C 14.3°F-9.8°C 43% Calm Calm -- 28.82 in976.0 mb 0.00 in0.0 mm 0.00 in/hr0.0 mm/hr 0.00 in0.0 mm
07:24 AM 34.5°F1.4°C 14.9°F-9.5°C 44% Calm Calm -- 28.82 in976.0 mb 0.00 in0.0 mm 0.00 in/hr0.0 mm/hr 0.00 in0.0 mm
07:25 AM 34.5°F1.4°C 14.9°F-9.5°C 44% Calm Calm -- 28.82 in976.0 mb 0.00 in0.0 mm 0.00 in/hr0.0 mm/hr 0.00 in0.0 mm
07:26 AM 34.5°F1.4°C 14.9°F-9.5°C 44% Calm Calm -- 28.82 in976.0 mb 0.00 in0.0 mm 0.00 in/hr0.0 mm/hr 0.00 in0.0 mm
07:28 AM 34.5°F1.4°C 14.9°F-9.5°C 44% Calm Calm -- 28.82 in976.0 mb 0.00 in0.0 mm 0.00 in/hr0.0 mm/hr 0.00 in0.0 mm
07:29 AM 34.3°F1.3°C 14.7°F-9.6°C 44% Calm Calm -- 28.82 in976.0 mb 0.00 in0.0 mm 0.00 in/hr0.0 mm/hr 0.00 in0.0 mm
07:31 AM 34.3°F1.3°C 14.7°F-9.6°C 44% Calm Calm -- 28.82 in976.0 mb 0.00 in0.0 mm 0.00 in/hr0.0 mm/hr 0.00 in0.0 mm
07:32 AM 34.3°F1.3°C 14.7°F-9.6°C 44% Calm Calm -- 28.82 in976.0 mb 0.00 in0.0 mm 0.00 in/hr0.0 mm/hr 0.00 in0.0 mm
07:33 AM 34.3°F1.3°C 14.7°F-9.6°C 44% Calm Calm -- 28.85 in977.0 mb 0.00 in0.0 mm 0.00 in/hr0.0 mm/hr 0.00 in0.0 mm
07:35 AM 34.3°F1.3°C 14.7°F-9.6°C 44% Calm Calm -- 28.85 in977.0 mb 0.00 in0.0 mm 0.00 in/hr0.0 mm/hr 0.00 in0.0 mm
07:36 AM 34.2°F1.2°C 14.5°F-9.7°C 44% Calm Calm -- 28.85 in977.0 mb 0.00 in0.0 mm 0.00 in/hr0.0 mm/hr 0.00 in0.0 mm
07:37 AM 34.2°F1.2°C 14.5°F-9.7°C 44% Calm Calm -- 28.85 in977.0 mb 0.00 in0.0 mm 0.00 in/hr0.0 mm/hr 0.00 in0.0 mm
07:39 AM 34.0°F1.1°C 14.4°F-9.8°C 44% Calm Calm -- 28.85 in977.0 mb 0.00 in0.0 mm 0.00 in/hr0.0 mm/hr 0.00 in0.0 mm
07:40 AM 34.0°F1.1°C 14.4°F-9.8°C 44% Calm Calm -- 28.85 in977.0 mb 0.00 in0.0 mm 0.00 in/hr0.0 mm/hr 0.00 in0.0 mm
07:42 AM 34.0°F1.1°C 14.4°F-9.8°C 44% Calm Calm -- 28.85 in977.0 mb 0.00 in0.0 mm 0.00 in/hr0.0 mm/hr 0.00 in0.0 mm
07:43 AM 33.8°F1.0°C 14.2°F-9.9°C 44% Calm Calm -- 28.85 in977.0 mb 0.00 in0.0 mm 0.00 in/hr0.0 mm/hr 0.00 in0.0 mm
07:44 AM 33.8°F1.0°C 14.2°F-9.9°C 44% Calm Calm -- 28.85 in977.0 mb 0.00 in0.0 mm 0.00 in/hr0.0 mm/hr 0.00 in0.0 mm
07:45 AM 33.8°F1.0°C 14.2°F-9.9°C 44% Calm Calm -- 28.85 in977.0 mb 0.00 in0.0 mm 0.00 in/hr0.0 mm/hr 0.00 in0.0 mm
07:47 AM 33.6°F0.9°C 14.6°F-9.7°C 45% Calm Calm -- 28.85 in977.0 mb 0.00 in0.0 mm 0.00 in/hr0.0 mm/hr 0.00 in0.0 mm
07:49 AM 33.6°F0.9°C 14.6°F-9.7°C 45% Calm Calm -- 28.85 in977.0 mb 0.00 in0.0 mm 0.00 in/hr0.0 mm/hr 0.00 in0.0 mm
07:50 AM 33.6°F0.9°C 14.6°F-9.7°C 45% Calm Calm -- 28.85 in977.0 mb 0.00 in0.0 mm 0.00 in/hr0.0 mm/hr 0.00 in0.0 mm
07:51 AM 33.4°F0.8°C 14.4°F-9.8°C 45% Calm Calm -- 28.85 in977.0 mb 0.00 in0.0 mm 0.00 in/hr0.0 mm/hr 0.00 in0.0 mm
07:52 AM 33.4°F0.8°C 14.4°F-9.8°C 45% Calm Calm -- 28.85 in977.0 mb 0.00 in0.0 mm 0.00 in/hr0.0 mm/hr 0.00 in0.0 mm
07:54 AM 33.4°F0.8°C 14.4°F-9.8°C 45% Calm Calm -- 28.85 in977.0 mb 0.00 in0.0 mm 0.00 in/hr0.0 mm/hr 0.00 in0.0 mm
07:56 AM 33.4°F0.8°C 14.9°F-9.5°C 46% Calm Calm -- 28.85 in977.0 mb 0.00 in0.0 mm 0.00 in/hr0.0 mm/hr 0.00 in0.0 mm
07:58 AM 33.4°F0.8°C 15.9°F-8.9°C 48% Calm Calm -- 28.85 in977.0 mb 0.00 in0.0 mm 0.00 in/hr0.0 mm/hr 0.00 in0.0 mm
07:59 AM 33.4°F0.8°C 16.4°F-8.7°C 49% Calm Calm -- 28.85 in977.0 mb 0.00 in0.0 mm 0.00 in/hr0.0 mm/hr 0.00 in0.0 mm
08:00 AM 33.6°F0.9°C 16.5°F-8.6°C 49% Calm Calm -- 28.85 in977.0 mb 0.00 in0.0 mm 0.00 in/hr0.0 mm/hr 0.00 in0.0 mm
08:01 AM 33.6°F0.9°C 16.5°F-8.6°C 49% Calm Calm -- 28.85 in977.0 mb 0.00 in0.0 mm 0.00 in/hr0.0 mm/hr 0.00 in0.0 mm
08:03 AM 33.6°F0.9°C 16.5°F-8.6°C 49% Calm Calm -- 28.85 in977.0 mb 0.00 in0.0 mm 0.00 in/hr0.0 mm/hr 0.00 in0.0 mm
08:05 AM 33.8°F1.0°C 16.7°F-8.5°C 49% Calm Calm -- 28.85 in977.0 mb 0.00 in0.0 mm 0.00 in/hr0.0 mm/hr 0.00 in0.0 mm
08:06 AM 33.8°F1.0°C 16.7°F-8.5°C 49% Calm Calm -- 28.85 in977.0 mb 0.00 in0.0 mm 0.00 in/hr0.0 mm/hr 0.00 in0.0 mm
08:08 AM 33.8°F1.0°C 16.2°F-8.8°C 48% Calm Calm -- 28.85 in977.0 mb 0.00 in0.0 mm 0.00 in/hr0.0 mm/hr 0.00 in0.0 mm
08:09 AM 33.8°F1.0°C 16.2°F-8.8°C 48% Calm Calm -- 28.85 in977.0 mb 0.00 in0.0 mm 0.00 in/hr0.0 mm/hr 0.00 in0.0 mm
08:10 AM 34.0°F1.1°C 16.4°F-8.7°C 48% Calm Calm -- 28.85 in977.0 mb 0.00 in0.0 mm 0.00 in/hr0.0 mm/hr 0.00 in0.0 mm
08:11 AM 34.0°F1.1°C 16.4°F-8.7°C 48% Calm Calm -- 28.85 in977.0 mb 0.00 in0.0 mm 0.00 in/hr0.0 mm/hr 0.00 in0.0 mm
08:12 AM 34.2°F1.2°C 16.5°F-8.6°C 48% Calm Calm -- 28.85 in977.0 mb 0.00 in0.0 mm 0.00 in/hr0.0 mm/hr 0.00 in0.0 mm
08:13 AM 34.2°F1.2°C 16.5°F-8.6°C 48% Calm Calm -- 28.85 in977.0 mb 0.00 in0.0 mm 0.00 in/hr0.0 mm/hr 0.00 in0.0 mm
08:15 AM 34.2°F1.2°C 16.5°F-8.6°C 48% Calm Calm -- 28.85 in977.0 mb 0.00 in0.0 mm 0.00 in/hr0.0 mm/hr 0.00 in0.0 mm
08:16 AM 34.3°F1.3°C 16.7°F-8.5°C 48% Calm Calm -- 28.85 in977.0 mb 0.00 in0.0 mm 0.00 in/hr0.0 mm/hr 0.00 in0.0 mm
08:17 AM 34.3°F1.3°C 16.7°F-8.5°C 48% Calm Calm -- 28.85 in977.0 mb 0.00 in0.0 mm 0.00 in/hr0.0 mm/hr 0.00 in0.0 mm
08:18 AM 34.5°F1.4°C 17.3°F-8.2°C 49% Calm Calm -- 28.88 in978.0 mb 0.00 in0.0 mm 0.00 in/hr0.0 mm/hr 0.00 in0.0 mm
08:20 AM 34.5°F1.4°C 17.3°F-8.2°C 49% Calm Calm -- 28.88 in978.0 mb 0.00 in0.0 mm 0.00 in/hr0.0 mm/hr 0.00 in0.0 mm
08:21 AM 34.7°F1.5°C 17.5°F-8.1°C 49% Calm Calm -- 28.88 in978.0 mb 0.00 in0.0 mm 0.00 in/hr0.0 mm/hr 0.00 in0.0 mm
08:22 AM 34.7°F1.5°C 17.5°F-8.1°C 49% Calm Calm -- 28.88 in978.0 mb 0.00 in0.0 mm 0.00 in/hr0.0 mm/hr 0.00 in0.0 mm
08:23 AM 34.9°F1.6°C 17.7°F-7.9°C 49% Calm Calm -- 28.88 in978.0 mb 0.00 in0.0 mm 0.00 in/hr0.0 mm/hr 0.00 in0.0 mm
08:24 AM 34.9°F1.6°C 17.7°F-7.9°C 49% Calm Calm -- 28.88 in978.0 mb 0.00 in0.0 mm 0.00 in/hr0.0 mm/hr 0.00 in0.0 mm
08:25 AM 34.9°F1.6°C 17.2°F-8.2°C 48% Calm Calm -- 28.88 in978.0 mb 0.00 in0.0 mm 0.00 in/hr0.0 mm/hr 0.00 in0.0 mm
08:26 AM 35.1°F1.7°C 17.4°F-8.1°C 48% Calm Calm -- 28.88 in978.0 mb 0.00 in0.0 mm 0.00 in/hr0.0 mm/hr 0.00 in0.0 mm
08:27 AM 35.1°F1.7°C 17.4°F-8.1°C 48% Calm Calm -- 28.88 in978.0 mb 0.00 in0.0 mm 0.00 in/hr0.0 mm/hr 0.00 in0.0 mm
08:28 AM 35.1°F1.7°C 17.4°F-8.1°C 48% Calm Calm -- 28.88 in978.0 mb 0.00 in0.0 mm 0.00 in/hr0.0 mm/hr 0.00 in0.0 mm
08:29 AM 35.2°F1.8°C 17.5°F-8.1°C 48% Calm Calm -- 28.88 in978.0 mb 0.00 in0.0 mm 0.00 in/hr0.0 mm/hr 0.00 in0.0 mm
08:30 AM 35.2°F1.8°C 17.5°F-8.1°C 48% Calm Calm -- 28.88 in978.0 mb 0.00 in0.0 mm 0.00 in/hr0.0 mm/hr 0.00 in0.0 mm
08:31 AM 35.2°F1.8°C 17.5°F-8.1°C 48% Calm Calm -- 28.88 in978.0 mb 0.00 in0.0 mm 0.00 in/hr0.0 mm/hr 0.00 in0.0 mm
08:32 AM 35.2°F1.8°C 17.5°F-8.1°C 48% Calm Calm -- 28.88 in978.0 mb 0.00 in0.0 mm 0.00 in/hr0.0 mm/hr 0.00 in0.0 mm
08:33 AM 35.4°F1.9°C 17.2°F-8.2°C 47% Calm Calm -- 28.88 in978.0 mb 0.00 in0.0 mm 0.00 in/hr0.0 mm/hr 0.00 in0.0 mm
08:34 AM 35.4°F1.9°C 17.2°F-8.2°C 47% Calm Calm -- 28.88 in978.0 mb 0.00 in0.0 mm 0.00 in/hr0.0 mm/hr 0.00 in0.0 mm
08:36 AM 35.4°F1.9°C 17.2°F-8.2°C 47% Calm Calm -- 28.88 in978.0 mb 0.00 in0.0 mm 0.00 in/hr0.0 mm/hr 0.00 in0.0 mm
08:37 AM 35.6°F2.0°C 17.4°F-8.1°C 47% Calm Calm -- 28.88 in978.0 mb 0.00 in0.0 mm 0.00 in/hr0.0 mm/hr 0.00 in0.0 mm
08:38 AM 35.6°F2.0°C 16.9°F-8.4°C 46% Calm Calm -- 28.88 in978.0 mb 0.00 in0.0 mm 0.00 in/hr0.0 mm/hr 0.00 in0.0 mm
08:39 AM 35.6°F2.0°C 16.9°F-8.4°C 46% Calm Calm -- 28.88 in978.0 mb 0.00 in0.0 mm 0.00 in/hr0.0 mm/hr 0.00 in0.0 mm
08:40 AM 35.6°F2.0°C 16.9°F-8.4°C 46% Calm Calm -- 28.88 in978.0 mb 0.00 in0.0 mm 0.00 in/hr0.0 mm/hr 0.00 in0.0 mm
08:41 AM 35.6°F2.0°C 16.9°F-8.4°C 46% Calm Calm -- 28.88 in978.0 mb 0.00 in0.0 mm 0.00 in/hr0.0 mm/hr 0.00 in0.0 mm
08:42 AM 35.8°F2.1°C 17.0°F-8.3°C 46% Calm Calm -- 28.88 in978.0 mb 0.00 in0.0 mm 0.00 in/hr0.0 mm/hr 0.00 in0.0 mm
08:43 AM 35.8°F2.1°C 17.0°F-8.3°C 46% Calm Calm -- 28.88 in978.0 mb 0.00 in0.0 mm 0.00 in/hr0.0 mm/hr 0.00 in0.0 mm
08:44 AM 35.8°F2.1°C 16.5°F-8.6°C 45% Calm Calm -- 28.88 in978.0 mb 0.00 in0.0 mm 0.00 in/hr0.0 mm/hr 0.00 in0.0 mm
08:45 AM 35.8°F2.1°C 16.5°F-8.6°C 45% Calm Calm -- 28.88 in978.0 mb 0.00 in0.0 mm 0.00 in/hr0.0 mm/hr 0.00 in0.0 mm
08:46 AM 35.8°F2.1°C 16.5°F-8.6°C 45% Calm Calm -- 28.88 in978.0 mb 0.00 in0.0 mm 0.00 in/hr0.0 mm/hr 0.00 in0.0 mm
08:47 AM 36.0°F2.2°C 16.7°F-8.5°C 45% Calm Calm -- 28.88 in978.0 mb 0.00 in0.0 mm 0.00 in/hr0.0 mm/hr 0.00 in0.0 mm
08:48 AM 36.0°F2.2°C 16.7°F-8.5°C 45% Calm Calm -- 28.88 in978.0 mb 0.00 in0.0 mm 0.00 in/hr0.0 mm/hr 0.00 in0.0 mm
08:50 AM 36.0°F2.2°C 16.7°F-8.5°C 45% Calm Calm -- 28.88 in978.0 mb 0.00 in0.0 mm 0.00 in/hr0.0 mm/hr 0.00 in0.0 mm
08:51 AM 36.1°F2.3°C 16.9°F-8.4°C 45% Calm Calm -- 28.88 in978.0 mb 0.00 in0.0 mm 0.00 in/hr0.0 mm/hr 0.00 in0.0 mm
08:52 AM 36.1°F2.3°C 16.9°F-8.4°C 45% Calm Calm -- 28.88 in978.0 mb 0.00 in0.0 mm 0.00 in/hr0.0 mm/hr 0.00 in0.0 mm
08:54 AM 36.1°F2.3°C 16.9°F-8.4°C 45% Calm Calm -- 28.88 in978.0 mb 0.00 in0.0 mm 0.00 in/hr0.0 mm/hr 0.00 in0.0 mm
08:55 AM 36.1°F2.3°C 16.9°F-8.4°C 45% Calm Calm -- 28.88 in978.0 mb 0.00 in0.0 mm 0.00 in/hr0.0 mm/hr 0.00 in0.0 mm
08:57 AM 36.3°F2.4°C 17.0°F-8.3°C 45% Calm Calm -- 28.88 in978.0 mb 0.00 in0.0 mm 0.00 in/hr0.0 mm/hr 0.00 in0.0 mm
08:58 AM 36.3°F2.4°C 16.5°F-8.6°C 44% Calm Calm -- 28.88 in978.0 mb 0.00 in0.0 mm 0.00 in/hr0.0 mm/hr 0.00 in0.0 mm
08:59 AM 36.3°F2.4°C 16.5°F-8.6°C 44% Calm Calm -- 28.88 in978.0 mb 0.00 in0.0 mm 0.00 in/hr0.0 mm/hr 0.00 in0.0 mm
09:01 AM 36.3°F2.4°C 16.5°F-8.6°C 44% Calm Calm -- 28.88 in978.0 mb 0.00 in0.0 mm 0.00 in/hr0.0 mm/hr 0.00 in0.0 mm
09:02 AM 36.3°F2.4°C 16.5°F-8.6°C 44% Calm Calm -- 28.88 in978.0 mb 0.00 in0.0 mm 0.00 in/hr0.0 mm/hr 0.00 in0.0 mm
09:04 AM 36.5°F2.5°C 16.7°F-8.5°C 44% Calm Calm -- 28.88 in978.0 mb 0.00 in0.0 mm 0.00 in/hr0.0 mm/hr 0.00 in0.0 mm
09:05 AM 36.5°F2.5°C 16.7°F-8.5°C 44% Calm Calm -- 28.88 in978.0 mb 0.00 in0.0 mm 0.00 in/hr0.0 mm/hr 0.00 in0.0 mm
09:06 AM 36.5°F2.5°C 16.7°F-8.5°C 44% Calm Calm -- 28.88 in978.0 mb 0.00 in0.0 mm 0.00 in/hr0.0 mm/hr 0.00 in0.0 mm
09:08 AM 36.5°F2.5°C 16.1°F-8.8°C 43% Calm Calm -- 28.88 in978.0 mb 0.00 in0.0 mm 0.00 in/hr0.0 mm/hr 0.00 in0.0 mm
09:09 AM 36.5°F2.5°C 16.1°F-8.8°C 43% Calm Calm -- 28.88 in978.0 mb 0.00 in0.0 mm 0.00 in/hr0.0 mm/hr 0.00 in0.0 mm
09:12 AM 36.7°F2.6°C 16.3°F-8.7°C 43% Calm Calm -- 28.88 in978.0 mb 0.00 in0.0 mm 0.00 in/hr0.0 mm/hr 0.00 in0.0 mm
09:13 AM 36.7°F2.6°C 16.3°F-8.7°C 43% Calm Calm -- 28.88 in978.0 mb 0.00 in0.0 mm 0.00 in/hr0.0 mm/hr 0.00 in0.0 mm
09:14 AM 36.7°F2.6°C 16.3°F-8.7°C 43% Calm Calm -- 28.88 in978.0 mb 0.00 in0.0 mm 0.00 in/hr0.0 mm/hr 0.00 in0.0 mm
09:16 AM 36.7°F2.6°C 16.3°F-8.7°C 43% Calm Calm -- 28.88 in978.0 mb 0.00 in0.0 mm 0.00 in/hr0.0 mm/hr 0.00 in0.0 mm
09:17 AM 36.7°F2.6°C 16.3°F-8.7°C 43% Calm Calm -- 28.88 in978.0 mb 0.00 in0.0 mm 0.00 in/hr0.0 mm/hr 0.00 in0.0 mm
09:18 AM 36.7°F2.6°C 16.3°F-8.7°C 43% Calm Calm -- 28.88 in978.0 mb 0.00 in0.0 mm 0.00 in/hr0.0 mm/hr 0.00 in0.0 mm
09:20 AM 36.7°F2.6°C 16.3°F-8.7°C 43% Calm Calm -- 28.88 in978.0 mb 0.00 in0.0 mm 0.00 in/hr0.0 mm/hr 0.00 in0.0 mm
09:21 AM 36.7°F2.6°C 15.8°F-9.0°C 42% Calm Calm -- 28.88 in978.0 mb 0.00 in0.0 mm 0.00 in/hr0.0 mm/hr 0.00 in0.0 mm
09:23 AM 36.7°F2.6°C 15.8°F-9.0°C 42% Calm Calm -- 28.88 in978.0 mb 0.00 in0.0 mm 0.00 in/hr0.0 mm/hr 0.00 in0.0 mm
09:24 AM 36.7°F2.6°C 15.8°F-9.0°C 42% Calm Calm -- 28.88 in978.0 mb 0.00 in0.0 mm 0.00 in/hr0.0 mm/hr 0.00 in0.0 mm
09:25 AM 36.9°F2.7°C 15.9°F-8.9°C 42% Calm Calm -- 28.88 in978.0 mb 0.00 in0.0 mm 0.00 in/hr0.0 mm/hr 0.00 in0.0 mm
09:26 AM 36.9°F2.7°C 15.9°F-8.9°C 42% Calm Calm -- 28.88 in978.0 mb 0.00 in0.0 mm 0.00 in/hr0.0 mm/hr 0.00 in0.0 mm
09:27 AM 36.9°F2.7°C 15.9°F-8.9°C 42% Calm Calm -- 28.88 in978.0 mb 0.00 in0.0 mm 0.00 in/hr0.0 mm/hr 0.00 in0.0 mm
09:28 AM 36.9°F2.7°C 15.9°F-8.9°C 42% Calm Calm -- 28.88 in978.0 mb 0.00 in0.0 mm 0.00 in/hr0.0 mm/hr 0.00 in0.0 mm
09:29 AM 37.0°F2.8°C 16.1°F-8.8°C 42% Calm Calm -- 28.88 in978.0 mb 0.00 in0.0 mm 0.00 in/hr0.0 mm/hr 0.00 in0.0 mm
09:31 AM 37.0°F2.8°C 16.1°F-8.8°C 42% Calm Calm -- 28.88 in978.0 mb 0.00 in0.0 mm 0.00 in/hr0.0 mm/hr 0.00 in0.0 mm
09:32 AM 37.0°F2.8°C 16.1°F-8.8°C 42% Calm Calm -- 28.88 in978.0 mb 0.00 in0.0 mm 0.00 in/hr0.0 mm/hr 0.00 in0.0 mm
09:34 AM 37.0°F2.8°C 16.1°F-8.8°C 42% Calm Calm -- 28.88 in978.0 mb 0.00 in0.0 mm 0.00 in/hr0.0 mm/hr 0.00 in0.0 mm
09:35 AM 37.0°F2.8°C 16.1°F-8.8°C 42% Calm Calm -- 28.88 in978.0 mb 0.00 in0.0 mm 0.00 in/hr0.0 mm/hr 0.00 in0.0 mm
09:37 AM 37.2°F2.9°C 15.7°F-9.1°C 41% Calm Calm -- 28.88 in978.0 mb 0.00 in0.0 mm 0.00 in/hr0.0 mm/hr 0.00 in0.0 mm
09:38 AM 37.2°F2.9°C 15.7°F-9.1°C 41% Calm Calm -- 28.88 in978.0 mb 0.00 in0.0 mm 0.00 in/hr0.0 mm/hr 0.00 in0.0 mm
09:39 AM 37.4°F3.0°C 15.9°F-8.9°C 41% Calm Calm -- 28.88 in978.0 mb 0.00 in0.0 mm 0.00 in/hr0.0 mm/hr 0.00 in0.0 mm
09:40 AM 37.4°F3.0°C 15.9°F-8.9°C 41% Calm Calm 2.7 mph4.3 kmh 28.88 in978.0 mb 0.00 in0.0 mm 0.00 in/hr0.0 mm/hr 0.00 in0.0 mm
09:42 AM 37.4°F3.0°C 15.9°F-8.9°C 41% Calm Calm -- 28.88 in978.0 mb 0.00 in0.0 mm 0.00 in/hr0.0 mm/hr 0.00 in0.0 mm
09:43 AM 37.4°F3.0°C 15.9°F-8.9°C 41% Calm Calm -- 28.88 in978.0 mb 0.00 in0.0 mm 0.00 in/hr0.0 mm/hr 0.00 in0.0 mm
09:45 AM 37.6°F3.1°C 16.0°F-8.9°C 41% Calm Calm -- 28.88 in978.0 mb 0.00 in0.0 mm 0.00 in/hr0.0 mm/hr 0.00 in0.0 mm
09:46 AM 37.6°F3.1°C 16.0°F-8.9°C 41% Calm Calm -- 28.88 in978.0 mb 0.00 in0.0 mm 0.00 in/hr0.0 mm/hr 0.00 in0.0 mm
09:47 AM 37.6°F3.1°C 16.0°F-8.9°C 41% Calm Calm -- 28.88 in978.0 mb 0.00 in0.0 mm 0.00 in/hr0.0 mm/hr 0.00 in0.0 mm
09:49 AM 37.8°F3.2°C 16.2°F-8.8°C 41% Calm Calm -- 28.88 in978.0 mb 0.00 in0.0 mm 0.00 in/hr0.0 mm/hr 0.00 in0.0 mm
09:50 AM 37.8°F3.2°C 15.6°F-9.1°C 40% Calm Calm -- 28.88 in978.0 mb 0.00 in0.0 mm 0.00 in/hr0.0 mm/hr 0.00 in0.0 mm
09:51 AM 37.8°F3.2°C 15.6°F-9.1°C 40% Calm Calm -- 28.88 in978.0 mb 0.00 in0.0 mm 0.00 in/hr0.0 mm/hr 0.00 in0.0 mm
09:52 AM 37.8°F3.2°C 15.6°F-9.1°C 40% Calm Calm -- 28.88 in978.0 mb 0.00 in0.0 mm 0.00 in/hr0.0 mm/hr 0.00 in0.0 mm
09:53 AM 37.9°F3.3°C 15.8°F-9.0°C 40% Calm Calm -- 28.88 in978.0 mb 0.00 in0.0 mm 0.00 in/hr0.0 mm/hr 0.00 in0.0 mm
09:54 AM 37.9°F3.3°C 15.8°F-9.0°C 40% Calm Calm -- 28.88 in978.0 mb 0.00 in0.0 mm 0.00 in/hr0.0 mm/hr 0.00 in0.0 mm
09:56 AM 37.9°F3.3°C 15.8°F-9.0°C 40% Calm Calm -- 28.88 in978.0 mb 0.00 in0.0 mm 0.00 in/hr0.0 mm/hr 0.00 in0.0 mm
09:57 AM 37.9°F3.3°C 15.8°F-9.0°C 40% Calm Calm -- 28.88 in978.0 mb 0.00 in0.0 mm 0.00 in/hr0.0 mm/hr 0.00 in0.0 mm
09:58 AM 38.1°F3.4°C 16.0°F-8.9°C 40% Calm Calm -- 28.88 in978.0 mb 0.00 in0.0 mm 0.00 in/hr0.0 mm/hr 0.00 in0.0 mm
10:00 AM 38.1°F3.4°C 16.0°F-8.9°C 40% Calm Calm -- 28.88 in978.0 mb 0.00 in0.0 mm 0.00 in/hr0.0 mm/hr 0.00 in0.0 mm
10:01 AM 38.1°F3.4°C 16.0°F-8.9°C 40% Calm Calm -- 28.88 in978.0 mb 0.00 in0.0 mm 0.00 in/hr0.0 mm/hr 0.00 in0.0 mm
10:02 AM 38.3°F3.5°C 16.1°F-8.8°C 40% Calm Calm -- 28.88 in978.0 mb 0.00 in0.0 mm 0.00 in/hr0.0 mm/hr 0.00 in0.0 mm
10:03 AM 38.3°F3.5°C 16.1°F-8.8°C 40% Calm Calm -- 28.88 in978.0 mb 0.00 in0.0 mm 0.00 in/hr0.0 mm/hr 0.00 in0.0 mm
10:05 AM 38.5°F3.6°C 16.3°F-8.7°C 40% Calm Calm -- 28.88 in978.0 mb 0.00 in0.0 mm 0.00 in/hr0.0 mm/hr 0.00 in0.0 mm
10:07 AM 38.5°F3.6°C 16.3°F-8.7°C 40% Calm Calm -- 28.88 in978.0 mb 0.00 in0.0 mm 0.00 in/hr0.0 mm/hr 0.00 in0.0 mm
10:08 AM 38.5°F3.6°C 16.3°F-8.7°C 40% Calm Calm -- 28.88 in978.0 mb 0.00 in0.0 mm 0.00 in/hr0.0 mm/hr 0.00 in0.0 mm
10:09 AM 38.7°F3.7°C 16.4°F-8.7°C 40% Calm Calm -- 28.88 in978.0 mb 0.00 in0.0 mm 0.00 in/hr0.0 mm/hr 0.00 in0.0 mm
10:11 AM 38.7°F3.7°C 16.4°F-8.7°C 40% Calm Calm -- 28.88 in978.0 mb 0.00 in0.0 mm 0.00 in/hr0.0 mm/hr 0.00 in0.0 mm
10:12 AM 38.8°F3.8°C 16.6°F-8.6°C 40% Calm Calm -- 28.88 in978.0 mb 0.00 in0.0 mm 0.00 in/hr0.0 mm/hr 0.00 in0.0 mm
10:13 AM 38.8°F3.8°C 16.6°F-8.6°C 40% Calm Calm -- 28.88 in978.0 mb 0.00 in0.0 mm 0.00 in/hr0.0 mm/hr 0.00 in0.0 mm
10:14 AM 39.0°F3.9°C 16.8°F-8.4°C 40% Calm Calm -- 28.88 in978.0 mb 0.00 in0.0 mm 0.00 in/hr0.0 mm/hr 0.00 in0.0 mm
10:15 AM 39.2°F4.0°C 16.3°F-8.7°C 39% Calm Calm -- 28.88 in978.0 mb 0.00 in0.0 mm 0.00 in/hr0.0 mm/hr 0.00 in0.0 mm
10:16 AM 39.2°F4.0°C 16.3°F-8.7°C 39% Calm Calm -- 28.88 in978.0 mb 0.00 in0.0 mm 0.00 in/hr0.0 mm/hr 0.00 in0.0 mm
10:18 AM 39.4°F4.1°C 16.5°F-8.6°C 39% Calm Calm -- 28.85 in977.0 mb 0.00 in0.0 mm 0.00 in/hr0.0 mm/hr 0.00 in0.0 mm
10:19 AM 39.4°F4.1°C 16.5°F-8.6°C 39% Calm Calm -- 28.85 in977.0 mb 0.00 in0.0 mm 0.00 in/hr0.0 mm/hr 0.00 in0.0 mm
10:20 AM 39.4°F4.1°C 16.5°F-8.6°C 39% Calm Calm -- 28.85 in977.0 mb 0.00 in0.0 mm 0.00 in/hr0.0 mm/hr 0.00 in0.0 mm
10:21 AM 39.6°F4.2°C 16.7°F-8.5°C 39% Calm Calm -- 28.85 in977.0 mb 0.00 in0.0 mm 0.00 in/hr0.0 mm/hr 0.00 in0.0 mm
10:23 AM 39.7°F4.3°C 16.8°F-8.4°C 39% Calm Calm -- 28.85 in977.0 mb 0.00 in0.0 mm 0.00 in/hr0.0 mm/hr 0.00 in0.0 mm
10:24 AM 39.7°F4.3°C 16.8°F-8.4°C 39% Calm Calm -- 28.85 in977.0 mb 0.00 in0.0 mm 0.00 in/hr0.0 mm/hr 0.00 in0.0 mm
10:25 AM 39.9°F4.4°C 17.0°F-8.3°C 39% Calm Calm -- 28.85 in977.0 mb 0.00 in0.0 mm 0.00 in/hr0.0 mm/hr 0.00 in0.0 mm
10:27 AM 39.9°F4.4°C 16.4°F-8.7°C 38% Calm Calm -- 28.85 in977.0 mb 0.00 in0.0 mm 0.00 in/hr0.0 mm/hr 0.00 in0.0 mm
10:28 AM 40.1°F4.5°C 16.6°F-8.6°C 38% Calm Calm -- 28.85 in977.0 mb 0.00 in0.0 mm 0.00 in/hr0.0 mm/hr 0.00 in0.0 mm
10:30 AM 40.3°F4.6°C 16.7°F-8.5°C 38% Calm Calm -- 28.85 in977.0 mb 0.00 in0.0 mm 0.00 in/hr0.0 mm/hr 0.00 in0.0 mm
10:31 AM 40.3°F4.6°C 16.7°F-8.5°C 38% Calm Calm -- 28.85 in977.0 mb 0.00 in0.0 mm 0.00 in/hr0.0 mm/hr 0.00 in0.0 mm
10:32 AM 40.5°F4.7°C 16.9°F-8.4°C 38% Calm Calm -- 28.85 in977.0 mb 0.00 in0.0 mm 0.00 in/hr0.0 mm/hr 0.00 in0.0 mm
10:34 AM 40.5°F4.7°C 16.9°F-8.4°C 38% Calm Calm -- 28.85 in977.0 mb 0.00 in0.0 mm 0.00 in/hr0.0 mm/hr 0.00 in0.0 mm
10:35 AM 40.5°F4.7°C 16.9°F-8.4°C 38% Calm Calm -- 28.85 in977.0 mb 0.00 in0.0 mm 0.00 in/hr0.0 mm/hr 0.00 in0.0 mm
10:36 AM 40.6°F4.8°C 17.0°F-8.3°C 38% Calm Calm -- 28.85 in977.0 mb 0.00 in0.0 mm 0.00 in/hr0.0 mm/hr 0.00 in0.0 mm
10:38 AM 40.6°F4.8°C 17.0°F-8.3°C 38% Calm Calm -- 28.85 in977.0 mb 0.00 in0.0 mm 0.00 in/hr0.0 mm/hr 0.00 in0.0 mm
10:39 AM 40.8°F4.9°C 17.2°F-8.2°C 38% Calm Calm -- 28.85 in977.0 mb 0.00 in0.0 mm 0.00 in/hr0.0 mm/hr 0.00 in0.0 mm
10:41 AM 40.8°F4.9°C 17.2°F-8.2°C 38% Calm Calm -- 28.85 in977.0 mb 0.00 in0.0 mm 0.00 in/hr0.0 mm/hr 0.00 in0.0 mm
10:42 AM 40.8°F4.9°C 17.2°F-8.2°C 38% Calm Calm -- 28.85 in977.0 mb 0.00 in0.0 mm 0.00 in/hr0.0 mm/hr 0.00 in0.0 mm
10:44 AM 41.0°F5.0°C 16.7°F-8.5°C 37% Calm Calm -- 28.85 in977.0 mb 0.00 in0.0 mm 0.00 in/hr0.0 mm/hr 0.00 in0.0 mm
10:45 AM 41.0°F5.0°C 16.1°F-8.8°C 36% Calm Calm -- 28.85 in977.0 mb 0.00 in0.0 mm 0.00 in/hr0.0 mm/hr 0.00 in0.0 mm
10:46 AM 41.0°F5.0°C 16.1°F-8.8°C 36% Calm Calm -- 28.85 in977.0 mb 0.00 in0.0 mm 0.00 in/hr0.0 mm/hr 0.00 in0.0 mm
10:47 AM 41.0°F5.0°C 16.1°F-8.8°C 36% Calm Calm -- 28.85 in977.0 mb 0.00 in0.0 mm 0.00 in/hr0.0 mm/hr 0.00 in0.0 mm
10:49 AM 41.2°F5.1°C 16.3°F-8.7°C 36% Calm Calm -- 28.85 in977.0 mb 0.00 in0.0 mm 0.00 in/hr0.0 mm/hr 0.00 in0.0 mm
10:50 AM 41.2°F5.1°C 16.3°F-8.7°C 36% Calm Calm -- 28.85 in977.0 mb 0.00 in0.0 mm 0.00 in/hr0.0 mm/hr 0.00 in0.0 mm
10:51 AM 41.2°F5.1°C 16.3°F-8.7°C 36% Calm Calm -- 28.85 in977.0 mb 0.00 in0.0 mm 0.00 in/hr0.0 mm/hr 0.00 in0.0 mm
10:53 AM 41.2°F5.1°C 16.3°F-8.7°C 36% Calm Calm -- 28.85 in977.0 mb 0.00 in0.0 mm 0.00 in/hr0.0 mm/hr 0.00 in0.0 mm
10:54 AM 41.2°F5.1°C 16.3°F-8.7°C 36% Calm Calm -- 28.85 in977.0 mb 0.00 in0.0 mm 0.00 in/hr0.0 mm/hr 0.00 in0.0 mm
10:56 AM 41.4°F5.2°C 16.4°F-8.7°C 36% Calm Calm -- 28.85 in977.0 mb 0.00 in0.0 mm 0.00 in/hr0.0 mm/hr 0.00 in0.0 mm
10:57 AM 41.4°F5.2°C 15.8°F-9.0°C 35% Calm Calm -- 28.85 in977.0 mb 0.00 in0.0 mm 0.00 in/hr0.0 mm/hr 0.00 in0.0 mm
10:58 AM 41.4°F5.2°C 15.1°F-9.4°C 34% Calm Calm -- 28.85 in977.0 mb 0.00 in0.0 mm 0.00 in/hr0.0 mm/hr 0.00 in0.0 mm
11:00 AM 41.4°F5.2°C 15.1°F-9.4°C 34% Calm Calm -- 28.85 in977.0 mb 0.00 in0.0 mm 0.00 in/hr0.0 mm/hr 0.00 in0.0 mm
11:01 AM 41.4°F5.2°C 15.1°F-9.4°C 34% Calm Calm -- 28.85 in977.0 mb 0.00 in0.0 mm 0.00 in/hr0.0 mm/hr 0.00 in0.0 mm
11:02 AM 41.5°F5.3°C 15.3°F-9.3°C 34% Calm Calm -- 28.85 in977.0 mb 0.00 in0.0 mm 0.00 in/hr0.0 mm/hr 0.00 in0.0 mm
11:03 AM 41.5°F5.3°C 15.3°F-9.3°C 34% Calm Calm -- 28.85 in977.0 mb 0.00 in0.0 mm 0.00 in/hr0.0 mm/hr 0.00 in0.0 mm
11:04 AM 41.5°F5.3°C 15.3°F-9.3°C 34% Calm Calm -- 28.85 in977.0 mb 0.00 in0.0 mm 0.00 in/hr0.0 mm/hr 0.00 in0.0 mm
11:05 AM 41.5°F5.3°C 15.3°F-9.3°C 34% Calm Calm -- 28.85 in977.0 mb 0.00 in0.0 mm 0.00 in/hr0.0 mm/hr 0.00 in0.0 mm
11:07 AM 41.7°F5.4°C 15.4°F-9.2°C 34% Calm Calm -- 28.85 in977.0 mb 0.00 in0.0 mm 0.00 in/hr0.0 mm/hr 0.00 in0.0 mm
11:08 AM 41.7°F5.4°C 15.4°F-9.2°C 34% Calm Calm -- 28.85 in977.0 mb 0.00 in0.0 mm 0.00 in/hr0.0 mm/hr 0.00 in0.0 mm
11:10 AM 41.9°F5.5°C 15.6°F-9.1°C 34% Calm Calm -- 28.85 in977.0 mb 0.00 in0.0 mm 0.00 in/hr0.0 mm/hr 0.00 in0.0 mm
11:12 AM 42.1°F5.6°C 16.4°F-8.7°C 35% Calm Calm -- 28.85 in977.0 mb 0.00 in0.0 mm 0.00 in/hr0.0 mm/hr 0.00 in0.0 mm
11:13 AM 42.3°F5.7°C 16.6°F-8.6°C 35% Calm Calm -- 28.85 in977.0 mb 0.00 in0.0 mm 0.00 in/hr0.0 mm/hr 0.00 in0.0 mm
11:15 AM 42.4°F5.8°C 16.7°F-8.5°C 35% Calm Calm -- 28.85 in977.0 mb 0.00 in0.0 mm 0.00 in/hr0.0 mm/hr 0.00 in0.0 mm
11:16 AM 42.4°F5.8°C 16.1°F-8.8°C 34% Calm Calm -- 28.85 in977.0 mb 0.00 in0.0 mm 0.00 in/hr0.0 mm/hr 0.00 in0.0 mm
11:17 AM 42.6°F5.9°C 16.2°F-8.8°C 34% Calm Calm -- 28.85 in977.0 mb 0.00 in0.0 mm 0.00 in/hr0.0 mm/hr 0.00 in0.0 mm
11:18 AM 43.0°F6.1°C 15.9°F-8.9°C 33% Calm Calm -- 28.85 in977.0 mb 0.00 in0.0 mm 0.00 in/hr0.0 mm/hr 0.00 in0.0 mm
11:19 AM 43.0°F6.1°C 15.2°F-9.3°C 32% Calm Calm -- 28.85 in977.0 mb 0.00 in0.0 mm 0.00 in/hr0.0 mm/hr 0.00 in0.0 mm
11:20 AM 43.2°F6.2°C 16.0°F-8.9°C 33% Calm Calm -- 28.85 in977.0 mb 0.00 in0.0 mm 0.00 in/hr0.0 mm/hr 0.00 in0.0 mm
11:22 AM 43.3°F6.3°C 16.2°F-8.8°C 33% Calm Calm -- 28.85 in977.0 mb 0.00 in0.0 mm 0.00 in/hr0.0 mm/hr 0.00 in0.0 mm
11:23 AM 43.5°F6.4°C 16.3°F-8.7°C 33% Calm Calm -- 28.85 in977.0 mb 0.00 in0.0 mm 0.00 in/hr0.0 mm/hr 0.00 in0.0 mm
11:24 AM 43.7°F6.5°C 16.5°F-8.6°C 33% Calm Calm -- 28.85 in977.0 mb 0.00 in0.0 mm 0.00 in/hr0.0 mm/hr 0.00 in0.0 mm
11:26 AM 44.1°F6.7°C 16.8°F-8.4°C 33% Calm Calm -- 28.85 in977.0 mb 0.00 in0.0 mm 0.00 in/hr0.0 mm/hr 0.00 in0.0 mm
11:27 AM 44.2°F6.8°C 16.3°F-8.7°C 32% Calm Calm -- 28.85 in977.0 mb 0.00 in0.0 mm 0.00 in/hr0.0 mm/hr 0.00 in0.0 mm
11:28 AM 44.4°F6.9°C 16.4°F-8.7°C 32% Calm Calm -- 28.85 in977.0 mb 0.00 in0.0 mm 0.00 in/hr0.0 mm/hr 0.00 in0.0 mm
11:30 AM 44.8°F7.1°C 16.0°F-8.9°C 31% Calm Calm -- 28.85 in977.0 mb 0.00 in0.0 mm 0.00 in/hr0.0 mm/hr 0.00 in0.0 mm
11:31 AM 45.0°F7.2°C 16.2°F-8.8°C 31% Calm Calm -- 28.85 in977.0 mb 0.00 in0.0 mm 0.00 in/hr0.0 mm/hr 0.00 in0.0 mm
11:33 AM 45.5°F7.5°C 16.6°F-8.6°C 31% Calm Calm -- 28.85 in977.0 mb 0.00 in0.0 mm 0.00 in/hr0.0 mm/hr 0.00 in0.0 mm
11:34 AM 45.7°F7.6°C 16.8°F-8.4°C 31% Calm Calm -- 28.85 in977.0 mb 0.00 in0.0 mm 0.00 in/hr0.0 mm/hr 0.00 in0.0 mm
11:36 AM 46.4°F8.0°C 17.4°F-8.1°C 31% Calm Calm -- 28.85 in977.0 mb 0.00 in0.0 mm 0.00 in/hr0.0 mm/hr 0.00 in0.0 mm
11:38 AM 46.9°F8.3°C 17.1°F-8.3°C 30% Calm Calm -- 28.85 in977.0 mb 0.00 in0.0 mm 0.00 in/hr0.0 mm/hr 0.00 in0.0 mm
11:39 AM 47.3°F8.5°C 17.5°F-8.1°C 30% Calm Calm -- 28.85 in977.0 mb 0.00 in0.0 mm 0.00 in/hr0.0 mm/hr 0.00 in0.0 mm
11:41 AM 47.3°F8.5°C 16.7°F-8.5°C 29% Calm Calm -- 28.85 in977.0 mb 0.00 in0.0 mm 0.00 in/hr0.0 mm/hr 0.00 in0.0 mm
11:42 AM 47.3°F8.5°C 16.7°F-8.5°C 29% Calm Calm -- 28.85 in977.0 mb 0.00 in0.0 mm 0.00 in/hr0.0 mm/hr 0.00 in0.0 mm
11:43 AM 47.3°F8.5°C 16.7°F-8.5°C 29% Calm Calm 2.2 mph3.5 kmh 28.85 in977.0 mb 0.00 in0.0 mm 0.00 in/hr0.0 mm/hr 0.00 in0.0 mm
11:45 AM 47.5°F8.6°C 16.0°F-8.9°C 28% Calm Calm -- 28.85 in977.0 mb 0.00 in0.0 mm 0.00 in/hr0.0 mm/hr 0.00 in0.0 mm
11:46 AM 47.5°F8.6°C 16.0°F-8.9°C 28% Calm Calm -- 28.82 in976.0 mb 0.00 in0.0 mm 0.00 in/hr0.0 mm/hr 0.00 in0.0 mm
11:48 AM 47.7°F8.7°C 16.2°F-8.8°C 28% Calm Calm -- 28.82 in976.0 mb 0.00 in0.0 mm 0.00 in/hr0.0 mm/hr 0.00 in0.0 mm
11:49 AM 47.7°F8.7°C 16.2°F-8.8°C 28% Calm Calm -- 28.82 in976.0 mb 0.00 in0.0 mm 0.00 in/hr0.0 mm/hr 0.00 in0.0 mm
11:50 AM 47.8°F8.8°C 16.3°F-8.7°C 28% Calm Calm -- 28.82 in976.0 mb 0.00 in0.0 mm 0.00 in/hr0.0 mm/hr 0.00 in0.0 mm
11:52 AM 47.8°F8.8°C 16.3°F-8.7°C 28% Calm Calm -- 28.82 in976.0 mb 0.00 in0.0 mm 0.00 in/hr0.0 mm/hr 0.00 in0.0 mm
11:53 AM 47.8°F8.8°C 16.3°F-8.7°C 28% Calm Calm -- 28.82 in976.0 mb 0.00 in0.0 mm 0.00 in/hr0.0 mm/hr 0.00 in0.0 mm
11:54 AM 47.8°F8.8°C 16.3°F-8.7°C 28% Calm Calm -- 28.82 in976.0 mb 0.00 in0.0 mm 0.00 in/hr0.0 mm/hr 0.00 in0.0 mm
11:56 AM 48.0°F8.9°C 16.5°F-8.6°C 28% Calm Calm -- 28.82 in976.0 mb 0.00 in0.0 mm 0.00 in/hr0.0 mm/hr 0.00 in0.0 mm
11:57 AM 48.0°F8.9°C 16.5°F-8.6°C 28% Calm Calm -- 28.82 in976.0 mb 0.00 in0.0 mm 0.00 in/hr0.0 mm/hr 0.00 in0.0 mm
11:59 AM 48.6°F9.2°C 16.1°F-8.8°C 27% Calm Calm -- 28.82 in976.0 mb 0.00 in0.0 mm 0.00 in/hr0.0 mm/hr 0.00 in0.0 mm
12:00 PM 48.7°F9.3°C 16.3°F-8.7°C 27% Calm Calm -- 28.82 in976.0 mb 0.00 in0.0 mm 0.00 in/hr0.0 mm/hr 0.00 in0.0 mm
12:01 PM 48.9°F9.4°C 16.4°F-8.7°C 27% Calm Calm -- 28.82 in976.0 mb 0.00 in0.0 mm 0.00 in/hr0.0 mm/hr 0.00 in0.0 mm
12:02 PM 49.1°F9.5°C 16.6°F-8.6°C 27% 2.2 mph N3.5 kmh N 2.2 mph3.5 kmh 28.79 in974.9 mb 0.00 in0.0 mm 0.00 in/hr0.0 mm/hr 0.00 in0.0 mm
12:04 PM 49.3°F9.6°C 16.7°F-8.5°C 27% Calm Calm -- 28.79 in974.9 mb 0.00 in0.0 mm 0.00 in/hr0.0 mm/hr 0.00 in0.0 mm
12:06 PM 49.3°F9.6°C 16.7°F-8.5°C 27% Calm Calm -- 28.79 in974.9 mb 0.00 in0.0 mm 0.00 in/hr0.0 mm/hr 0.00 in0.0 mm
12:07 PM 49.5°F9.7°C 16.9°F-8.4°C 27% Calm Calm -- 28.79 in974.9 mb 0.00 in0.0 mm 0.00 in/hr0.0 mm/hr 0.00 in0.0 mm
12:08 PM 49.5°F9.7°C 16.9°F-8.4°C 27% Calm Calm -- 28.79 in974.9 mb 0.00 in0.0 mm 0.00 in/hr0.0 mm/hr 0.00 in0.0 mm
12:09 PM 49.6°F9.8°C 17.0°F-8.3°C 27% Calm Calm -- 28.79 in974.9 mb 0.00 in0.0 mm 0.00 in/hr0.0 mm/hr 0.00 in0.0 mm
12:11 PM 49.8°F9.9°C 17.2°F-8.2°C 27% Calm Calm -- 28.79 in974.9 mb 0.00 in0.0 mm 0.00 in/hr0.0 mm/hr 0.00 in0.0 mm
12:12 PM 50.0°F10.0°C 16.5°F-8.6°C 26% Calm Calm -- 28.79 in974.9 mb 0.00 in0.0 mm 0.00 in/hr0.0 mm/hr 0.00 in0.0 mm
12:13 PM 50.2°F10.1°C 16.6°F-8.6°C 26% Calm Calm -- 28.79 in974.9 mb 0.00 in0.0 mm 0.00 in/hr0.0 mm/hr 0.00 in0.0 mm
12:15 PM 50.2°F10.1°C 16.6°F-8.6°C 26% Calm Calm -- 28.79 in974.9 mb 0.00 in0.0 mm 0.00 in/hr0.0 mm/hr 0.00 in0.0 mm
12:16 PM 50.2°F10.1°C 16.6°F-8.6°C 26% Calm Calm -- 28.79 in974.9 mb 0.00 in0.0 mm 0.00 in/hr0.0 mm/hr 0.00 in0.0 mm
12:18 PM 50.4°F10.2°C 16.8°F-8.4°C 26% Calm Calm -- 28.79 in974.9 mb 0.00 in0.0 mm 0.00 in/hr0.0 mm/hr 0.00 in0.0 mm
12:19 PM 50.5°F10.3°C 17.0°F-8.3°C 26% Calm Calm -- 28.79 in974.9 mb 0.00 in0.0 mm 0.00 in/hr0.0 mm/hr 0.00 in0.0 mm
12:20 PM 50.5°F10.3°C 17.0°F-8.3°C 26% Calm Calm 2.2 mph3.5 kmh 28.79 in974.9 mb 0.00 in0.0 mm 0.00 in/hr0.0 mm/hr 0.00 in0.0 mm
12:22 PM 50.7°F10.4°C 17.1°F-8.3°C 26% Calm Calm -- 28.79 in974.9 mb 0.00 in0.0 mm 0.00 in/hr0.0 mm/hr 0.00 in0.0 mm
12:23 PM 50.9°F10.5°C 17.3°F-8.2°C 26% Calm Calm -- 28.79 in974.9 mb 0.00 in0.0 mm 0.00 in/hr0.0 mm/hr 0.00 in0.0 mm
12:25 PM 50.9°F10.5°C 17.3°F-8.2°C 26% Calm Calm -- 28.79 in974.9 mb 0.00 in0.0 mm 0.00 in/hr0.0 mm/hr 0.00 in0.0 mm
12:26 PM 51.1°F10.6°C 17.4°F-8.1°C 26% Calm Calm -- 28.79 in974.9 mb 0.00 in0.0 mm 0.00 in/hr0.0 mm/hr 0.00 in0.0 mm
12:27 PM 51.1°F10.6°C 17.4°F-8.1°C 26% Calm Calm -- 28.79 in974.9 mb 0.00 in0.0 mm 0.00 in/hr0.0 mm/hr 0.00 in0.0 mm
12:29 PM 51.3°F10.7°C 17.6°F-8.0°C 26% Calm Calm -- 28.79 in974.9 mb 0.00 in0.0 mm 0.00 in/hr0.0 mm/hr 0.00 in0.0 mm
12:30 PM 51.3°F10.7°C 17.6°F-8.0°C 26% Calm Calm -- 28.79 in974.9 mb 0.00 in0.0 mm 0.00 in/hr0.0 mm/hr 0.00 in0.0 mm
12:32 PM 51.6°F10.9°C 17.9°F-7.8°C 26% Calm Calm -- 28.79 in974.9 mb 0.00 in0.0 mm 0.00 in/hr0.0 mm/hr 0.00 in0.0 mm
12:33 PM 51.6°F10.9°C 17.9°F-7.8°C 26% Calm Calm -- 28.79 in974.9 mb 0.00 in0.0 mm 0.00 in/hr0.0 mm/hr 0.00 in0.0 mm
12:34 PM 51.8°F11.0°C 18.0°F-7.8°C 26% Calm Calm -- 28.79 in974.9 mb 0.00 in0.0 mm 0.00 in/hr0.0 mm/hr 0.00 in0.0 mm
12:35 PM 52.2°F11.2°C 18.3°F-7.6°C 26% Calm Calm -- 28.79 in974.9 mb 0.00 in0.0 mm 0.00 in/hr0.0 mm/hr 0.00 in0.0 mm
12:37 PM 52.3°F11.3°C 18.5°F-7.5°C 26% Calm Calm -- 28.79 in974.9 mb 0.00 in0.0 mm 0.00 in/hr0.0 mm/hr 0.00 in0.0 mm
12:39 PM 52.5°F11.4°C 18.6°F-7.4°C 26% Calm Calm -- 28.79 in974.9 mb 0.00 in0.0 mm 0.00 in/hr0.0 mm/hr 0.00 in0.0 mm
12:40 PM 52.7°F11.5°C 18.8°F-7.3°C 26% Calm Calm -- 28.79 in974.9 mb 0.00 in0.0 mm 0.00 in/hr0.0 mm/hr 0.00 in0.0 mm
12:41 PM 52.7°F11.5°C 18.8°F-7.3°C 26% Calm Calm -- 28.79 in974.9 mb 0.00 in0.0 mm 0.00 in/hr0.0 mm/hr 0.00 in0.0 mm
12:42 PM 52.7°F11.5°C 18.8°F-7.3°C 26% Calm Calm 2.7 mph4.3 kmh 28.79 in974.9 mb 0.00 in0.0 mm 0.00 in/hr0.0 mm/hr 0.00 in0.0 mm
12:44 PM 52.7°F11.5°C 16.0°F-8.9°C 23% Calm Calm -- 28.79 in974.9 mb 0.00 in0.0 mm 0.00 in/hr0.0 mm/hr 0.00 in0.0 mm
12:45 PM 52.7°F11.5°C 16.0°F-8.9°C 23% Calm Calm -- 28.79 in974.9 mb 0.00 in0.0 mm 0.00 in/hr0.0 mm/hr 0.00 in0.0 mm
12:46 PM 52.7°F11.5°C 18.8°F-7.3°C 26% Calm Calm -- 28.79 in974.9 mb 0.00 in0.0 mm 0.00 in/hr0.0 mm/hr 0.00 in0.0 mm
12:48 PM 52.9°F11.6°C 16.1°F-8.8°C 23% Calm Calm -- 28.76 in973.9 mb 0.00 in0.0 mm 0.00 in/hr0.0 mm/hr 0.00 in0.0 mm
12:49 PM 52.9°F11.6°C 16.1°F-8.8°C 23% Calm Calm -- 28.76 in973.9 mb 0.00 in0.0 mm 0.00 in/hr0.0 mm/hr 0.00 in0.0 mm
12:51 PM 52.9°F11.6°C 16.1°F-8.8°C 23% Calm Calm -- 28.76 in973.9 mb 0.00 in0.0 mm 0.00 in/hr0.0 mm/hr 0.00 in0.0 mm
12:52 PM 52.9°F11.6°C 16.1°F-8.8°C 23% Calm Calm -- 28.76 in973.9 mb 0.00 in0.0 mm 0.00 in/hr0.0 mm/hr 0.00 in0.0 mm
12:53 PM 52.9°F11.6°C 16.1°F-8.8°C 23% Calm Calm -- 28.76 in973.9 mb 0.00 in0.0 mm 0.00 in/hr0.0 mm/hr 0.00 in0.0 mm
12:55 PM 52.9°F11.6°C 16.1°F-8.8°C 23% Calm Calm -- 28.76 in973.9 mb 0.00 in0.0 mm 0.00 in/hr0.0 mm/hr 0.00 in0.0 mm
12:56 PM 52.9°F11.6°C 16.1°F-8.8°C 23% Calm Calm -- 28.76 in973.9 mb 0.00 in0.0 mm 0.00 in/hr0.0 mm/hr 0.00 in0.0 mm
12:57 PM 53.1°F11.7°C 16.3°F-8.7°C 23% Calm Calm -- 28.76 in973.9 mb 0.00 in0.0 mm 0.00 in/hr0.0 mm/hr 0.00 in0.0 mm
12:59 PM 53.2°F11.8°C 16.4°F-8.7°C 23% Calm Calm -- 28.76 in973.9 mb 0.00 in0.0 mm 0.00 in/hr0.0 mm/hr 0.00 in0.0 mm
01:00 PM 53.2°F11.8°C 16.4°F-8.7°C 23% Calm Calm -- 28.76 in973.9 mb 0.00 in0.0 mm 0.00 in/hr0.0 mm/hr 0.00 in0.0 mm
01:02 PM 53.4°F11.9°C 16.6°F-8.6°C 23% 2.2 mph NE3.5 kmh NE 2.2 mph3.5 kmh 28.76 in973.9 mb 0.00 in0.0 mm 0.00 in/hr0.0 mm/hr 0.00 in0.0 mm
01:03 PM 53.6°F12.0°C 16.7°F-8.5°C 23% Calm Calm 2.2 mph3.5 kmh 28.76 in973.9 mb 0.00 in0.0 mm 0.00 in/hr0.0 mm/hr 0.00 in0.0 mm
01:04 PM 53.8°F12.1°C 16.9°F-8.4°C 23% Calm Calm -- 28.76 in973.9 mb 0.00 in0.0 mm 0.00 in/hr0.0 mm/hr 0.00 in0.0 mm
01:06 PM 54.0°F12.2°C 17.0°F-8.3°C 23% Calm Calm -- 28.76 in973.9 mb 0.00 in0.0 mm 0.00 in/hr0.0 mm/hr 0.00 in0.0 mm
01:07 PM 54.0°F12.2°C 17.0°F-8.3°C 23% Calm Calm -- 28.76 in973.9 mb 0.00 in0.0 mm 0.00 in/hr0.0 mm/hr 0.00 in0.0 mm
01:08 PM 54.1°F12.3°C 17.2°F-8.2°C 23% Calm Calm -- 28.76 in973.9 mb 0.00 in0.0 mm 0.00 in/hr0.0 mm/hr 0.00 in0.0 mm
01:10 PM 54.1°F12.3°C 17.2°F-8.2°C 23% Calm Calm -- 28.76 in973.9 mb 0.00 in0.0 mm 0.00 in/hr0.0 mm/hr 0.00 in0.0 mm
01:11 PM 54.1°F12.3°C 17.2°F-8.2°C 23% Calm Calm -- 28.76 in973.9 mb 0.00 in0.0 mm 0.00 in/hr0.0 mm/hr 0.00 in0.0 mm
01:12 PM 54.0°F12.2°C 17.0°F-8.3°C 23% Calm Calm -- 28.76 in973.9 mb 0.00 in0.0 mm 0.00 in/hr0.0 mm/hr 0.00 in0.0 mm
01:13 PM 54.0°F12.2°C 17.0°F-8.3°C 23% Calm Calm -- 28.76 in973.9 mb 0.00 in0.0 mm 0.00 in/hr0.0 mm/hr 0.00 in0.0 mm
01:14 PM 54.1°F12.3°C 17.2°F-8.2°C 23% Calm Calm -- 28.76 in973.9 mb 0.00 in0.0 mm 0.00 in/hr0.0 mm/hr 0.00 in0.0 mm
01:15 PM 54.1°F12.3°C 17.2°F-8.2°C 23% Calm Calm -- 28.76 in973.9 mb 0.00 in0.0 mm 0.00 in/hr0.0 mm/hr 0.00 in0.0 mm
01:17 PM 54.3°F12.4°C 17.3°F-8.2°C 23% Calm Calm -- 28.76 in973.9 mb 0.00 in0.0 mm 0.00 in/hr0.0 mm/hr 0.00 in0.0 mm
01:18 PM 54.3°F12.4°C 17.3°F-8.2°C 23% Calm Calm -- 28.76 in973.9 mb 0.00 in0.0 mm 0.00 in/hr0.0 mm/hr 0.00 in0.0 mm
01:19 PM 54.5°F12.5°C 17.5°F-8.1°C 23% Calm Calm -- 28.76 in973.9 mb 0.00 in0.0 mm 0.00 in/hr0.0 mm/hr 0.00 in0.0 mm
01:20 PM 54.5°F12.5°C 17.5°F-8.1°C 23% Calm Calm -- 28.76 in973.9 mb 0.00 in0.0 mm 0.00 in/hr0.0 mm/hr 0.00 in0.0 mm
01:21 PM 54.5°F12.5°C 17.5°F-8.1°C 23% Calm Calm -- 28.76 in973.9 mb 0.00 in0.0 mm 0.00 in/hr0.0 mm/hr 0.00 in0.0 mm
01:22 PM 54.3°F12.4°C 17.3°F-8.2°C 23% Calm Calm -- 28.76 in973.9 mb 0.00 in0.0 mm 0.00 in/hr0.0 mm/hr 0.00 in0.0 mm
01:23 PM 54.3°F12.4°C 17.3°F-8.2°C 23% Calm Calm -- 28.76 in973.9 mb 0.00 in0.0 mm 0.00 in/hr0.0 mm/hr 0.00 in0.0 mm
01:25 PM 54.3°F12.4°C 17.3°F-8.2°C 23% Calm Calm -- 28.76 in973.9 mb 0.00 in0.0 mm 0.00 in/hr0.0 mm/hr 0.00 in0.0 mm
01:26 PM 54.3°F12.4°C 17.3°F-8.2°C 23% Calm Calm -- 28.76 in973.9 mb 0.00 in0.0 mm 0.00 in/hr0.0 mm/hr 0.00 in0.0 mm
01:27 PM 54.3°F12.4°C 17.3°F-8.2°C 23% Calm Calm -- 28.76 in973.9 mb 0.00 in0.0 mm 0.00 in/hr0.0 mm/hr 0.00 in0.0 mm
01:28 PM 54.3°F12.4°C 17.3°F-8.2°C 23% Calm Calm -- 28.76 in973.9 mb 0.00 in0.0 mm 0.00 in/hr0.0 mm/hr 0.00 in0.0 mm
01:29 PM 54.3°F12.4°C 17.3°F-8.2°C 23% Calm Calm -- 28.76 in973.9 mb 0.00 in0.0 mm 0.00 in/hr0.0 mm/hr 0.00 in0.0 mm
01:30 PM 54.3°F12.4°C 17.3°F-8.2°C 23% Calm Calm -- 28.76 in973.9 mb 0.00 in0.0 mm 0.00 in/hr0.0 mm/hr 0.00 in0.0 mm
01:31 PM 54.3°F12.4°C 17.3°F-8.2°C 23% Calm Calm -- 28.76 in973.9 mb 0.00 in0.0 mm 0.00 in/hr0.0 mm/hr 0.00 in0.0 mm
01:32 PM 54.5°F12.5°C 17.5°F-8.1°C 23% Calm Calm -- 28.76 in973.9 mb 0.00 in0.0 mm 0.00 in/hr0.0 mm/hr 0.00 in0.0 mm
01:33 PM 54.5°F12.5°C 17.5°F-8.1°C 23% Calm Calm -- 28.73 in972.9 mb 0.00 in0.0 mm 0.00 in/hr0.0 mm/hr 0.00 in0.0 mm
01:34 PM 54.7°F12.6°C 17.6°F-8.0°C 23% Calm Calm -- 28.73 in972.9 mb 0.00 in0.0 mm 0.00 in/hr0.0 mm/hr 0.00 in0.0 mm
01:35 PM 54.7°F12.6°C 17.6°F-8.0°C 23% Calm Calm -- 28.73 in972.9 mb 0.00 in0.0 mm 0.00 in/hr0.0 mm/hr 0.00 in0.0 mm
01:36 PM 54.7°F12.6°C 17.6°F-8.0°C 23% Calm Calm -- 28.73 in972.9 mb 0.00 in0.0 mm 0.00 in/hr0.0 mm/hr 0.00 in0.0 mm
01:37 PM 54.7°F12.6°C 17.6°F-8.0°C 23% Calm Calm -- 28.73 in972.9 mb 0.00 in0.0 mm 0.00 in/hr0.0 mm/hr 0.00 in0.0 mm
01:38 PM 54.9°F12.7°C 17.8°F-7.9°C 23% Calm Calm -- 28.73 in972.9 mb 0.00 in0.0 mm 0.00 in/hr0.0 mm/hr 0.00 in0.0 mm
01:39 PM 54.9°F12.7°C 17.8°F-7.9°C 23% Calm Calm -- 28.73 in972.9 mb 0.00 in0.0 mm 0.00 in/hr0.0 mm/hr 0.00 in0.0 mm
01:40 PM 54.9°F12.7°C 17.8°F-7.9°C 23% Calm Calm -- 28.73 in972.9 mb 0.00 in0.0 mm 0.00 in/hr0.0 mm/hr 0.00 in0.0 mm
01:41 PM 54.9°F12.7°C 17.8°F-7.9°C 23% Calm Calm -- 28.73 in972.9 mb 0.00 in0.0 mm 0.00 in/hr0.0 mm/hr 0.00 in0.0 mm
01:42 PM 55.0°F12.8°C 17.9°F-7.8°C 23% Calm Calm -- 28.73 in972.9 mb 0.00 in0.0 mm 0.00 in/hr0.0 mm/hr 0.00 in0.0 mm
01:43 PM 55.0°F12.8°C 17.9°F-7.8°C 23% Calm Calm -- 28.73 in972.9 mb 0.00 in0.0 mm 0.00 in/hr0.0 mm/hr 0.00 in0.0 mm
01:44 PM 55.2°F12.9°C 18.1°F-7.7°C 23% Calm Calm -- 28.73 in972.9 mb 0.00 in0.0 mm 0.00 in/hr0.0 mm/hr 0.00 in0.0 mm
01:45 PM 55.2°F12.9°C 18.1°F-7.7°C 23% Calm Calm -- 28.73 in972.9 mb 0.00 in0.0 mm 0.00 in/hr0.0 mm/hr 0.00 in0.0 mm
01:46 PM 55.2°F12.9°C 18.1°F-7.7°C 23% Calm Calm -- 28.73 in972.9 mb 0.00 in0.0 mm 0.00 in/hr0.0 mm/hr 0.00 in0.0 mm
01:48 PM 55.2°F12.9°C 18.1°F-7.7°C 23% Calm Calm -- 28.73 in972.9 mb 0.00 in0.0 mm 0.00 in/hr0.0 mm/hr 0.00 in0.0 mm
01:49 PM 55.4°F13.0°C 17.2°F-8.2°C 22% Calm Calm -- 28.73 in972.9 mb 0.00 in0.0 mm 0.00 in/hr0.0 mm/hr 0.00 in0.0 mm
01:50 PM 55.4°F13.0°C 17.2°F-8.2°C 22% Calm Calm 5.4 mph8.7 kmh 28.73 in972.9 mb 0.00 in0.0 mm 0.00 in/hr0.0 mm/hr 0.00 in0.0 mm
01:51 PM 55.6°F13.1°C 17.4°F-8.1°C 22% Calm Calm 2.2 mph3.5 kmh 28.73 in972.9 mb 0.00 in0.0 mm 0.00 in/hr0.0 mm/hr 0.00 in0.0 mm
01:52 PM 55.6°F13.1°C 17.4°F-8.1°C 22% Calm Calm -- 28.73 in972.9 mb 0.00 in0.0 mm 0.00 in/hr0.0 mm/hr 0.00 in0.0 mm
01:54 PM 55.8°F13.2°C 17.5°F-8.1°C 22% Calm Calm -- 28.73 in972.9 mb 0.00 in0.0 mm 0.00 in/hr0.0 mm/hr 0.00 in0.0 mm
01:55 PM 55.8°F13.2°C 17.5°F-8.1°C 22% Calm Calm -- 28.73 in972.9 mb 0.00 in0.0 mm 0.00 in/hr0.0 mm/hr 0.00 in0.0 mm
01:57 PM 55.8°F13.2°C 17.5°F-8.1°C 22% Calm Calm -- 28.73 in972.9 mb 0.00 in0.0 mm 0.00 in/hr0.0 mm/hr 0.00 in0.0 mm
01:58 PM 55.8°F13.2°C 17.5°F-8.1°C 22% Calm Calm 2.2 mph3.5 kmh 28.73 in972.9 mb 0.00 in0.0 mm 0.00 in/hr0.0 mm/hr 0.00 in0.0 mm
01:59 PM 55.8°F13.2°C 15.3°F-9.3°C 20% Calm Calm -- 28.73 in972.9 mb 0.00 in0.0 mm 0.00 in/hr0.0 mm/hr 0.00 in0.0 mm
02:01 PM 55.9°F13.3°C 17.7°F-7.9°C 22% Calm Calm -- 28.73 in972.9 mb 0.00 in0.0 mm 0.00 in/hr0.0 mm/hr 0.00 in0.0 mm
02:02 PM 55.9°F13.3°C 17.7°F-7.9°C 22% Calm Calm -- 28.73 in972.9 mb 0.00 in0.0 mm 0.00 in/hr0.0 mm/hr 0.00 in0.0 mm
02:03 PM 56.1°F13.4°C 17.8°F-7.9°C 22% 4.5 mph E7.2 kmh E 4.5 mph7.2 kmh 28.73 in972.9 mb 0.00 in0.0 mm 0.00 in/hr0.0 mm/hr 0.00 in0.0 mm
02:04 PM 56.1°F13.4°C 15.6°F-9.1°C 20% 5.4 mph E8.7 kmh E 5.4 mph8.7 kmh 28.73 in972.9 mb 0.00 in0.0 mm 0.00 in/hr0.0 mm/hr 0.00 in0.0 mm
02:06 PM 56.3°F13.5°C 15.8°F-9.0°C 20% Calm Calm -- 28.73 in972.9 mb 0.00 in0.0 mm 0.00 in/hr0.0 mm/hr 0.00 in0.0 mm
02:08 PM 56.1°F13.4°C 15.6°F-9.1°C 20% Calm Calm -- 28.73 in972.9 mb 0.00 in0.0 mm 0.00 in/hr0.0 mm/hr 0.00 in0.0 mm
02:09 PM 56.1°F13.4°C 15.6°F-9.1°C 20% Calm Calm -- 28.73 in972.9 mb 0.00 in0.0 mm 0.00 in/hr0.0 mm/hr 0.00 in0.0 mm
02:10 PM 56.1°F13.4°C 15.6°F-9.1°C 20% Calm Calm -- 28.73 in972.9 mb 0.00 in0.0 mm 0.00 in/hr0.0 mm/hr 0.00 in0.0 mm
02:11 PM 56.1°F13.4°C 15.6°F-9.1°C 20% Calm Calm -- 28.73 in972.9 mb 0.00 in0.0 mm 0.00 in/hr0.0 mm/hr 0.00 in0.0 mm
02:12 PM 56.1°F13.4°C 15.6°F-9.1°C 20% Calm Calm -- 28.73 in972.9 mb 0.00 in0.0 mm 0.00 in/hr0.0 mm/hr 0.00 in0.0 mm
02:14 PM 56.3°F13.5°C 15.8°F-9.0°C 20% Calm Calm -- 28.73 in972.9 mb 0.00 in0.0 mm 0.00 in/hr0.0 mm/hr 0.00 in0.0 mm
02:15 PM 56.3°F13.5°C 15.8°F-9.0°C 20% Calm Calm -- 28.73 in972.9 mb 0.00 in0.0 mm 0.00 in/hr0.0 mm/hr 0.00 in0.0 mm
02:17 PM 56.3°F13.5°C 15.8°F-9.0°C 20% Calm Calm -- 28.73 in972.9 mb 0.00 in0.0 mm 0.00 in/hr0.0 mm/hr 0.00 in0.0 mm
02:18 PM 56.3°F13.5°C 15.8°F-9.0°C 20% Calm Calm -- 28.73 in972.9 mb 0.00 in0.0 mm 0.00 in/hr0.0 mm/hr 0.00 in0.0 mm
02:19 PM 56.3°F13.5°C 15.8°F-9.0°C 20% Calm Calm -- 28.73 in972.9 mb 0.00 in0.0 mm 0.00 in/hr0.0 mm/hr 0.00 in0.0 mm
02:21 PM 56.3°F13.5°C 15.8°F-9.0°C 20% Calm Calm -- 28.73 in972.9 mb 0.00 in0.0 mm 0.00 in/hr0.0 mm/hr 0.00 in0.0 mm
02:22 PM 56.5°F13.6°C 15.9°F-8.9°C 20% Calm Calm -- 28.73 in972.9 mb 0.00 in0.0 mm 0.00 in/hr0.0 mm/hr 0.00 in0.0 mm
02:23 PM 56.5°F13.6°C 15.9°F-8.9°C 20% Calm Calm -- 28.73 in972.9 mb 0.00 in0.0 mm 0.00 in/hr0.0 mm/hr 0.00 in0.0 mm
02:25 PM 56.7°F13.7°C 16.1°F-8.8°C 20% Calm Calm -- 28.73 in972.9 mb 0.00 in0.0 mm 0.00 in/hr0.0 mm/hr 0.00 in0.0 mm
02:27 PM 56.7°F13.7°C 16.1°F-8.8°C 20% Calm Calm -- 28.73 in972.9 mb 0.00 in0.0 mm 0.00 in/hr0.0 mm/hr 0.00 in0.0 mm
02:28 PM 56.7°F13.7°C 16.1°F-8.8°C 20% Calm Calm -- 28.73 in972.9 mb 0.00 in0.0 mm 0.00 in/hr0.0 mm/hr 0.00 in0.0 mm
02:29 PM 56.5°F13.6°C 15.9°F-8.9°C 20% Calm Calm -- 28.73 in972.9 mb 0.00 in0.0 mm 0.00 in/hr0.0 mm/hr 0.00 in0.0 mm
02:30 PM 56.5°F13.6°C 15.9°F-8.9°C 20% Calm Calm 2.2 mph3.5 kmh 28.73 in972.9 mb 0.00 in0.0 mm 0.00 in/hr0.0 mm/hr 0.00 in0.0 mm
02:32 PM 56.5°F13.6°C 15.9°F-8.9°C 20% Calm Calm -- 28.73 in972.9 mb 0.00 in0.0 mm 0.00 in/hr0.0 mm/hr 0.00 in0.0 mm
02:34 PM 56.7°F13.7°C 16.1°F-8.8°C 20% Calm Calm -- 28.73 in972.9 mb 0.00 in0.0 mm 0.00 in/hr0.0 mm/hr 0.00 in0.0 mm
02:35 PM 56.7°F13.7°C 16.1°F-8.8°C 20% Calm Calm -- 28.73 in972.9 mb 0.00 in0.0 mm 0.00 in/hr0.0 mm/hr 0.00 in0.0 mm
02:36 PM 56.7°F13.7°C 16.1°F-8.8°C 20% Calm Calm -- 28.73 in972.9 mb 0.00 in0.0 mm 0.00 in/hr0.0 mm/hr 0.00 in0.0 mm
02:37 PM 56.7°F13.7°C 16.1°F-8.8°C 20% Calm Calm -- 28.73 in972.9 mb 0.00 in0.0 mm 0.00 in/hr0.0 mm/hr 0.00 in0.0 mm
02:38 PM 56.7°F13.7°C 16.1°F-8.8°C 20% Calm Calm -- 28.73 in972.9 mb 0.00 in0.0 mm 0.00 in/hr0.0 mm/hr 0.00 in0.0 mm
02:40 PM 56.7°F13.7°C 16.1°F-8.8°C 20% Calm Calm -- 28.73 in972.9 mb 0.00 in0.0 mm 0.00 in/hr0.0 mm/hr 0.00 in0.0 mm
02:41 PM 56.7°F13.7°C 16.1°F-8.8°C 20% Calm Calm -- 28.73 in972.9 mb 0.00 in0.0 mm 0.00 in/hr0.0 mm/hr 0.00 in0.0 mm
02:43 PM 56.7°F13.7°C 16.1°F-8.8°C 20% Calm Calm -- 28.73 in972.9 mb 0.00 in0.0 mm 0.00 in/hr0.0 mm/hr 0.00 in0.0 mm
02:44 PM 56.8°F13.8°C 16.2°F-8.8°C 20% Calm Calm -- 28.73 in972.9 mb 0.00 in0.0 mm 0.00 in/hr0.0 mm/hr 0.00 in0.0 mm
02:45 PM 56.8°F13.8°C 16.2°F-8.8°C 20% Calm Calm -- 28.73 in972.9 mb 0.00 in0.0 mm 0.00 in/hr0.0 mm/hr 0.00 in0.0 mm
02:47 PM 56.8°F13.8°C 16.2°F-8.8°C 20% Calm Calm -- 28.73 in972.9 mb 0.00 in0.0 mm 0.00 in/hr0.0 mm/hr 0.00 in0.0 mm
02:48 PM 56.8°F13.8°C 16.2°F-8.8°C 20% Calm Calm -- 28.70 in971.9 mb 0.00 in0.0 mm 0.00 in/hr0.0 mm/hr 0.00 in0.0 mm
02:50 PM 57.0°F13.9°C 16.4°F-8.7°C 20% Calm Calm -- 28.70 in971.9 mb 0.00 in0.0 mm 0.00 in/hr0.0 mm/hr 0.00 in0.0 mm
02:51 PM 57.0°F13.9°C 16.4°F-8.7°C 20% Calm Calm -- 28.70 in971.9 mb 0.00 in0.0 mm 0.00 in/hr0.0 mm/hr 0.00 in0.0 mm
02:52 PM 57.0°F13.9°C 16.4°F-8.7°C 20% Calm Calm -- 28.70 in971.9 mb 0.00 in0.0 mm 0.00 in/hr0.0 mm/hr 0.00 in0.0 mm
02:54 PM 57.0°F13.9°C 16.4°F-8.7°C 20% Calm Calm -- 28.70 in971.9 mb 0.00 in0.0 mm 0.00 in/hr0.0 mm/hr 0.00 in0.0 mm
02:55 PM 57.0°F13.9°C 16.4°F-8.7°C 20% Calm Calm -- 28.70 in971.9 mb 0.00 in0.0 mm 0.00 in/hr0.0 mm/hr 0.00 in0.0 mm
02:56 PM 57.2°F14.0°C 15.3°F-9.3°C 19% Calm Calm -- 28.70 in971.9 mb 0.00 in0.0 mm 0.00 in/hr0.0 mm/hr 0.00 in0.0 mm
02:57 PM 57.2°F14.0°C 15.3°F-9.3°C 19% Calm Calm -- 28.70 in971.9 mb 0.00 in0.0 mm 0.00 in/hr0.0 mm/hr 0.00 in0.0 mm
02:58 PM 57.4°F14.1°C 15.5°F-9.2°C 19% Calm Calm -- 28.70 in971.9 mb 0.00 in0.0 mm 0.00 in/hr0.0 mm/hr 0.00 in0.0 mm
02:59 PM 57.6°F14.2°C 15.6°F-9.1°C 19% Calm Calm -- 28.70 in971.9 mb 0.00 in0.0 mm 0.00 in/hr0.0 mm/hr 0.00 in0.0 mm
03:01 PM 57.6°F14.2°C 15.6°F-9.1°C 19% Calm Calm -- 28.70 in971.9 mb 0.00 in0.0 mm 0.00 in/hr0.0 mm/hr 0.00 in0.0 mm
03:02 PM 57.6°F14.2°C 15.6°F-9.1°C 19% Calm Calm -- 28.70 in971.9 mb 0.00 in0.0 mm 0.00 in/hr0.0 mm/hr 0.00 in0.0 mm
03:03 PM 57.6°F14.2°C 15.6°F-9.1°C 19% Calm Calm -- 28.70 in971.9 mb 0.00 in0.0 mm 0.00 in/hr0.0 mm/hr 0.00 in0.0 mm
03:04 PM 57.6°F14.2°C 15.6°F-9.1°C 19% Calm Calm 2.2 mph3.5 kmh 28.70 in971.9 mb 0.00 in0.0 mm 0.00 in/hr0.0 mm/hr 0.00 in0.0 mm
03:06 PM 57.6°F14.2°C 15.6°F-9.1°C 19% Calm Calm -- 28.70 in971.9 mb 0.00 in0.0 mm 0.00 in/hr0.0 mm/hr 0.00 in0.0 mm
03:07 PM 57.6°F14.2°C 15.6°F-9.1°C 19% Calm Calm -- 28.70 in971.9 mb 0.00 in0.0 mm 0.00 in/hr0.0 mm/hr 0.00 in0.0 mm
03:09 PM 57.4°F14.1°C 15.5°F-9.2°C 19% Calm Calm -- 28.70 in971.9 mb 0.00 in0.0 mm 0.00 in/hr0.0 mm/hr 0.00 in0.0 mm
03:10 PM 57.4°F14.1°C 15.5°F-9.2°C 19% Calm Calm -- 28.70 in971.9 mb 0.00 in0.0 mm 0.00 in/hr0.0 mm/hr 0.00 in0.0 mm
03:11 PM 57.6°F14.2°C 15.6°F-9.1°C 19% Calm Calm -- 28.70 in971.9 mb 0.00 in0.0 mm 0.00 in/hr0.0 mm/hr 0.00 in0.0 mm
03:13 PM 57.6°F14.2°C 15.6°F-9.1°C 19% Calm Calm -- 28.70 in971.9 mb 0.00 in0.0 mm 0.00 in/hr0.0 mm/hr 0.00 in0.0 mm
03:14 PM 57.6°F14.2°C 15.6°F-9.1°C 19% Calm Calm -- 28.70 in971.9 mb 0.00 in0.0 mm 0.00 in/hr0.0 mm/hr 0.00 in0.0 mm
03:16 PM 57.6°F14.2°C 15.6°F-9.1°C 19% Calm Calm -- 28.70 in971.9 mb 0.00 in0.0 mm 0.00 in/hr0.0 mm/hr 0.00 in0.0 mm
03:17 PM 57.6°F14.2°C 15.6°F-9.1°C 19% Calm Calm -- 28.70 in971.9 mb 0.00 in0.0 mm 0.00 in/hr0.0 mm/hr 0.00 in0.0 mm
03:18 PM 57.6°F14.2°C 15.6°F-9.1°C 19% Calm Calm -- 28.70 in971.9 mb 0.00 in0.0 mm 0.00 in/hr0.0 mm/hr 0.00 in0.0 mm
03:19 PM 57.7°F14.3°C 15.8°F-9.0°C 19% Calm Calm -- 28.70 in971.9 mb 0.00 in0.0 mm 0.00 in/hr0.0 mm/hr 0.00 in0.0 mm
03:20 PM 57.7°F14.3°C 15.8°F-9.0°C 19% 2.2 mph NE3.5 kmh NE 2.2 mph3.5 kmh 28.70 in971.9 mb 0.00 in0.0 mm 0.00 in/hr0.0 mm/hr 0.00 in0.0 mm
03:21 PM 57.7°F14.3°C 15.8°F-9.0°C 19% Calm Calm 2.2 mph3.5 kmh 28.70 in971.9 mb 0.00 in0.0 mm 0.00 in/hr0.0 mm/hr 0.00 in0.0 mm
03:22 PM 57.7°F14.3°C 15.8°F-9.0°C 19% Calm Calm -- 28.70 in971.9 mb 0.00 in0.0 mm 0.00 in/hr0.0 mm/hr 0.00 in0.0 mm
03:24 PM 57.7°F14.3°C 15.8°F-9.0°C 19% Calm Calm -- 28.70 in971.9 mb 0.00 in0.0 mm 0.00 in/hr0.0 mm/hr 0.00 in0.0 mm
03:25 PM 57.7°F14.3°C 15.8°F-9.0°C 19% Calm Calm -- 28.70 in971.9 mb 0.00 in0.0 mm 0.00 in/hr0.0 mm/hr 0.00 in0.0 mm
03:27 PM 57.7°F14.3°C 15.8°F-9.0°C 19% Calm Calm -- 28.70 in971.9 mb 0.00 in0.0 mm 0.00 in/hr0.0 mm/hr 0.00 in0.0 mm
03:28 PM 57.7°F14.3°C 15.8°F-9.0°C 19% Calm Calm -- 28.70 in971.9 mb 0.00 in0.0 mm 0.00 in/hr0.0 mm/hr 0.00 in0.0 mm
03:29 PM 57.7°F14.3°C 15.8°F-9.0°C 19% Calm Calm -- 28.70 in971.9 mb 0.00 in0.0 mm 0.00 in/hr0.0 mm/hr 0.00 in0.0 mm
03:30 PM 57.7°F14.3°C 15.8°F-9.0°C 19% Calm Calm -- 28.70 in971.9 mb 0.00 in0.0 mm 0.00 in/hr0.0 mm/hr 0.00 in0.0 mm
03:31 PM 57.7°F14.3°C 15.8°F-9.0°C 19% Calm Calm -- 28.70 in971.9 mb 0.00 in0.0 mm 0.00 in/hr0.0 mm/hr 0.00 in0.0 mm
03:32 PM 57.6°F14.2°C 15.6°F-9.1°C 19% Calm Calm -- 28.70 in971.9 mb 0.00 in0.0 mm 0.00 in/hr0.0 mm/hr 0.00 in0.0 mm
03:34 PM 57.6°F14.2°C 15.6°F-9.1°C 19% Calm Calm -- 28.70 in971.9 mb 0.00 in0.0 mm 0.00 in/hr0.0 mm/hr 0.00 in0.0 mm
03:35 PM 57.6°F14.2°C 15.6°F-9.1°C 19% Calm Calm -- 28.70 in971.9 mb 0.00 in0.0 mm 0.00 in/hr0.0 mm/hr 0.00 in0.0 mm
03:36 PM 57.7°F14.3°C 15.8°F-9.0°C 19% Calm Calm -- 28.70 in971.9 mb 0.00 in0.0 mm 0.00 in/hr0.0 mm/hr 0.00 in0.0 mm
03:37 PM 57.7°F14.3°C 15.8°F-9.0°C 19% Calm Calm -- 28.70 in971.9 mb 0.00 in0.0 mm 0.00 in/hr0.0 mm/hr 0.00 in0.0 mm
03:39 PM 57.9°F14.4°C 15.9°F-8.9°C 19% Calm Calm -- 28.70 in971.9 mb 0.00 in0.0 mm 0.00 in/hr0.0 mm/hr 0.00 in0.0 mm
03:40 PM 57.9°F14.4°C 15.9°F-8.9°C 19% Calm Calm -- 28.70 in971.9 mb 0.00 in0.0 mm 0.00 in/hr0.0 mm/hr 0.00 in0.0 mm
03:41 PM 58.1°F14.5°C 16.1°F-8.8°C 19% Calm Calm -- 28.70 in971.9 mb 0.00 in0.0 mm 0.00 in/hr0.0 mm/hr 0.00 in0.0 mm
03:43 PM 58.1°F14.5°C 16.1°F-8.8°C 19% Calm Calm -- 28.70 in971.9 mb 0.00 in0.0 mm 0.00 in/hr0.0 mm/hr 0.00 in0.0 mm
03:45 PM 58.1°F14.5°C 16.1°F-8.8°C 19% Calm Calm -- 28.70 in971.9 mb 0.00 in0.0 mm 0.00 in/hr0.0 mm/hr 0.00 in0.0 mm
03:46 PM 58.1°F14.5°C 16.1°F-8.8°C 19% Calm Calm -- 28.70 in971.9 mb 0.00 in0.0 mm 0.00 in/hr0.0 mm/hr 0.00 in0.0 mm
03:47 PM 58.1°F14.5°C 16.1°F-8.8°C 19% Calm Calm -- 28.70 in971.9 mb 0.00 in0.0 mm 0.00 in/hr0.0 mm/hr 0.00 in0.0 mm
03:48 PM 57.9°F14.4°C 15.9°F-8.9°C 19% Calm Calm -- 28.70 in971.9 mb 0.00 in0.0 mm 0.00 in/hr0.0 mm/hr 0.00 in0.0 mm
03:50 PM 57.9°F14.4°C 15.9°F-8.9°C 19% Calm Calm -- 28.70 in971.9 mb 0.00 in0.0 mm 0.00 in/hr0.0 mm/hr 0.00 in0.0 mm
03:51 PM 57.9°F14.4°C 15.9°F-8.9°C 19% Calm Calm -- 28.70 in971.9 mb 0.00 in0.0 mm 0.00 in/hr0.0 mm/hr 0.00 in0.0 mm
03:53 PM 57.9°F14.4°C 15.9°F-8.9°C 19% Calm Calm -- 28.70 in971.9 mb 0.00 in0.0 mm 0.00 in/hr0.0 mm/hr 0.00 in0.0 mm
03:54 PM 57.9°F14.4°C 15.9°F-8.9°C 19% Calm Calm -- 28.70 in971.9 mb 0.00 in0.0 mm 0.00 in/hr0.0 mm/hr 0.00 in0.0 mm
03:55 PM 57.9°F14.4°C 15.9°F-8.9°C 19% Calm Calm -- 28.70 in971.9 mb 0.00 in0.0 mm 0.00 in/hr0.0 mm/hr 0.00 in0.0 mm
03:57 PM 57.7°F14.3°C 15.8°F-9.0°C 19% Calm Calm -- 28.70 in971.9 mb 0.00 in0.0 mm 0.00 in/hr0.0 mm/hr 0.00 in0.0 mm
03:58 PM 57.7°F14.3°C 15.8°F-9.0°C 19% Calm Calm -- 28.70 in971.9 mb 0.00 in0.0 mm 0.00 in/hr0.0 mm/hr 0.00 in0.0 mm
04:00 PM 57.7°F14.3°C 15.8°F-9.0°C 19% Calm Calm -- 28.70 in971.9 mb 0.00 in0.0 mm 0.00 in/hr0.0 mm/hr 0.00 in0.0 mm
04:01 PM 57.7°F14.3°C 15.8°F-9.0°C 19% Calm Calm -- 28.70 in971.9 mb 0.00 in0.0 mm 0.00 in/hr0.0 mm/hr 0.00 in0.0 mm
04:02 PM 57.7°F14.3°C 15.8°F-9.0°C 19% Calm Calm -- 28.67 in970.9 mb 0.00 in0.0 mm 0.00 in/hr0.0 mm/hr 0.00 in0.0 mm
04:03 PM 57.7°F14.3°C 15.8°F-9.0°C 19% Calm Calm -- 28.67 in970.9 mb 0.00 in0.0 mm 0.00 in/hr0.0 mm/hr 0.00 in0.0 mm
04:05 PM 57.7°F14.3°C 15.8°F-9.0°C 19% Calm Calm -- 28.67 in970.9 mb 0.00 in0.0 mm 0.00 in/hr0.0 mm/hr 0.00 in0.0 mm
04:06 PM 57.7°F14.3°C 15.8°F-9.0°C 19% Calm Calm -- 28.67 in970.9 mb 0.00 in0.0 mm 0.00 in/hr0.0 mm/hr 0.00 in0.0 mm
04:07 PM 57.7°F14.3°C 15.8°F-9.0°C 19% Calm Calm -- 28.67 in970.9 mb 0.00 in0.0 mm 0.00 in/hr0.0 mm/hr 0.00 in0.0 mm
04:08 PM 57.7°F14.3°C 15.8°F-9.0°C 19% Calm Calm -- 28.67 in970.9 mb 0.00 in0.0 mm 0.00 in/hr0.0 mm/hr 0.00 in0.0 mm
04:09 PM 57.7°F14.3°C 15.8°F-9.0°C 19% Calm Calm -- 28.67 in970.9 mb 0.00 in0.0 mm 0.00 in/hr0.0 mm/hr 0.00 in0.0 mm
04:11 PM 57.9°F14.4°C 15.9°F-8.9°C 19% Calm Calm -- 28.67 in970.9 mb 0.00 in0.0 mm 0.00 in/hr0.0 mm/hr 0.00 in0.0 mm
04:12 PM 57.9°F14.4°C 15.9°F-8.9°C 19% Calm Calm -- 28.67 in970.9 mb 0.00 in0.0 mm 0.00 in/hr0.0 mm/hr 0.00 in0.0 mm
04:13 PM 57.9°F14.4°C 15.9°F-8.9°C 19% Calm Calm -- 28.67 in970.9 mb 0.00 in0.0 mm 0.00 in/hr0.0 mm/hr 0.00 in0.0 mm
04:14 PM 57.9°F14.4°C 15.9°F-8.9°C 19% Calm Calm -- 28.67 in970.9 mb 0.00 in0.0 mm 0.00 in/hr0.0 mm/hr 0.00 in0.0 mm
04:16 PM 57.9°F14.4°C 15.9°F-8.9°C 19% Calm Calm -- 28.67 in970.9 mb 0.00 in0.0 mm 0.00 in/hr0.0 mm/hr 0.00 in0.0 mm
04:17 PM 57.9°F14.4°C 15.9°F-8.9°C 19% Calm Calm -- 28.67 in970.9 mb 0.00 in0.0 mm 0.00 in/hr0.0 mm/hr 0.00 in0.0 mm
04:19 PM 57.7°F14.3°C 15.8°F-9.0°C 19% Calm Calm -- 28.67 in970.9 mb 0.00 in0.0 mm 0.00 in/hr0.0 mm/hr 0.00 in0.0 mm
04:20 PM 57.7°F14.3°C 15.8°F-9.0°C 19% Calm Calm -- 28.67 in970.9 mb 0.00 in0.0 mm 0.00 in/hr0.0 mm/hr 0.00 in0.0 mm
04:21 PM 57.9°F14.4°C 15.9°F-8.9°C 19% Calm Calm -- 28.67 in970.9 mb 0.00 in0.0 mm 0.00 in/hr0.0 mm/hr 0.00 in0.0 mm
04:23 PM 57.9°F14.4°C 15.9°F-8.9°C 19% Calm Calm -- 28.67 in970.9 mb 0.00 in0.0 mm 0.00 in/hr0.0 mm/hr 0.00 in0.0 mm
04:24 PM 57.9°F14.4°C 15.9°F-8.9°C 19% Calm Calm -- 28.67 in970.9 mb 0.00 in0.0 mm 0.00 in/hr0.0 mm/hr 0.00 in0.0 mm
04:25 PM 57.9°F14.4°C 15.9°F-8.9°C 19% Calm Calm -- 28.67 in970.9 mb 0.00 in0.0 mm 0.00 in/hr0.0 mm/hr 0.00 in0.0 mm
04:27 PM 57.9°F14.4°C 15.9°F-8.9°C 19% Calm Calm -- 28.67 in970.9 mb 0.00 in0.0 mm 0.00 in/hr0.0 mm/hr 0.00 in0.0 mm
04:28 PM 57.9°F14.4°C 15.9°F-8.9°C 19% Calm Calm -- 28.67 in970.9 mb 0.00 in0.0 mm 0.00 in/hr0.0 mm/hr 0.00 in0.0 mm
04:30 PM 57.9°F14.4°C 15.9°F-8.9°C 19% Calm Calm -- 28.67 in970.9 mb 0.00 in0.0 mm 0.00 in/hr0.0 mm/hr 0.00 in0.0 mm
04:31 PM 57.7°F14.3°C 15.8°F-9.0°C 19% Calm Calm -- 28.67 in970.9 mb 0.00 in0.0 mm 0.00 in/hr0.0 mm/hr 0.00 in0.0 mm
04:32 PM 57.6°F14.2°C 15.6°F-9.1°C 19% Calm Calm -- 28.67 in970.9 mb 0.00 in0.0 mm 0.00 in/hr0.0 mm/hr 0.00 in0.0 mm
04:34 PM 57.6°F14.2°C 15.6°F-9.1°C 19% Calm Calm -- 28.67 in970.9 mb 0.00 in0.0 mm 0.00 in/hr0.0 mm/hr 0.00 in0.0 mm
04:35 PM 57.4°F14.1°C 15.5°F-9.2°C 19% Calm Calm -- 28.67 in970.9 mb 0.00 in0.0 mm 0.00 in/hr0.0 mm/hr 0.00 in0.0 mm
04:37 PM 57.4°F14.1°C 15.5°F-9.2°C 19% Calm Calm -- 28.67 in970.9 mb 0.00 in0.0 mm 0.00 in/hr0.0 mm/hr 0.00 in0.0 mm
04:39 PM 57.2°F14.0°C 15.3°F-9.3°C 19% Calm Calm -- 28.67 in970.9 mb 0.00 in0.0 mm 0.00 in/hr0.0 mm/hr 0.00 in0.0 mm
04:41 PM 57.2°F14.0°C 15.3°F-9.3°C 19% Calm Calm -- 28.67 in970.9 mb 0.00 in0.0 mm 0.00 in/hr0.0 mm/hr 0.00 in0.0 mm
04:42 PM 57.2°F14.0°C 15.3°F-9.3°C 19% Calm Calm -- 28.67 in970.9 mb 0.00 in0.0 mm 0.00 in/hr0.0 mm/hr 0.00 in0.0 mm
04:43 PM 57.2°F14.0°C 15.3°F-9.3°C 19% Calm Calm -- 28.67 in970.9 mb 0.00 in0.0 mm 0.00 in/hr0.0 mm/hr 0.00 in0.0 mm
04:45 PM 57.2°F14.0°C 15.3°F-9.3°C 19% Calm Calm -- 28.67 in970.9 mb 0.00 in0.0 mm 0.00 in/hr0.0 mm/hr 0.00 in0.0 mm
04:46 PM 57.2°F14.0°C 15.3°F-9.3°C 19% Calm Calm -- 28.67 in970.9 mb 0.00 in0.0 mm 0.00 in/hr0.0 mm/hr 0.00 in0.0 mm
04:47 PM 57.2°F14.0°C 15.3°F-9.3°C 19% Calm Calm -- 28.67 in970.9 mb 0.00 in0.0 mm 0.00 in/hr0.0 mm/hr 0.00 in0.0 mm
04:49 PM 57.0°F13.9°C 16.4°F-8.7°C 20% Calm Calm -- 28.67 in970.9 mb 0.00 in0.0 mm 0.00 in/hr0.0 mm/hr 0.00 in0.0 mm
04:50 PM 56.8°F13.8°C 16.2°F-8.8°C 20% Calm Calm -- 28.67 in970.9 mb 0.00 in0.0 mm 0.00 in/hr0.0 mm/hr 0.00 in0.0 mm
04:52 PM 56.7°F13.7°C 16.1°F-8.8°C 20% Calm Calm -- 28.67 in970.9 mb 0.00 in0.0 mm 0.00 in/hr0.0 mm/hr 0.00 in0.0 mm
04:53 PM 56.7°F13.7°C 16.1°F-8.8°C 20% Calm Calm -- 28.67 in970.9 mb 0.00 in0.0 mm 0.00 in/hr0.0 mm/hr 0.00 in0.0 mm
04:54 PM 56.5°F13.6°C 15.9°F-8.9°C 20% Calm Calm -- 28.67 in970.9 mb 0.00 in0.0 mm 0.00 in/hr0.0 mm/hr 0.00 in0.0 mm
04:55 PM 56.3°F13.5°C 15.8°F-9.0°C 20% Calm Calm -- 28.67 in970.9 mb 0.00 in0.0 mm 0.00 in/hr0.0 mm/hr 0.00 in0.0 mm
04:57 PM 55.9°F13.3°C 15.5°F-9.2°C 20% Calm Calm -- 28.67 in970.9 mb 0.00 in0.0 mm 0.00 in/hr0.0 mm/hr 0.00 in0.0 mm
04:58 PM 55.8°F13.2°C 15.3°F-9.3°C 20% Calm Calm -- 28.67 in970.9 mb 0.00 in0.0 mm 0.00 in/hr0.0 mm/hr 0.00 in0.0 mm
05:00 PM 55.4°F13.0°C 15.0°F-9.4°C 20% Calm Calm -- 28.67 in970.9 mb 0.00 in0.0 mm 0.00 in/hr0.0 mm/hr 0.00 in0.0 mm
05:01 PM 55.2°F12.9°C 14.9°F-9.5°C 20% Calm Calm -- 28.67 in970.9 mb 0.00 in0.0 mm 0.00 in/hr0.0 mm/hr 0.00 in0.0 mm
05:03 PM 54.9°F12.7°C 14.6°F-9.7°C 20% Calm Calm -- 28.67 in970.9 mb 0.00 in0.0 mm 0.00 in/hr0.0 mm/hr 0.00 in0.0 mm
05:04 PM 54.9°F12.7°C 14.6°F-9.7°C 20% Calm Calm -- 28.67 in970.9 mb 0.00 in0.0 mm 0.00 in/hr0.0 mm/hr 0.00 in0.0 mm
05:05 PM 54.7°F12.6°C 14.4°F-9.8°C 20% Calm Calm -- 28.67 in970.9 mb 0.00 in0.0 mm 0.00 in/hr0.0 mm/hr 0.00 in0.0 mm
05:07 PM 54.5°F12.5°C 14.3°F-9.8°C 20% Calm Calm -- 28.67 in970.9 mb 0.00 in0.0 mm 0.00 in/hr0.0 mm/hr 0.00 in0.0 mm
05:08 PM 54.3°F12.4°C 14.1°F-9.9°C 20% Calm Calm -- 28.67 in970.9 mb 0.00 in0.0 mm 0.00 in/hr0.0 mm/hr 0.00 in0.0 mm
05:09 PM 54.1°F12.3°C 14.0°F-10.0°C 20% Calm Calm -- 28.67 in970.9 mb 0.00 in0.0 mm 0.00 in/hr0.0 mm/hr 0.00 in0.0 mm
05:11 PM 54.1°F12.3°C 14.0°F-10.0°C 20% Calm Calm -- 28.67 in970.9 mb 0.00 in0.0 mm 0.00 in/hr0.0 mm/hr 0.00 in0.0 mm
05:12 PM 54.0°F12.2°C 13.8°F-10.1°C 20% Calm Calm -- 28.67 in970.9 mb 0.00 in0.0 mm 0.00 in/hr0.0 mm/hr 0.00 in0.0 mm
05:13 PM 53.8°F12.1°C 13.7°F-10.2°C 20% Calm Calm -- 28.67 in970.9 mb 0.00 in0.0 mm 0.00 in/hr0.0 mm/hr 0.00 in0.0 mm
05:14 PM 53.6°F12.0°C 13.5°F-10.3°C 20% Calm Calm -- 28.67 in970.9 mb 0.00 in0.0 mm 0.00 in/hr0.0 mm/hr 0.00 in0.0 mm
05:16 PM 53.6°F12.0°C 13.5°F-10.3°C 20% Calm Calm -- 28.67 in970.9 mb 0.00 in0.0 mm 0.00 in/hr0.0 mm/hr 0.00 in0.0 mm
05:17 PM 53.4°F11.9°C 14.5°F-9.7°C 21% Calm Calm -- 28.67 in970.9 mb 0.00 in0.0 mm 0.00 in/hr0.0 mm/hr 0.00 in0.0 mm
05:18 PM 53.4°F11.9°C 14.5°F-9.7°C 21% Calm Calm -- 28.67 in970.9 mb 0.00 in0.0 mm 0.00 in/hr0.0 mm/hr 0.00 in0.0 mm
05:19 PM 53.2°F11.8°C 14.3°F-9.8°C 21% Calm Calm -- 28.67 in970.9 mb 0.00 in0.0 mm 0.00 in/hr0.0 mm/hr 0.00 in0.0 mm
05:20 PM 53.2°F11.8°C 14.3°F-9.8°C 21% Calm Calm -- 28.67 in970.9 mb 0.00 in0.0 mm 0.00 in/hr0.0 mm/hr 0.00 in0.0 mm
05:22 PM 53.1°F11.7°C 14.2°F-9.9°C 21% Calm Calm -- 28.67 in970.9 mb 0.00 in0.0 mm 0.00 in/hr0.0 mm/hr 0.00 in0.0 mm
05:23 PM 52.9°F11.6°C 14.0°F-10.0°C 21% Calm Calm -- 28.67 in970.9 mb 0.00 in0.0 mm 0.00 in/hr0.0 mm/hr 0.00 in0.0 mm
05:24 PM 52.9°F11.6°C 14.0°F-10.0°C 21% Calm Calm -- 28.67 in970.9 mb 0.00 in0.0 mm 0.00 in/hr0.0 mm/hr 0.00 in0.0 mm
05:25 PM 52.7°F11.5°C 13.9°F-10.1°C 21% Calm Calm -- 28.67 in970.9 mb 0.00 in0.0 mm 0.00 in/hr0.0 mm/hr 0.00 in0.0 mm
05:27 PM 52.5°F11.4°C 13.7°F-10.2°C 21% Calm Calm -- 28.67 in970.9 mb 0.00 in0.0 mm 0.00 in/hr0.0 mm/hr 0.00 in0.0 mm
05:29 PM 52.3°F11.3°C 13.6°F-10.2°C 21% Calm Calm -- 28.67 in970.9 mb 0.00 in0.0 mm 0.00 in/hr0.0 mm/hr 0.00 in0.0 mm
05:30 PM 52.2°F11.2°C 13.4°F-10.3°C 21% Calm Calm -- 28.67 in970.9 mb 0.00 in0.0 mm 0.00 in/hr0.0 mm/hr 0.00 in0.0 mm
05:31 PM 52.2°F11.2°C 13.4°F-10.3°C 21% Calm Calm -- 28.67 in970.9 mb 0.00 in0.0 mm 0.00 in/hr0.0 mm/hr 0.00 in0.0 mm
05:32 PM 51.8°F11.0°C 13.1°F-10.5°C 21% Calm Calm -- 28.67 in970.9 mb 0.00 in0.0 mm 0.00 in/hr0.0 mm/hr 0.00 in0.0 mm
05:34 PM 51.6°F10.9°C 13.0°F-10.6°C 21% Calm Calm -- 28.67 in970.9 mb 0.00 in0.0 mm 0.00 in/hr0.0 mm/hr 0.00 in0.0 mm
05:36 PM 51.4°F10.8°C 12.8°F-10.7°C 21% Calm Calm -- 28.67 in970.9 mb 0.00 in0.0 mm 0.00 in/hr0.0 mm/hr 0.00 in0.0 mm
05:37 PM 51.3°F10.7°C 12.7°F-10.7°C 21% Calm Calm -- 28.67 in970.9 mb 0.00 in0.0 mm 0.00 in/hr0.0 mm/hr 0.00 in0.0 mm
05:38 PM 51.3°F10.7°C 12.7°F-10.7°C 21% Calm Calm -- 28.67 in970.9 mb 0.00 in0.0 mm 0.00 in/hr0.0 mm/hr 0.00 in0.0 mm
05:39 PM 50.9°F10.5°C 12.4°F-10.9°C 21% Calm Calm -- 28.67 in970.9 mb 0.00 in0.0 mm 0.00 in/hr0.0 mm/hr 0.00 in0.0 mm
05:40 PM 50.9°F10.5°C 12.4°F-10.9°C 21% Calm Calm -- 28.67 in970.9 mb 0.00 in0.0 mm 0.00 in/hr0.0 mm/hr 0.00 in0.0 mm
05:42 PM 50.5°F10.3°C 12.1°F-11.1°C 21% Calm Calm -- 28.67 in970.9 mb 0.00 in0.0 mm 0.00 in/hr0.0 mm/hr 0.00 in0.0 mm
05:43 PM 50.4°F10.2°C 11.9°F-11.2°C 21% Calm Calm -- 28.67 in970.9 mb 0.00 in0.0 mm 0.00 in/hr0.0 mm/hr 0.00 in0.0 mm
05:45 PM 50.0°F10.0°C 11.6°F-11.3°C 21% Calm Calm -- 28.67 in970.9 mb 0.00 in0.0 mm 0.00 in/hr0.0 mm/hr 0.00 in0.0 mm
05:46 PM 49.8°F9.9°C 11.5°F-11.4°C 21% Calm Calm -- 28.67 in970.9 mb 0.00 in0.0 mm 0.00 in/hr0.0 mm/hr 0.00 in0.0 mm
05:47 PM 49.5°F9.7°C 11.2°F-11.6°C 21% Calm Calm -- 28.67 in970.9 mb 0.00 in0.0 mm 0.00 in/hr0.0 mm/hr 0.00 in0.0 mm
05:49 PM 49.3°F9.6°C 11.0°F-11.7°C 21% Calm Calm -- 28.67 in970.9 mb 0.00 in0.0 mm 0.00 in/hr0.0 mm/hr 0.00 in0.0 mm
05:50 PM 49.1°F9.5°C 10.9°F-11.7°C 21% Calm Calm -- 28.67 in970.9 mb 0.00 in0.0 mm 0.00 in/hr0.0 mm/hr 0.00 in0.0 mm
05:51 PM 49.1°F9.5°C 10.9°F-11.7°C 21% Calm Calm -- 28.67 in970.9 mb 0.00 in0.0 mm 0.00 in/hr0.0 mm/hr 0.00 in0.0 mm
05:52 PM 48.9°F9.4°C 10.7°F-11.8°C 21% Calm Calm -- 28.67 in970.9 mb 0.00 in0.0 mm 0.00 in/hr0.0 mm/hr 0.00 in0.0 mm
05:53 PM 48.9°F9.4°C 10.7°F-11.8°C 21% Calm Calm -- 28.67 in970.9 mb 0.00 in0.0 mm 0.00 in/hr0.0 mm/hr 0.00 in0.0 mm
05:55 PM 48.7°F9.3°C 10.6°F-11.9°C 21% Calm Calm -- 28.67 in970.9 mb 0.00 in0.0 mm 0.00 in/hr0.0 mm/hr 0.00 in0.0 mm
05:56 PM 48.7°F9.3°C 10.6°F-11.9°C 21% Calm Calm -- 28.67 in970.9 mb 0.00 in0.0 mm 0.00 in/hr0.0 mm/hr 0.00 in0.0 mm
05:57 PM 48.6°F9.2°C 10.4°F-12.0°C 21% Calm Calm -- 28.67 in970.9 mb 0.00 in0.0 mm 0.00 in/hr0.0 mm/hr 0.00 in0.0 mm
05:58 PM 48.4°F9.1°C 10.3°F-12.1°C 21% Calm Calm -- 28.67 in970.9 mb 0.00 in0.0 mm 0.00 in/hr0.0 mm/hr 0.00 in0.0 mm
06:00 PM 48.4°F9.1°C 10.3°F-12.1°C 21% Calm Calm -- 28.67 in970.9 mb 0.00 in0.0 mm 0.00 in/hr0.0 mm/hr 0.00 in0.0 mm
06:02 PM 48.2°F9.0°C 10.1°F-12.2°C 21% Calm Calm -- 28.67 in970.9 mb 0.00 in0.0 mm 0.00 in/hr0.0 mm/hr 0.00 in0.0 mm
06:03 PM 48.2°F9.0°C 10.1°F-12.2°C 21% Calm Calm -- 28.67 in970.9 mb 0.00 in0.0 mm 0.00 in/hr0.0 mm/hr 0.00 in0.0 mm
06:04 PM 48.0°F8.9°C 11.0°F-11.7°C 22% Calm Calm -- 28.67 in970.9 mb 0.00 in0.0 mm 0.00 in/hr0.0 mm/hr 0.00 in0.0 mm
06:05 PM 48.0°F8.9°C 11.0°F-11.7°C 22% Calm Calm -- 28.67 in970.9 mb 0.00 in0.0 mm 0.00 in/hr0.0 mm/hr 0.00 in0.0 mm
06:06 PM 48.0°F8.9°C 11.0°F-11.7°C 22% Calm Calm -- 28.67 in970.9 mb 0.00 in0.0 mm 0.00 in/hr0.0 mm/hr 0.00 in0.0 mm
06:07 PM 47.8°F8.8°C 10.9°F-11.7°C 22% Calm Calm -- 28.67 in970.9 mb 0.00 in0.0 mm 0.00 in/hr0.0 mm/hr 0.00 in0.0 mm
06:08 PM 47.7°F8.7°C 10.7°F-11.8°C 22% Calm Calm -- 28.67 in970.9 mb 0.00 in0.0 mm 0.00 in/hr0.0 mm/hr 0.00 in0.0 mm
06:09 PM 47.7°F8.7°C 10.7°F-11.8°C 22% Calm Calm -- 28.67 in970.9 mb 0.00 in0.0 mm 0.00 in/hr0.0 mm/hr 0.00 in0.0 mm
06:11 PM 47.5°F8.6°C 10.6°F-11.9°C 22% Calm Calm -- 28.67 in970.9 mb 0.00 in0.0 mm 0.00 in/hr0.0 mm/hr 0.00 in0.0 mm
06:12 PM 47.3°F8.5°C 10.4°F-12.0°C 22% Calm Calm -- 28.67 in970.9 mb 0.00 in0.0 mm 0.00 in/hr0.0 mm/hr 0.00 in0.0 mm
06:13 PM 47.3°F8.5°C 10.4°F-12.0°C 22% Calm Calm -- 28.67 in970.9 mb 0.00 in0.0 mm 0.00 in/hr0.0 mm/hr 0.00 in0.0 mm
06:15 PM 47.1°F8.4°C 10.2°F-12.1°C 22% Calm Calm -- 28.67 in970.9 mb 0.00 in0.0 mm 0.00 in/hr0.0 mm/hr 0.00 in0.0 mm
06:16 PM 46.9°F8.3°C 10.1°F-12.2°C 22% Calm Calm -- 28.67 in970.9 mb 0.00 in0.0 mm 0.00 in/hr0.0 mm/hr 0.00 in0.0 mm
06:17 PM 46.9°F8.3°C 10.1°F-12.2°C 22% Calm Calm -- 28.67 in970.9 mb 0.00 in0.0 mm 0.00 in/hr0.0 mm/hr 0.00 in0.0 mm
06:18 PM 46.8°F8.2°C 9.9°F-12.3°C 22% Calm Calm -- 28.67 in970.9 mb 0.00 in0.0 mm 0.00 in/hr0.0 mm/hr 0.00 in0.0 mm
06:19 PM 46.8°F8.2°C 9.9°F-12.3°C 22% Calm Calm -- 28.67 in970.9 mb 0.00 in0.0 mm 0.00 in/hr0.0 mm/hr 0.00 in0.0 mm
06:21 PM 46.6°F8.1°C 9.8°F-12.3°C 22% Calm Calm -- 28.67 in970.9 mb 0.00 in0.0 mm 0.00 in/hr0.0 mm/hr 0.00 in0.0 mm
06:22 PM 46.6°F8.1°C 9.8°F-12.3°C 22% Calm Calm -- 28.67 in970.9 mb 0.00 in0.0 mm 0.00 in/hr0.0 mm/hr 0.00 in0.0 mm
06:23 PM 46.4°F8.0°C 9.6°F-12.4°C 22% Calm Calm -- 28.67 in970.9 mb 0.00 in0.0 mm 0.00 in/hr0.0 mm/hr 0.00 in0.0 mm
06:24 PM 46.4°F8.0°C 9.6°F-12.4°C 22% Calm Calm -- 28.67 in970.9 mb 0.00 in0.0 mm 0.00 in/hr0.0 mm/hr 0.00 in0.0 mm
06:25 PM 46.2°F7.9°C 9.5°F-12.5°C 22% Calm Calm -- 28.67 in970.9 mb 0.00 in0.0 mm 0.00 in/hr0.0 mm/hr 0.00 in0.0 mm
06:26 PM 46.2°F7.9°C 9.5°F-12.5°C 22% Calm Calm -- 28.67 in970.9 mb 0.00 in0.0 mm 0.00 in/hr0.0 mm/hr 0.00 in0.0 mm
06:28 PM 46.0°F7.8°C 9.3°F-12.6°C 22% Calm Calm -- 28.67 in970.9 mb 0.00 in0.0 mm 0.00 in/hr0.0 mm/hr 0.00 in0.0 mm
06:29 PM 45.9°F7.7°C 9.2°F-12.7°C 22% Calm Calm -- 28.67 in970.9 mb 0.00 in0.0 mm 0.00 in/hr0.0 mm/hr 0.00 in0.0 mm
06:30 PM 45.9°F7.7°C 9.2°F-12.7°C 22% Calm Calm -- 28.67 in970.9 mb 0.00 in0.0 mm 0.00 in/hr0.0 mm/hr 0.00 in0.0 mm
06:31 PM 45.9°F7.7°C 9.2°F-12.7°C 22% Calm Calm -- 28.67 in970.9 mb 0.00 in0.0 mm 0.00 in/hr0.0 mm/hr 0.00 in0.0 mm
06:32 PM 45.7°F7.6°C 9.0°F-12.8°C 22% Calm Calm -- 28.67 in970.9 mb 0.00 in0.0 mm 0.00 in/hr0.0 mm/hr 0.00 in0.0 mm
06:33 PM 45.5°F7.5°C 8.9°F-12.8°C 22% Calm Calm -- 28.67 in970.9 mb 0.00 in0.0 mm 0.00 in/hr0.0 mm/hr 0.00 in0.0 mm
06:34 PM 45.5°F7.5°C 8.9°F-12.8°C 22% Calm Calm -- 28.67 in970.9 mb 0.00 in0.0 mm 0.00 in/hr0.0 mm/hr 0.00 in0.0 mm
06:35 PM 45.5°F7.5°C 8.9°F-12.8°C 22% Calm Calm -- 28.67 in970.9 mb 0.00 in0.0 mm 0.00 in/hr0.0 mm/hr 0.00 in0.0 mm
06:36 PM 45.3°F7.4°C 8.7°F-12.9°C 22% Calm Calm -- 28.67 in970.9 mb 0.00 in0.0 mm 0.00 in/hr0.0 mm/hr 0.00 in0.0 mm
06:37 PM 45.3°F7.4°C 8.7°F-12.9°C 22% Calm Calm -- 28.67 in970.9 mb 0.00 in0.0 mm 0.00 in/hr0.0 mm/hr 0.00 in0.0 mm
06:38 PM 45.3°F7.4°C 8.7°F-12.9°C 22% Calm Calm -- 28.67 in970.9 mb 0.00 in0.0 mm 0.00 in/hr0.0 mm/hr 0.00 in0.0 mm
06:39 PM 45.1°F7.3°C 8.6°F-13.0°C 22% Calm Calm -- 28.67 in970.9 mb 0.00 in0.0 mm 0.00 in/hr0.0 mm/hr 0.00 in0.0 mm
06:40 PM 45.1°F7.3°C 8.6°F-13.0°C 22% Calm Calm -- 28.67 in970.9 mb 0.00 in0.0 mm 0.00 in/hr0.0 mm/hr 0.00 in0.0 mm
06:41 PM 45.0°F7.2°C 8.4°F-13.1°C 22% Calm Calm -- 28.67 in970.9 mb 0.00 in0.0 mm 0.00 in/hr0.0 mm/hr 0.00 in0.0 mm
06:42 PM 44.8°F7.1°C 8.3°F-13.2°C 22% Calm Calm -- 28.67 in970.9 mb 0.00 in0.0 mm 0.00 in/hr0.0 mm/hr 0.00 in0.0 mm
06:43 PM 44.8°F7.1°C 8.3°F-13.2°C 22% Calm Calm -- 28.67 in970.9 mb 0.00 in0.0 mm 0.00 in/hr0.0 mm/hr 0.00 in0.0 mm
06:44 PM 44.8°F7.1°C 11.1°F-11.6°C 25% Calm Calm -- 28.67 in970.9 mb 0.00 in0.0 mm 0.00 in/hr0.0 mm/hr 0.00 in0.0 mm
06:45 PM 44.8°F7.1°C 11.1°F-11.6°C 25% Calm Calm -- 28.67 in970.9 mb 0.00 in0.0 mm 0.00 in/hr0.0 mm/hr 0.00 in0.0 mm
06:46 PM 44.8°F7.1°C 11.1°F-11.6°C 25% Calm Calm -- 28.67 in970.9 mb 0.00 in0.0 mm 0.00 in/hr0.0 mm/hr 0.00 in0.0 mm
06:47 PM 44.6°F7.0°C 11.0°F-11.7°C 25% Calm Calm -- 28.67 in970.9 mb 0.00 in0.0 mm 0.00 in/hr0.0 mm/hr 0.00 in0.0 mm
06:48 PM 44.6°F7.0°C 11.0°F-11.7°C 25% Calm Calm -- 28.67 in970.9 mb 0.00 in0.0 mm 0.00 in/hr0.0 mm/hr 0.00 in0.0 mm
06:49 PM 44.6°F7.0°C 11.0°F-11.7°C 25% Calm Calm -- 28.67 in970.9 mb 0.00 in0.0 mm 0.00 in/hr0.0 mm/hr 0.00 in0.0 mm
06:50 PM 44.6°F7.0°C 11.0°F-11.7°C 25% Calm Calm -- 28.67 in970.9 mb 0.00 in0.0 mm 0.00 in/hr0.0 mm/hr 0.00 in0.0 mm
06:51 PM 44.6°F7.0°C 11.0°F-11.7°C 25% Calm Calm -- 28.67 in970.9 mb 0.00 in0.0 mm 0.00 in/hr0.0 mm/hr 0.00 in0.0 mm
06:52 PM 44.4°F6.9°C 10.8°F-11.8°C 25% Calm Calm -- 28.67 in970.9 mb 0.00 in0.0 mm 0.00 in/hr0.0 mm/hr 0.00 in0.0 mm
06:53 PM 44.4°F6.9°C 10.8°F-11.8°C 25% Calm Calm -- 28.67 in970.9 mb 0.00 in0.0 mm 0.00 in/hr0.0 mm/hr 0.00 in0.0 mm
06:54 PM 44.2°F6.8°C 10.7°F-11.8°C 25% Calm Calm -- 28.67 in970.9 mb 0.00 in0.0 mm 0.00 in/hr0.0 mm/hr 0.00 in0.0 mm
06:55 PM 44.2°F6.8°C 10.7°F-11.8°C 25% Calm Calm -- 28.67 in970.9 mb 0.00 in0.0 mm 0.00 in/hr0.0 mm/hr 0.00 in0.0 mm
06:56 PM 44.2°F6.8°C 10.7°F-11.8°C 25% Calm Calm -- 28.67 in970.9 mb 0.00 in0.0 mm 0.00 in/hr0.0 mm/hr 0.00 in0.0 mm
06:57 PM 44.2°F6.8°C 10.7°F-11.8°C 25% Calm Calm -- 28.67 in970.9 mb 0.00 in0.0 mm 0.00 in/hr0.0 mm/hr 0.00 in0.0 mm
06:58 PM 44.1°F6.7°C 10.5°F-11.9°C 25% Calm Calm -- 28.67 in970.9 mb 0.00 in0.0 mm 0.00 in/hr0.0 mm/hr 0.00 in0.0 mm
07:00 PM 44.1°F6.7°C 10.5°F-11.9°C 25% Calm Calm -- 28.67 in970.9 mb 0.00 in0.0 mm 0.00 in/hr0.0 mm/hr 0.00 in0.0 mm
07:01 PM 44.1°F6.7°C 10.5°F-11.9°C 25% Calm Calm -- 28.67 in970.9 mb 0.00 in0.0 mm 0.00 in/hr0.0 mm/hr 0.00 in0.0 mm
07:03 PM 44.1°F6.7°C 10.5°F-11.9°C 25% Calm Calm -- 28.67 in970.9 mb 0.00 in0.0 mm 0.00 in/hr0.0 mm/hr 0.00 in0.0 mm
07:04 PM 43.9°F6.6°C 10.4°F-12.0°C 25% Calm Calm -- 28.67 in970.9 mb 0.00 in0.0 mm 0.00 in/hr0.0 mm/hr 0.00 in0.0 mm
07:05 PM 43.9°F6.6°C 10.4°F-12.0°C 25% Calm Calm -- 28.67 in970.9 mb 0.00 in0.0 mm 0.00 in/hr0.0 mm/hr 0.00 in0.0 mm
07:07 PM 43.7°F6.5°C 10.2°F-12.1°C 25% Calm Calm -- 28.67 in970.9 mb 0.00 in0.0 mm 0.00 in/hr0.0 mm/hr 0.00 in0.0 mm
07:08 PM 43.7°F6.5°C 10.2°F-12.1°C 25% Calm Calm -- 28.67 in970.9 mb 0.00 in0.0 mm 0.00 in/hr0.0 mm/hr 0.00 in0.0 mm
07:09 PM 43.5°F6.4°C 10.0°F-12.2°C 25% Calm Calm -- 28.67 in970.9 mb 0.00 in0.0 mm 0.00 in/hr0.0 mm/hr 0.00 in0.0 mm
07:11 PM 43.5°F6.4°C 10.0°F-12.2°C 25% Calm Calm -- 28.67 in970.9 mb 0.00 in0.0 mm 0.00 in/hr0.0 mm/hr 0.00 in0.0 mm
07:12 PM 43.3°F6.3°C 9.9°F-12.3°C 25% Calm Calm -- 28.67 in970.9 mb 0.00 in0.0 mm 0.00 in/hr0.0 mm/hr 0.00 in0.0 mm
07:13 PM 43.3°F6.3°C 9.9°F-12.3°C 25% Calm Calm -- 28.67 in970.9 mb 0.00 in0.0 mm 0.00 in/hr0.0 mm/hr 0.00 in0.0 mm
07:14 PM 43.2°F6.2°C 9.7°F-12.4°C 25% Calm Calm -- 28.67 in970.9 mb 0.00 in0.0 mm 0.00 in/hr0.0 mm/hr 0.00 in0.0 mm
07:15 PM 43.0°F6.1°C 9.6°F-12.4°C 25% Calm Calm -- 28.67 in970.9 mb 0.00 in0.0 mm 0.00 in/hr0.0 mm/hr 0.00 in0.0 mm
07:16 PM 42.8°F6.0°C 9.4°F-12.6°C 25% Calm Calm -- 28.67 in970.9 mb 0.00 in0.0 mm 0.00 in/hr0.0 mm/hr 0.00 in0.0 mm
07:18 PM 42.8°F6.0°C 9.4°F-12.6°C 25% Calm Calm -- 28.67 in970.9 mb 0.00 in0.0 mm 0.00 in/hr0.0 mm/hr 0.00 in0.0 mm
07:19 PM 42.6°F5.9°C 10.2°F-12.1°C 26% Calm Calm -- 28.67 in970.9 mb 0.00 in0.0 mm 0.00 in/hr0.0 mm/hr 0.00 in0.0 mm
07:21 PM 42.4°F5.8°C 10.0°F-12.2°C 26% Calm Calm -- 28.67 in970.9 mb 0.00 in0.0 mm 0.00 in/hr0.0 mm/hr 0.00 in0.0 mm
07:22 PM 42.4°F5.8°C 10.0°F-12.2°C 26% Calm Calm -- 28.67 in970.9 mb 0.00 in0.0 mm 0.00 in/hr0.0 mm/hr 0.00 in0.0 mm
07:23 PM 42.4°F5.8°C 10.0°F-12.2°C 26% Calm Calm -- 28.67 in970.9 mb 0.00 in0.0 mm 0.00 in/hr0.0 mm/hr 0.00 in0.0 mm
07:24 PM 42.3°F5.7°C 9.8°F-12.3°C 26% Calm Calm -- 28.67 in970.9 mb 0.00 in0.0 mm 0.00 in/hr0.0 mm/hr 0.00 in0.0 mm
07:26 PM 42.3°F5.7°C 9.8°F-12.3°C 26% Calm Calm -- 28.67 in970.9 mb 0.00 in0.0 mm 0.00 in/hr0.0 mm/hr 0.00 in0.0 mm
07:27 PM 42.3°F5.7°C 9.8°F-12.3°C 26% Calm Calm -- 28.67 in970.9 mb 0.00 in0.0 mm 0.00 in/hr0.0 mm/hr 0.00 in0.0 mm
07:29 PM 42.3°F5.7°C 9.8°F-12.3°C 26% Calm Calm -- 28.67 in970.9 mb 0.00 in0.0 mm 0.00 in/hr0.0 mm/hr 0.00 in0.0 mm
07:30 PM 42.3°F5.7°C 9.8°F-12.3°C 26% Calm Calm -- 28.67 in970.9 mb 0.00 in0.0 mm 0.00 in/hr0.0 mm/hr 0.00 in0.0 mm
07:31 PM 42.1°F5.6°C 9.7°F-12.4°C 26% Calm Calm -- 28.67 in970.9 mb 0.00 in0.0 mm 0.00 in/hr0.0 mm/hr 0.00 in0.0 mm
07:33 PM 42.1°F5.6°C 9.7°F-12.4°C 26% Calm Calm -- 28.67 in970.9 mb 0.00 in0.0 mm 0.00 in/hr0.0 mm/hr 0.00 in0.0 mm
07:34 PM 41.9°F5.5°C 11.2°F-11.6°C 28% Calm Calm -- 28.67 in970.9 mb 0.00 in0.0 mm 0.00 in/hr0.0 mm/hr 0.00 in0.0 mm
07:35 PM 41.7°F5.4°C 11.0°F-11.7°C 28% Calm Calm -- 28.67 in970.9 mb 0.00 in0.0 mm 0.00 in/hr0.0 mm/hr 0.00 in0.0 mm
07:37 PM 41.7°F5.4°C 11.0°F-11.7°C 28% Calm Calm -- 28.67 in970.9 mb 0.00 in0.0 mm 0.00 in/hr0.0 mm/hr 0.00 in0.0 mm
07:38 PM 41.7°F5.4°C 11.0°F-11.7°C 28% Calm Calm -- 28.67 in970.9 mb 0.00 in0.0 mm 0.00 in/hr0.0 mm/hr 0.00 in0.0 mm
07:39 PM 41.7°F5.4°C 11.0°F-11.7°C 28% Calm Calm -- 28.67 in970.9 mb 0.00 in0.0 mm 0.00 in/hr0.0 mm/hr 0.00 in0.0 mm
07:40 PM 41.7°F5.4°C 11.0°F-11.7°C 28% Calm Calm -- 28.67 in970.9 mb 0.00 in0.0 mm 0.00 in/hr0.0 mm/hr 0.00 in0.0 mm
07:41 PM 41.7°F5.4°C 11.0°F-11.7°C 28% Calm Calm -- 28.67 in970.9 mb 0.00 in0.0 mm 0.00 in/hr0.0 mm/hr 0.00 in0.0 mm
07:42 PM 41.7°F5.4°C 11.0°F-11.7°C 28% Calm Calm -- 28.67 in970.9 mb 0.00 in0.0 mm 0.00 in/hr0.0 mm/hr 0.00 in0.0 mm
07:44 PM 41.7°F5.4°C 11.0°F-11.7°C 28% Calm Calm -- 28.67 in970.9 mb 0.00 in0.0 mm 0.00 in/hr0.0 mm/hr 0.00 in0.0 mm
07:45 PM 41.7°F5.4°C 11.0°F-11.7°C 28% Calm Calm -- 28.67 in970.9 mb 0.00 in0.0 mm 0.00 in/hr0.0 mm/hr 0.00 in0.0 mm
07:47 PM 41.7°F5.4°C 11.0°F-11.7°C 28% Calm Calm -- 28.67 in970.9 mb 0.00 in0.0 mm 0.00 in/hr0.0 mm/hr 0.00 in0.0 mm
07:48 PM 41.7°F5.4°C 11.0°F-11.7°C 28% Calm Calm -- 28.67 in970.9 mb 0.00 in0.0 mm 0.00 in/hr0.0 mm/hr 0.00 in0.0 mm
07:49 PM 41.7°F5.4°C 11.0°F-11.7°C 28% Calm Calm -- 28.67 in970.9 mb 0.00 in0.0 mm 0.00 in/hr0.0 mm/hr 0.00 in0.0 mm
07:50 PM 41.7°F5.4°C 11.0°F-11.7°C 28% Calm Calm -- 28.67 in970.9 mb 0.00 in0.0 mm 0.00 in/hr0.0 mm/hr 0.00 in0.0 mm
07:51 PM 41.5°F5.3°C 10.9°F-11.7°C 28% Calm Calm -- 28.67 in970.9 mb 0.00 in0.0 mm 0.00 in/hr0.0 mm/hr 0.00 in0.0 mm
07:52 PM 41.5°F5.3°C 10.9°F-11.7°C 28% Calm Calm -- 28.67 in970.9 mb 0.00 in0.0 mm 0.00 in/hr0.0 mm/hr 0.00 in0.0 mm
07:54 PM 41.5°F5.3°C 10.9°F-11.7°C 28% Calm Calm -- 28.67 in970.9 mb 0.00 in0.0 mm 0.00 in/hr0.0 mm/hr 0.00 in0.0 mm
07:55 PM 41.4°F5.2°C 10.7°F-11.8°C 28% Calm Calm -- 28.67 in970.9 mb 0.00 in0.0 mm 0.00 in/hr0.0 mm/hr 0.00 in0.0 mm
07:56 PM 41.2°F5.1°C 10.6°F-11.9°C 28% Calm Calm -- 28.67 in970.9 mb 0.00 in0.0 mm 0.00 in/hr0.0 mm/hr 0.00 in0.0 mm
07:57 PM 41.0°F5.0°C 10.4°F-12.0°C 28% Calm Calm -- 28.67 in970.9 mb 0.00 in0.0 mm 0.00 in/hr0.0 mm/hr 0.00 in0.0 mm
07:59 PM 41.0°F5.0°C 10.4°F-12.0°C 28% Calm Calm -- 28.67 in970.9 mb 0.00 in0.0 mm 0.00 in/hr0.0 mm/hr 0.00 in0.0 mm
08:00 PM 40.8°F4.9°C 10.3°F-12.1°C 28% Calm Calm -- 28.67 in970.9 mb 0.00 in0.0 mm 0.00 in/hr0.0 mm/hr 0.00 in0.0 mm
08:01 PM 40.8°F4.9°C 10.3°F-12.1°C 28% Calm Calm -- 28.67 in970.9 mb 0.00 in0.0 mm 0.00 in/hr0.0 mm/hr 0.00 in0.0 mm
08:03 PM 40.5°F4.7°C 9.9°F-12.3°C 28% Calm Calm -- 28.67 in970.9 mb 0.00 in0.0 mm 0.00 in/hr0.0 mm/hr 0.00 in0.0 mm
08:05 PM 40.3°F4.6°C 9.8°F-12.3°C 28% Calm Calm -- 28.67 in970.9 mb 0.00 in0.0 mm 0.00 in/hr0.0 mm/hr 0.00 in0.0 mm
08:06 PM 40.3°F4.6°C 9.8°F-12.3°C 28% Calm Calm -- 28.67 in970.9 mb 0.00 in0.0 mm 0.00 in/hr0.0 mm/hr 0.00 in0.0 mm
08:07 PM 40.1°F4.5°C 10.4°F-12.0°C 29% Calm Calm -- 28.67 in970.9 mb 0.00 in0.0 mm 0.00 in/hr0.0 mm/hr 0.00 in0.0 mm
08:08 PM 40.1°F4.5°C 10.4°F-12.0°C 29% Calm Calm -- 28.67 in970.9 mb 0.00 in0.0 mm 0.00 in/hr0.0 mm/hr 0.00 in0.0 mm
08:10 PM 39.9°F4.4°C 10.3°F-12.1°C 29% Calm Calm -- 28.67 in970.9 mb 0.00 in0.0 mm 0.00 in/hr0.0 mm/hr 0.00 in0.0 mm
08:11 PM 39.9°F4.4°C 10.3°F-12.1°C 29% Calm Calm -- 28.67 in970.9 mb 0.00 in0.0 mm 0.00 in/hr0.0 mm/hr 0.00 in0.0 mm
08:12 PM 39.9°F4.4°C 10.3°F-12.1°C 29% Calm Calm -- 28.67 in970.9 mb 0.00 in0.0 mm 0.00 in/hr0.0 mm/hr 0.00 in0.0 mm
08:13 PM 39.7°F4.3°C 10.1°F-12.2°C 29% Calm Calm -- 28.67 in970.9 mb 0.00 in0.0 mm 0.00 in/hr0.0 mm/hr 0.00 in0.0 mm
08:14 PM 39.7°F4.3°C 10.1°F-12.2°C 29% Calm Calm -- 28.67 in970.9 mb 0.00 in0.0 mm 0.00 in/hr0.0 mm/hr 0.00 in0.0 mm
08:15 PM 39.7°F4.3°C 10.1°F-12.2°C 29% Calm Calm -- 28.67 in970.9 mb 0.00 in0.0 mm 0.00 in/hr0.0 mm/hr 0.00 in0.0 mm
08:17 PM 39.6°F4.2°C 9.9°F-12.3°C 29% Calm Calm -- 28.64 in969.9 mb 0.00 in0.0 mm 0.00 in/hr0.0 mm/hr 0.00 in0.0 mm
08:18 PM 39.6°F4.2°C 9.9°F-12.3°C 29% Calm Calm -- 28.64 in969.9 mb 0.00 in0.0 mm 0.00 in/hr0.0 mm/hr 0.00 in0.0 mm
08:19 PM 39.4°F4.1°C 9.8°F-12.3°C 29% Calm Calm -- 28.64 in969.9 mb 0.00 in0.0 mm 0.00 in/hr0.0 mm/hr 0.00 in0.0 mm
08:21 PM 39.2°F4.0°C 9.6°F-12.4°C 29% Calm Calm -- 28.64 in969.9 mb 0.00 in0.0 mm 0.00 in/hr0.0 mm/hr 0.00 in0.0 mm
08:22 PM 39.2°F4.0°C 9.6°F-12.4°C 29% Calm Calm -- 28.64 in969.9 mb 0.00 in0.0 mm 0.00 in/hr0.0 mm/hr 0.00 in0.0 mm
08:23 PM 39.0°F3.9°C 9.5°F-12.5°C 29% Calm Calm -- 28.64 in969.9 mb 0.00 in0.0 mm 0.00 in/hr0.0 mm/hr 0.00 in0.0 mm
08:24 PM 39.0°F3.9°C 9.5°F-12.5°C 29% Calm Calm -- 28.64 in969.9 mb 0.00 in0.0 mm 0.00 in/hr0.0 mm/hr 0.00 in0.0 mm
08:25 PM 38.8°F3.8°C 9.3°F-12.6°C 29% Calm Calm -- 28.64 in969.9 mb 0.00 in0.0 mm 0.00 in/hr0.0 mm/hr 0.00 in0.0 mm
08:26 PM 38.8°F3.8°C 10.1°F-12.2°C 30% Calm Calm -- 28.64 in969.9 mb 0.00 in0.0 mm 0.00 in/hr0.0 mm/hr 0.00 in0.0 mm
08:28 PM 39.0°F3.9°C 10.2°F-12.1°C 30% Calm Calm -- 28.64 in969.9 mb 0.00 in0.0 mm 0.00 in/hr0.0 mm/hr 0.00 in0.0 mm
08:29 PM 39.0°F3.9°C 10.2°F-12.1°C 30% Calm Calm -- 28.64 in969.9 mb 0.00 in0.0 mm 0.00 in/hr0.0 mm/hr 0.00 in0.0 mm
08:30 PM 39.2°F4.0°C 10.4°F-12.0°C 30% Calm Calm -- 28.64 in969.9 mb 0.00 in0.0 mm 0.00 in/hr0.0 mm/hr 0.00 in0.0 mm
08:31 PM 39.2°F4.0°C 10.4°F-12.0°C 30% Calm Calm -- 28.64 in969.9 mb 0.00 in0.0 mm 0.00 in/hr0.0 mm/hr 0.00 in0.0 mm
08:33 PM 39.2°F4.0°C 10.4°F-12.0°C 30% Calm Calm -- 28.64 in969.9 mb 0.00 in0.0 mm 0.00 in/hr0.0 mm/hr 0.00 in0.0 mm
08:35 PM 39.2°F4.0°C 10.4°F-12.0°C 30% Calm Calm -- 28.64 in969.9 mb 0.00 in0.0 mm 0.00 in/hr0.0 mm/hr 0.00 in0.0 mm
08:36 PM 39.2°F4.0°C 10.4°F-12.0°C 30% Calm Calm -- 28.64 in969.9 mb 0.00 in0.0 mm 0.00 in/hr0.0 mm/hr 0.00 in0.0 mm
08:37 PM 39.2°F4.0°C 10.4°F-12.0°C 30% Calm Calm -- 28.64 in969.9 mb 0.00 in0.0 mm 0.00 in/hr0.0 mm/hr 0.00 in0.0 mm
08:38 PM 39.0°F3.9°C 10.2°F-12.1°C 30% Calm Calm -- 28.64 in969.9 mb 0.00 in0.0 mm 0.00 in/hr0.0 mm/hr 0.00 in0.0 mm
08:40 PM 39.0°F3.9°C 10.2°F-12.1°C 30% Calm Calm -- 28.64 in969.9 mb 0.00 in0.0 mm 0.00 in/hr0.0 mm/hr 0.00 in0.0 mm
08:41 PM 38.8°F3.8°C 10.1°F-12.2°C 30% Calm Calm -- 28.64 in969.9 mb 0.00 in0.0 mm 0.00 in/hr0.0 mm/hr 0.00 in0.0 mm
08:42 PM 38.7°F3.7°C 9.9°F-12.3°C 30% Calm Calm -- 28.64 in969.9 mb 0.00 in0.0 mm 0.00 in/hr0.0 mm/hr 0.00 in0.0 mm
08:44 PM 38.7°F3.7°C 9.9°F-12.3°C 30% Calm Calm -- 28.64 in969.9 mb 0.00 in0.0 mm 0.00 in/hr0.0 mm/hr 0.00 in0.0 mm
08:45 PM 38.5°F3.6°C 9.8°F-12.3°C 30% Calm Calm -- 28.64 in969.9 mb 0.00 in0.0 mm 0.00 in/hr0.0 mm/hr 0.00 in0.0 mm
08:46 PM 38.5°F3.6°C 9.8°F-12.3°C 30% Calm Calm -- 28.64 in969.9 mb 0.00 in0.0 mm 0.00 in/hr0.0 mm/hr 0.00 in0.0 mm
08:47 PM 38.5°F3.6°C 9.8°F-12.3°C 30% Calm Calm -- 28.64 in969.9 mb 0.00 in0.0 mm 0.00 in/hr0.0 mm/hr 0.00 in0.0 mm
08:48 PM 38.3°F3.5°C 10.3°F-12.1°C 31% Calm Calm -- 28.64 in969.9 mb 0.00 in0.0 mm 0.00 in/hr0.0 mm/hr 0.00 in0.0 mm
08:49 PM 38.1°F3.4°C 10.2°F-12.1°C 31% Calm Calm -- 28.64 in969.9 mb 0.00 in0.0 mm 0.00 in/hr0.0 mm/hr 0.00 in0.0 mm
08:50 PM 38.1°F3.4°C 10.2°F-12.1°C 31% Calm Calm -- 28.64 in969.9 mb 0.00 in0.0 mm 0.00 in/hr0.0 mm/hr 0.00 in0.0 mm
08:51 PM 37.9°F3.3°C 10.0°F-12.2°C 31% Calm Calm -- 28.64 in969.9 mb 0.00 in0.0 mm 0.00 in/hr0.0 mm/hr 0.00 in0.0 mm
08:52 PM 37.9°F3.3°C 10.0°F-12.2°C 31% Calm Calm -- 28.64 in969.9 mb 0.00 in0.0 mm 0.00 in/hr0.0 mm/hr 0.00 in0.0 mm
08:54 PM 37.8°F3.2°C 9.9°F-12.3°C 31% Calm Calm -- 28.64 in969.9 mb 0.00 in0.0 mm 0.00 in/hr0.0 mm/hr 0.00 in0.0 mm
08:55 PM 37.6°F3.1°C 9.7°F-12.4°C 31% Calm Calm -- 28.64 in969.9 mb 0.00 in0.0 mm 0.00 in/hr0.0 mm/hr 0.00 in0.0 mm
08:56 PM 37.6°F3.1°C 9.7°F-12.4°C 31% Calm Calm -- 28.64 in969.9 mb 0.00 in0.0 mm 0.00 in/hr0.0 mm/hr 0.00 in0.0 mm
08:57 PM 37.6°F3.1°C 9.7°F-12.4°C 31% Calm Calm -- 28.64 in969.9 mb 0.00 in0.0 mm 0.00 in/hr0.0 mm/hr 0.00 in0.0 mm
08:59 PM 37.6°F3.1°C 9.7°F-12.4°C 31% Calm Calm -- 28.64 in969.9 mb 0.00 in0.0 mm 0.00 in/hr0.0 mm/hr 0.00 in0.0 mm
09:00 PM 37.4°F3.0°C 9.5°F-12.5°C 31% Calm Calm -- 28.64 in969.9 mb 0.00 in0.0 mm 0.00 in/hr0.0 mm/hr 0.00 in0.0 mm
09:02 PM 37.4°F3.0°C 9.5°F-12.5°C 31% Calm Calm -- 28.64 in969.9 mb 0.00 in0.0 mm 0.00 in/hr0.0 mm/hr 0.00 in0.0 mm
09:03 PM 37.4°F3.0°C 9.5°F-12.5°C 31% Calm Calm -- 28.64 in969.9 mb 0.00 in0.0 mm 0.00 in/hr0.0 mm/hr 0.00 in0.0 mm
09:04 PM 37.4°F3.0°C 9.5°F-12.5°C 31% Calm Calm -- 28.64 in969.9 mb 0.00 in0.0 mm 0.00 in/hr0.0 mm/hr 0.00 in0.0 mm
09:06 PM 37.2°F2.9°C 10.1°F-12.2°C 32% Calm Calm -- 28.64 in969.9 mb 0.00 in0.0 mm 0.00 in/hr0.0 mm/hr 0.00 in0.0 mm
09:07 PM 37.0°F2.8°C 9.9°F-12.3°C 32% Calm Calm -- 28.64 in969.9 mb 0.00 in0.0 mm 0.00 in/hr0.0 mm/hr 0.00 in0.0 mm
09:08 PM 37.0°F2.8°C 9.9°F-12.3°C 32% Calm Calm -- 28.64 in969.9 mb 0.00 in0.0 mm 0.00 in/hr0.0 mm/hr 0.00 in0.0 mm
09:10 PM 37.0°F2.8°C 9.9°F-12.3°C 32% Calm Calm -- 28.64 in969.9 mb 0.00 in0.0 mm 0.00 in/hr0.0 mm/hr 0.00 in0.0 mm
09:11 PM 37.0°F2.8°C 9.9°F-12.3°C 32% Calm Calm -- 28.64 in969.9 mb 0.00 in0.0 mm 0.00 in/hr0.0 mm/hr 0.00 in0.0 mm
09:12 PM 37.0°F2.8°C 9.9°F-12.3°C 32% Calm Calm -- 28.64 in969.9 mb 0.00 in0.0 mm 0.00 in/hr0.0 mm/hr 0.00 in0.0 mm
09:13 PM 37.0°F2.8°C 9.9°F-12.3°C 32% Calm Calm -- 28.64 in969.9 mb 0.00 in0.0 mm 0.00 in/hr0.0 mm/hr 0.00 in0.0 mm
09:14 PM 37.0°F2.8°C 9.9°F-12.3°C 32% Calm Calm -- 28.64 in969.9 mb 0.00 in0.0 mm 0.00 in/hr0.0 mm/hr 0.00 in0.0 mm
09:15 PM 36.9°F2.7°C 9.8°F-12.3°C 32% Calm Calm -- 28.64 in969.9 mb 0.00 in0.0 mm 0.00 in/hr0.0 mm/hr 0.00 in0.0 mm
09:17 PM 36.9°F2.7°C 9.8°F-12.3°C 32% Calm Calm -- 28.64 in969.9 mb 0.00 in0.0 mm 0.00 in/hr0.0 mm/hr 0.00 in0.0 mm
09:18 PM 36.7°F2.6°C 9.6°F-12.4°C 32% Calm Calm -- 28.64 in969.9 mb 0.00 in0.0 mm 0.00 in/hr0.0 mm/hr 0.00 in0.0 mm
09:19 PM 36.7°F2.6°C 9.6°F-12.4°C 32% Calm Calm -- 28.64 in969.9 mb 0.00 in0.0 mm 0.00 in/hr0.0 mm/hr 0.00 in0.0 mm
09:20 PM 36.5°F2.5°C 9.5°F-12.5°C 32% Calm Calm -- 28.64 in969.9 mb 0.00 in0.0 mm 0.00 in/hr0.0 mm/hr 0.00 in0.0 mm
09:21 PM 36.5°F2.5°C 9.5°F-12.5°C 32% Calm Calm -- 28.64 in969.9 mb 0.00 in0.0 mm 0.00 in/hr0.0 mm/hr 0.00 in0.0 mm
09:22 PM 36.3°F2.4°C 9.3°F-12.6°C 32% Calm Calm -- 28.64 in969.9 mb 0.00 in0.0 mm 0.00 in/hr0.0 mm/hr 0.00 in0.0 mm
09:23 PM 36.3°F2.4°C 10.0°F-12.2°C 33% Calm Calm -- 28.64 in969.9 mb 0.00 in0.0 mm 0.00 in/hr0.0 mm/hr 0.00 in0.0 mm
09:25 PM 36.3°F2.4°C 10.0°F-12.2°C 33% Calm Calm -- 28.64 in969.9 mb 0.00 in0.0 mm 0.00 in/hr0.0 mm/hr 0.00 in0.0 mm
09:26 PM 36.1°F2.3°C 9.8°F-12.3°C 33% Calm Calm -- 28.64 in969.9 mb 0.00 in0.0 mm 0.00 in/hr0.0 mm/hr 0.00 in0.0 mm
09:28 PM 36.1°F2.3°C 9.8°F-12.3°C 33% Calm Calm -- 28.64 in969.9 mb 0.00 in0.0 mm 0.00 in/hr0.0 mm/hr 0.00 in0.0 mm
09:29 PM 36.1°F2.3°C 9.8°F-12.3°C 33% Calm Calm -- 28.64 in969.9 mb 0.00 in0.0 mm 0.00 in/hr0.0 mm/hr 0.00 in0.0 mm
09:30 PM 36.1°F2.3°C 9.8°F-12.3°C 33% Calm Calm -- 28.64 in969.9 mb 0.00 in0.0 mm 0.00 in/hr0.0 mm/hr 0.00 in0.0 mm
09:32 PM 36.0°F2.2°C 9.7°F-12.4°C 33% Calm Calm -- 28.64 in969.9 mb 0.00 in0.0 mm 0.00 in/hr0.0 mm/hr 0.00 in0.0 mm
09:33 PM 36.0°F2.2°C 10.3°F-12.1°C 34% Calm Calm -- 28.64 in969.9 mb 0.00 in0.0 mm 0.00 in/hr0.0 mm/hr 0.00 in0.0 mm
09:34 PM 36.0°F2.2°C 10.3°F-12.1°C 34% Calm Calm -- 28.64 in969.9 mb 0.00 in0.0 mm 0.00 in/hr0.0 mm/hr 0.00 in0.0 mm
09:36 PM 35.8°F2.1°C 10.2°F-12.1°C 34% Calm Calm -- 28.64 in969.9 mb 0.00 in0.0 mm 0.00 in/hr0.0 mm/hr 0.00 in0.0 mm
09:37 PM 35.6°F2.0°C 10.0°F-12.2°C 34% Calm Calm -- 28.64 in969.9 mb 0.00 in0.0 mm 0.00 in/hr0.0 mm/hr 0.00 in0.0 mm
09:39 PM 35.6°F2.0°C 10.0°F-12.2°C 34% Calm Calm -- 28.64 in969.9 mb 0.00 in0.0 mm 0.00 in/hr0.0 mm/hr 0.00 in0.0 mm
09:40 PM 35.4°F1.9°C 9.9°F-12.3°C 34% Calm Calm -- 28.64 in969.9 mb 0.00 in0.0 mm 0.00 in/hr0.0 mm/hr 0.00 in0.0 mm
09:41 PM 35.2°F1.8°C 9.7°F-12.4°C 34% Calm Calm -- 28.64 in969.9 mb 0.00 in0.0 mm 0.00 in/hr0.0 mm/hr 0.00 in0.0 mm
09:43 PM 34.9°F1.6°C 9.4°F-12.6°C 34% Calm Calm -- 28.64 in969.9 mb 0.00 in0.0 mm 0.00 in/hr0.0 mm/hr 0.00 in0.0 mm
09:44 PM 34.9°F1.6°C 9.4°F-12.6°C 34% Calm Calm -- 28.64 in969.9 mb 0.00 in0.0 mm 0.00 in/hr0.0 mm/hr 0.00 in0.0 mm
09:45 PM 34.9°F1.6°C 9.4°F-12.6°C 34% Calm Calm -- 28.64 in969.9 mb 0.00 in0.0 mm 0.00 in/hr0.0 mm/hr 0.00 in0.0 mm
09:46 PM 34.5°F1.4°C 9.7°F-12.4°C 35% Calm Calm -- 28.64 in969.9 mb 0.00 in0.0 mm 0.00 in/hr0.0 mm/hr 0.00 in0.0 mm
09:47 PM 34.5°F1.4°C 9.7°F-12.4°C 35% Calm Calm -- 28.64 in969.9 mb 0.00 in0.0 mm 0.00 in/hr0.0 mm/hr 0.00 in0.0 mm
09:48 PM 34.5°F1.4°C 9.7°F-12.4°C 35% Calm Calm -- 28.64 in969.9 mb 0.00 in0.0 mm 0.00 in/hr0.0 mm/hr 0.00 in0.0 mm
09:49 PM 34.3°F1.3°C 9.5°F-12.5°C 35% Calm Calm -- 28.64 in969.9 mb 0.00 in0.0 mm 0.00 in/hr0.0 mm/hr 0.00 in0.0 mm
09:51 PM 34.2°F1.2°C 9.4°F-12.6°C 35% Calm Calm -- 28.64 in969.9 mb 0.00 in0.0 mm 0.00 in/hr0.0 mm/hr 0.00 in0.0 mm
09:53 PM 34.0°F1.1°C 9.9°F-12.3°C 36% Calm Calm -- 28.64 in969.9 mb 0.00 in0.0 mm 0.00 in/hr0.0 mm/hr 0.00 in0.0 mm
09:54 PM 33.8°F1.0°C 9.7°F-12.4°C 36% Calm Calm -- 28.64 in969.9 mb 0.00 in0.0 mm 0.00 in/hr0.0 mm/hr 0.00 in0.0 mm
09:55 PM 33.8°F1.0°C 9.7°F-12.4°C 36% Calm Calm -- 28.64 in969.9 mb 0.00 in0.0 mm 0.00 in/hr0.0 mm/hr 0.00 in0.0 mm
09:56 PM 33.6°F0.9°C 10.1°F-12.2°C 37% Calm Calm -- 28.64 in969.9 mb 0.00 in0.0 mm 0.00 in/hr0.0 mm/hr 0.00 in0.0 mm
09:58 PM 33.3°F0.7°C 9.8°F-12.3°C 37% Calm Calm -- 28.64 in969.9 mb 0.00 in0.0 mm 0.00 in/hr0.0 mm/hr 0.00 in0.0 mm
09:59 PM 33.3°F0.7°C 9.8°F-12.3°C 37% Calm Calm -- 28.64 in969.9 mb 0.00 in0.0 mm 0.00 in/hr0.0 mm/hr 0.00 in0.0 mm
10:00 PM 33.1°F0.6°C 9.7°F-12.4°C 37% Calm Calm -- 28.64 in969.9 mb 0.00 in0.0 mm 0.00 in/hr0.0 mm/hr 0.00 in0.0 mm
10:02 PM 33.1°F0.6°C 9.7°F-12.4°C 37% Calm Calm -- 28.64 in969.9 mb 0.00 in0.0 mm 0.00 in/hr0.0 mm/hr 0.00 in0.0 mm
10:03 PM 33.1°F0.6°C 10.3°F-12.1°C 38% Calm Calm -- 28.64 in969.9 mb 0.00 in0.0 mm 0.00 in/hr0.0 mm/hr 0.00 in0.0 mm
10:05 PM 33.1°F0.6°C 10.3°F-12.1°C 38% Calm Calm -- 28.64 in969.9 mb 0.00 in0.0 mm 0.00 in/hr0.0 mm/hr 0.00 in0.0 mm
10:06 PM 32.9°F0.5°C 10.1°F-12.2°C 38% Calm Calm -- 28.64 in969.9 mb 0.00 in0.0 mm 0.00 in/hr0.0 mm/hr 0.00 in0.0 mm
10:07 PM 32.9°F0.5°C 10.1°F-12.2°C 38% Calm Calm -- 28.64 in969.9 mb 0.00 in0.0 mm 0.00 in/hr0.0 mm/hr 0.00 in0.0 mm
10:09 PM 32.9°F0.5°C 10.7°F-11.8°C 39% Calm Calm -- 28.64 in969.9 mb 0.00 in0.0 mm 0.00 in/hr0.0 mm/hr 0.00 in0.0 mm
10:10 PM 32.9°F0.5°C 10.7°F-11.8°C 39% Calm Calm -- 28.64 in969.9 mb 0.00 in0.0 mm 0.00 in/hr0.0 mm/hr 0.00 in0.0 mm
10:11 PM 33.1°F0.6°C 10.8°F-11.8°C 39% Calm Calm -- 28.64 in969.9 mb 0.00 in0.0 mm 0.00 in/hr0.0 mm/hr 0.00 in0.0 mm
10:12 PM 33.1°F0.6°C 11.4°F-11.4°C 40% Calm Calm -- 28.64 in969.9 mb 0.00 in0.0 mm 0.00 in/hr0.0 mm/hr 0.00 in0.0 mm
10:13 PM 33.1°F0.6°C 11.4°F-11.4°C 40% Calm Calm -- 28.64 in969.9 mb 0.00 in0.0 mm 0.00 in/hr0.0 mm/hr 0.00 in0.0 mm
10:14 PM 33.1°F0.6°C 11.4°F-11.4°C 40% Calm Calm -- 28.64 in969.9 mb 0.00 in0.0 mm 0.00 in/hr0.0 mm/hr 0.00 in0.0 mm
10:15 PM 33.1°F0.6°C 11.4°F-11.4°C 40% Calm Calm -- 28.64 in969.9 mb 0.00 in0.0 mm 0.00 in/hr0.0 mm/hr 0.00 in0.0 mm
10:17 PM 33.1°F0.6°C 11.4°F-11.4°C 40% Calm Calm -- 28.64 in969.9 mb 0.00 in0.0 mm 0.00 in/hr0.0 mm/hr 0.00 in0.0 mm
10:18 PM 33.1°F0.6°C 11.4°F-11.4°C 40% Calm Calm -- 28.64 in969.9 mb 0.00 in0.0 mm 0.00 in/hr0.0 mm/hr 0.00 in0.0 mm
10:20 PM 33.1°F0.6°C 11.4°F-11.4°C 40% Calm Calm -- 28.64 in969.9 mb 0.00 in0.0 mm 0.00 in/hr0.0 mm/hr 0.00 in0.0 mm
10:21 PM 33.1°F0.6°C 11.4°F-11.4°C 40% Calm Calm -- 28.64 in969.9 mb 0.00 in0.0 mm 0.00 in/hr0.0 mm/hr 0.00 in0.0 mm
10:22 PM 33.1°F0.6°C 11.4°F-11.4°C 40% Calm Calm -- 28.64 in969.9 mb 0.00 in0.0 mm 0.00 in/hr0.0 mm/hr 0.00 in0.0 mm
10:24 PM 33.3°F0.7°C 11.6°F-11.3°C 40% Calm Calm -- 28.64 in969.9 mb 0.00 in0.0 mm 0.00 in/hr0.0 mm/hr 0.00 in0.0 mm
10:25 PM 33.3°F0.7°C 11.6°F-11.3°C 40% Calm Calm -- 28.64 in969.9 mb 0.00 in0.0 mm 0.00 in/hr0.0 mm/hr 0.00 in0.0 mm
10:26 PM 33.3°F0.7°C 11.6°F-11.3°C 40% Calm Calm -- 28.64 in969.9 mb 0.00 in0.0 mm 0.00 in/hr0.0 mm/hr 0.00 in0.0 mm
10:28 PM 33.3°F0.7°C 11.6°F-11.3°C 40% Calm Calm -- 28.64 in969.9 mb 0.00 in0.0 mm 0.00 in/hr0.0 mm/hr 0.00 in0.0 mm
10:29 PM 33.3°F0.7°C 11.6°F-11.3°C 40% Calm Calm -- 28.64 in969.9 mb 0.00 in0.0 mm 0.00 in/hr0.0 mm/hr 0.00 in0.0 mm
10:31 PM 33.4°F0.8°C 11.7°F-11.3°C 40% Calm Calm -- 28.64 in969.9 mb 0.00 in0.0 mm 0.00 in/hr0.0 mm/hr 0.00 in0.0 mm
10:32 PM 33.4°F0.8°C 12.3°F-10.9°C 41% Calm Calm -- 28.64 in969.9 mb 0.00 in0.0 mm 0.00 in/hr0.0 mm/hr 0.00 in0.0 mm
10:33 PM 33.4°F0.8°C 12.3°F-10.9°C 41% Calm Calm -- 28.64 in969.9 mb 0.00 in0.0 mm 0.00 in/hr0.0 mm/hr 0.00 in0.0 mm
10:35 PM 33.4°F0.8°C 12.3°F-10.9°C 41% Calm Calm -- 28.64 in969.9 mb 0.00 in0.0 mm 0.00 in/hr0.0 mm/hr 0.00 in0.0 mm
10:36 PM 33.4°F0.8°C 12.3°F-10.9°C 41% Calm Calm -- 28.64 in969.9 mb 0.00 in0.0 mm 0.00 in/hr0.0 mm/hr 0.00 in0.0 mm
10:38 PM 33.4°F0.8°C 12.3°F-10.9°C 41% Calm Calm -- 28.64 in969.9 mb 0.00 in0.0 mm 0.00 in/hr0.0 mm/hr 0.00 in0.0 mm
10:39 PM 33.4°F0.8°C 12.3°F-10.9°C 41% Calm Calm -- 28.64 in969.9 mb 0.00 in0.0 mm 0.00 in/hr0.0 mm/hr 0.00 in0.0 mm
10:40 PM 33.4°F0.8°C 12.3°F-10.9°C 41% Calm Calm -- 28.64 in969.9 mb 0.00 in0.0 mm 0.00 in/hr0.0 mm/hr 0.00 in0.0 mm
10:42 PM 33.4°F0.8°C 12.3°F-10.9°C 41% Calm Calm -- 28.64 in969.9 mb 0.00 in0.0 mm 0.00 in/hr0.0 mm/hr 0.00 in0.0 mm
10:43 PM 33.4°F0.8°C 12.3°F-10.9°C 41% Calm Calm -- 28.64 in969.9 mb 0.00 in0.0 mm 0.00 in/hr0.0 mm/hr 0.00 in0.0 mm
10:44 PM 33.4°F0.8°C 12.3°F-10.9°C 41% Calm Calm -- 28.64 in969.9 mb 0.00 in0.0 mm 0.00 in/hr0.0 mm/hr 0.00 in0.0 mm
10:46 PM 33.6°F0.9°C 12.5°F-10.8°C 41% Calm Calm -- 28.64 in969.9 mb 0.00 in0.0 mm 0.00 in/hr0.0 mm/hr 0.00 in0.0 mm
10:47 PM 33.6°F0.9°C 12.5°F-10.8°C 41% Calm Calm -- 28.64 in969.9 mb 0.00 in0.0 mm 0.00 in/hr0.0 mm/hr 0.00 in0.0 mm
10:49 PM 33.6°F0.9°C 12.5°F-10.8°C 41% Calm Calm -- 28.64 in969.9 mb 0.00 in0.0 mm 0.00 in/hr0.0 mm/hr 0.00 in0.0 mm
10:50 PM 33.6°F0.9°C 12.5°F-10.8°C 41% Calm Calm -- 28.64 in969.9 mb 0.00 in0.0 mm 0.00 in/hr0.0 mm/hr 0.00 in0.0 mm
10:51 PM 33.6°F0.9°C 12.5°F-10.8°C 41% Calm Calm -- 28.64 in969.9 mb 0.00 in0.0 mm 0.00 in/hr0.0 mm/hr 0.00 in0.0 mm
10:52 PM 33.6°F0.9°C 12.5°F-10.8°C 41% Calm Calm -- 28.64 in969.9 mb 0.00 in0.0 mm 0.00 in/hr0.0 mm/hr 0.00 in0.0 mm
10:54 PM 33.6°F0.9°C 12.5°F-10.8°C 41% Calm Calm -- 28.64 in969.9 mb 0.00 in0.0 mm 0.00 in/hr0.0 mm/hr 0.00 in0.0 mm
10:55 PM 33.8°F1.0°C 12.6°F-10.8°C 41% Calm Calm -- 28.64 in969.9 mb 0.00 in0.0 mm 0.00 in/hr0.0 mm/hr 0.00 in0.0 mm
10:57 PM 33.8°F1.0°C 12.6°F-10.8°C 41% Calm Calm -- 28.64 in969.9 mb 0.00 in0.0 mm 0.00 in/hr0.0 mm/hr 0.00 in0.0 mm
10:58 PM 33.8°F1.0°C 12.6°F-10.8°C 41% Calm Calm -- 28.64 in969.9 mb 0.00 in0.0 mm 0.00 in/hr0.0 mm/hr 0.00 in0.0 mm
10:59 PM 33.8°F1.0°C 12.6°F-10.8°C 41% Calm Calm -- 28.64 in969.9 mb 0.00 in0.0 mm 0.00 in/hr0.0 mm/hr 0.00 in0.0 mm
11:01 PM 34.0°F1.1°C 12.8°F-10.7°C 41% Calm Calm -- 28.64 in969.9 mb 0.00 in0.0 mm 0.00 in/hr0.0 mm/hr 0.00 in0.0 mm
11:02 PM 34.0°F1.1°C 12.8°F-10.7°C 41% Calm Calm -- 28.64 in969.9 mb 0.00 in0.0 mm 0.00 in/hr0.0 mm/hr 0.00 in0.0 mm
11:03 PM 34.0°F1.1°C 12.8°F-10.7°C 41% Calm Calm -- 28.64 in969.9 mb 0.00 in0.0 mm 0.00 in/hr0.0 mm/hr 0.00 in0.0 mm
11:04 PM 34.0°F1.1°C 12.8°F-10.7°C 41% Calm Calm -- 28.64 in969.9 mb 0.00 in0.0 mm 0.00 in/hr0.0 mm/hr 0.00 in0.0 mm
11:05 PM 34.0°F1.1°C 12.8°F-10.7°C 41% Calm Calm -- 28.64 in969.9 mb 0.00 in0.0 mm 0.00 in/hr0.0 mm/hr 0.00 in0.0 mm
11:06 PM 34.0°F1.1°C 12.8°F-10.7°C 41% Calm Calm -- 28.64 in969.9 mb 0.00 in0.0 mm 0.00 in/hr0.0 mm/hr 0.00 in0.0 mm
11:08 PM 34.0°F1.1°C 12.8°F-10.7°C 41% Calm Calm -- 28.64 in969.9 mb 0.00 in0.0 mm 0.00 in/hr0.0 mm/hr 0.00 in0.0 mm
11:09 PM 34.0°F1.1°C 12.8°F-10.7°C 41% Calm Calm -- 28.64 in969.9 mb 0.00 in0.0 mm 0.00 in/hr0.0 mm/hr 0.00 in0.0 mm
11:10 PM 34.0°F1.1°C 12.8°F-10.7°C 41% Calm Calm -- 28.64 in969.9 mb 0.00 in0.0 mm 0.00 in/hr0.0 mm/hr 0.00 in0.0 mm
11:12 PM 34.0°F1.1°C 12.8°F-10.7°C 41% Calm Calm -- 28.64 in969.9 mb 0.00 in0.0 mm 0.00 in/hr0.0 mm/hr 0.00 in0.0 mm
11:13 PM 34.0°F1.1°C 12.8°F-10.7°C 41% Calm Calm -- 28.64 in969.9 mb 0.00 in0.0 mm 0.00 in/hr0.0 mm/hr 0.00 in0.0 mm
11:15 PM 33.8°F1.0°C 12.6°F-10.8°C 41% Calm Calm -- 28.64 in969.9 mb 0.00 in0.0 mm 0.00 in/hr0.0 mm/hr 0.00 in0.0 mm
11:16 PM 33.8°F1.0°C 12.6°F-10.8°C 41% Calm Calm -- 28.64 in969.9 mb 0.00 in0.0 mm 0.00 in/hr0.0 mm/hr 0.00 in0.0 mm
11:17 PM 33.8°F1.0°C 12.6°F-10.8°C 41% Calm Calm -- 28.64 in969.9 mb 0.00 in0.0 mm 0.00 in/hr0.0 mm/hr 0.00 in0.0 mm
11:18 PM 33.6°F0.9°C 12.5°F-10.8°C 41% Calm Calm -- 28.64 in969.9 mb 0.00 in0.0 mm 0.00 in/hr0.0 mm/hr 0.00 in0.0 mm
11:20 PM 33.6°F0.9°C 12.5°F-10.8°C 41% Calm Calm -- 28.64 in969.9 mb 0.00 in0.0 mm 0.00 in/hr0.0 mm/hr 0.00 in0.0 mm
11:22 PM 33.4°F0.8°C 12.3°F-10.9°C 41% Calm Calm -- 28.64 in969.9 mb 0.00 in0.0 mm 0.00 in/hr0.0 mm/hr 0.00 in0.0 mm
11:23 PM 33.3°F0.7°C 12.1°F-11.1°C 41% Calm Calm -- 28.64 in969.9 mb 0.00 in0.0 mm 0.00 in/hr0.0 mm/hr 0.00 in0.0 mm
11:24 PM 33.3°F0.7°C 12.1°F-11.1°C 41% Calm Calm -- 28.64 in969.9 mb 0.00 in0.0 mm 0.00 in/hr0.0 mm/hr 0.00 in0.0 mm
11:25 PM 33.3°F0.7°C 12.1°F-11.1°C 41% Calm Calm -- 28.64 in969.9 mb 0.00 in0.0 mm 0.00 in/hr0.0 mm/hr 0.00 in0.0 mm
11:26 PM 33.3°F0.7°C 12.1°F-11.1°C 41% Calm Calm -- 28.64 in969.9 mb 0.00 in0.0 mm 0.00 in/hr0.0 mm/hr 0.00 in0.0 mm
11:27 PM 33.3°F0.7°C 12.1°F-11.1°C 41% Calm Calm -- 28.64 in969.9 mb 0.00 in0.0 mm 0.00 in/hr0.0 mm/hr 0.00 in0.0 mm
11:28 PM 33.3°F0.7°C 12.1°F-11.1°C 41% Calm Calm -- 28.64 in969.9 mb 0.00 in0.0 mm 0.00 in/hr0.0 mm/hr 0.00 in0.0 mm
11:29 PM 33.3°F0.7°C 12.1°F-11.1°C 41% Calm Calm -- 28.64 in969.9 mb 0.00 in0.0 mm 0.00 in/hr0.0 mm/hr 0.00 in0.0 mm
11:30 PM 33.1°F0.6°C 12.0°F-11.1°C 41% Calm Calm -- 28.64 in969.9 mb 0.00 in0.0 mm 0.00 in/hr0.0 mm/hr 0.00 in0.0 mm
11:31 PM 33.1°F0.6°C 12.0°F-11.1°C 41% Calm Calm -- 28.64 in969.9 mb 0.00 in0.0 mm 0.00 in/hr0.0 mm/hr 0.00 in0.0 mm
11:32 PM 33.1°F0.6°C 12.0°F-11.1°C 41% Calm Calm -- 28.64 in969.9 mb 0.00 in0.0 mm 0.00 in/hr0.0 mm/hr 0.00 in0.0 mm
11:33 PM 32.9°F0.5°C 11.8°F-11.2°C 41% Calm Calm -- 28.64 in969.9 mb 0.00 in0.0 mm 0.00 in/hr0.0 mm/hr 0.00 in0.0 mm
11:34 PM 32.7°F0.4°C 11.6°F-11.3°C 41% Calm Calm -- 28.64 in969.9 mb 0.00 in0.0 mm 0.00 in/hr0.0 mm/hr 0.00 in0.0 mm
11:35 PM 32.7°F0.4°C 11.6°F-11.3°C 41% Calm Calm -- 28.64 in969.9 mb 0.00 in0.0 mm 0.00 in/hr0.0 mm/hr 0.00 in0.0 mm
11:36 PM 32.5°F0.3°C 11.5°F-11.4°C 41% Calm Calm -- 28.64 in969.9 mb 0.00 in0.0 mm 0.00 in/hr0.0 mm/hr 0.00 in0.0 mm
11:37 PM 32.5°F0.3°C 11.5°F-11.4°C 41% Calm Calm -- 28.64 in969.9 mb 0.00 in0.0 mm 0.00 in/hr0.0 mm/hr 0.00 in0.0 mm
11:38 PM 32.5°F0.3°C 11.5°F-11.4°C 41% Calm Calm -- 28.64 in969.9 mb 0.00 in0.0 mm 0.00 in/hr0.0 mm/hr 0.00 in0.0 mm
11:39 PM 32.4°F0.2°C 11.3°F-11.5°C 41% Calm Calm -- 28.64 in969.9 mb 0.00 in0.0 mm 0.00 in/hr0.0 mm/hr 0.00 in0.0 mm
11:40 PM 32.4°F0.2°C 11.3°F-11.5°C 41% Calm Calm -- 28.64 in969.9 mb 0.00 in0.0 mm 0.00 in/hr0.0 mm/hr 0.00 in0.0 mm
11:41 PM 32.4°F0.2°C 11.3°F-11.5°C 41% Calm Calm -- 28.64 in969.9 mb 0.00 in0.0 mm 0.00 in/hr0.0 mm/hr 0.00 in0.0 mm
11:42 PM 32.2°F0.1°C 11.1°F-11.6°C 41% Calm Calm -- 28.64 in969.9 mb 0.00 in0.0 mm 0.00 in/hr0.0 mm/hr 0.00 in0.0 mm
11:43 PM 32.2°F0.1°C 11.1°F-11.6°C 41% Calm Calm -- 28.64 in969.9 mb 0.00 in0.0 mm 0.00 in/hr0.0 mm/hr 0.00 in0.0 mm
11:44 PM 32.2°F0.1°C 11.1°F-11.6°C 41% Calm Calm -- 28.64 in969.9 mb 0.00 in0.0 mm 0.00 in/hr0.0 mm/hr 0.00 in0.0 mm
11:45 PM 32.2°F0.1°C 11.1°F-11.6°C 41% Calm Calm -- 28.64 in969.9 mb 0.00 in0.0 mm 0.00 in/hr0.0 mm/hr 0.00 in0.0 mm
11:46 PM 32.2°F0.1°C 11.7°F-11.3°C 42% Calm Calm -- 28.64 in969.9 mb 0.00 in0.0 mm 0.00 in/hr0.0 mm/hr 0.00 in0.0 mm
11:47 PM 32.0°F0.0°C 11.5°F-11.4°C 42% Calm Calm -- 28.64 in969.9 mb 0.00 in0.0 mm 0.00 in/hr0.0 mm/hr 0.00 in0.0 mm
11:48 PM 32.0°F0.0°C 11.5°F-11.4°C 42% Calm Calm -- 28.61 in968.8 mb 0.00 in0.0 mm 0.00 in/hr0.0 mm/hr 0.00 in0.0 mm
11:49 PM 32.0°F0.0°C 11.5°F-11.4°C 42% Calm Calm -- 28.61 in968.8 mb 0.00 in0.0 mm 0.00 in/hr0.0 mm/hr 0.00 in0.0 mm
11:50 PM 32.0°F0.0°C 11.5°F-11.4°C 42% Calm Calm -- 28.61 in968.8 mb 0.00 in0.0 mm 0.00 in/hr0.0 mm/hr 0.00 in0.0 mm
11:51 PM 32.0°F0.0°C 11.5°F-11.4°C 42% Calm Calm -- 28.61 in968.8 mb 0.00 in0.0 mm 0.00 in/hr0.0 mm/hr 0.00 in0.0 mm
11:52 PM 32.0°F0.0°C 11.5°F-11.4°C 42% Calm Calm -- 28.61 in968.8 mb 0.00 in0.0 mm 0.00 in/hr0.0 mm/hr 0.00 in0.0 mm
11:54 PM 32.0°F0.0°C 11.5°F-11.4°C 42% Calm Calm -- 28.61 in968.8 mb 0.00 in0.0 mm 0.00 in/hr0.0 mm/hr 0.00 in0.0 mm
11:56 PM 32.2°F0.1°C 11.7°F-11.3°C 42% Calm Calm -- 28.61 in968.8 mb 0.00 in0.0 mm 0.00 in/hr0.0 mm/hr 0.00 in0.0 mm
11:57 PM 32.2°F0.1°C 11.7°F-11.3°C 42% Calm Calm -- 28.61 in968.8 mb 0.00 in0.0 mm 0.00 in/hr0.0 mm/hr 0.00 in0.0 mm
11:58 PM 32.2°F0.1°C 11.7°F-11.3°C 42% Calm Calm -- 28.61 in968.8 mb 0.00 in0.0 mm 0.00 in/hr0.0 mm/hr 0.00 in0.0 mm
11:59 PM 32.4°F0.2°C 12.4°F-10.9°C 43% Calm Calm -- 28.61 in968.8 mb 0.00 in0.0 mm 0.00 in/hr0.0 mm/hr 0.00 in0.0 mm